<?xml version="1.0" encoding="UTF-8"?>
<gpx version="1.1" creator="GPS Track Editor" xmlns="http://www.topografix.com/GPX/1/1" xmlns:xsi="http://www.w3.org/2001/XMLSchema-instance" xmlns:gte="http://www.gpstrackeditor.com/xmlschemas/General/1" xmlns:gpxtpx="http://www.garmin.com/xmlschemas/TrackPointExtension/v1" xmlns:gpxx="http://www.garmin.com/xmlschemas/GpxExtensions/v3" targetNamespace="http://www.topografix.com/GPX/1/1" elementFormDefault="qualified" xsi:schemaLocation="http://www.topografix.com/GPX/1/1 http://www.topografix.com/GPX/1/1/gpx.xsd">
<metadata>
	<name>2017-03-19 180755_MonteGrammondo.gpx</name>
	<link href="http://www.garmin.com">
		<text>Garmin International</text>
	</link>
</metadata>
<trk>
	<name>Monte Grammondo</name>
	<trkseg>
		<trkpt lat="43.882878" lon="7.512046">
			<ele>360.29</ele>
			<time>2017-03-19T08:01:29Z</time>
		</trkpt>
		<trkpt lat="43.882878" lon="7.512049">
			<ele>360.29</ele>
			<time>2017-03-19T08:01:30Z</time>
		</trkpt>
		<trkpt lat="43.882829" lon="7.512161">
			<ele>362.72</ele>
			<time>2017-03-19T08:01:45Z</time>
		</trkpt>
		<trkpt lat="43.882819" lon="7.512192">
			<ele>362.18</ele>
			<time>2017-03-19T08:01:48Z</time>
		</trkpt>
		<trkpt lat="43.882744" lon="7.512258">
			<ele>358.97</ele>
			<time>2017-03-19T08:02:02Z</time>
		</trkpt>
		<trkpt lat="43.882685" lon="7.512236">
			<ele>357.33</ele>
			<time>2017-03-19T08:02:17Z</time>
		</trkpt>
		<trkpt lat="43.882563" lon="7.512275">
			<ele>355.10</ele>
			<time>2017-03-19T08:02:30Z</time>
		</trkpt>
		<trkpt lat="43.882505" lon="7.512287">
			<ele>354.30</ele>
			<time>2017-03-19T08:02:57Z</time>
		</trkpt>
		<trkpt lat="43.882461" lon="7.512289">
			<ele>353.45</ele>
			<time>2017-03-19T08:03:12Z</time>
		</trkpt>
		<trkpt lat="43.882371" lon="7.512272">
			<ele>351.30</ele>
			<time>2017-03-19T08:03:28Z</time>
		</trkpt>
		<trkpt lat="43.882223" lon="7.512358">
			<ele>349.66</ele>
			<time>2017-03-19T08:03:44Z</time>
		</trkpt>
		<trkpt lat="43.882151" lon="7.512427">
			<ele>348.68</ele>
			<time>2017-03-19T08:03:54Z</time>
		</trkpt>
		<trkpt lat="43.882059" lon="7.512549">
			<ele>347.12</ele>
			<time>2017-03-19T08:04:09Z</time>
		</trkpt>
		<trkpt lat="43.881957" lon="7.512598">
			<ele>346.22</ele>
			<time>2017-03-19T08:04:17Z</time>
		</trkpt>
		<trkpt lat="43.881854" lon="7.512730">
			<ele>343.84</ele>
			<time>2017-03-19T08:04:36Z</time>
		</trkpt>
		<trkpt lat="43.881784" lon="7.512855">
			<ele>341.53</ele>
			<time>2017-03-19T08:04:55Z</time>
		</trkpt>
		<trkpt lat="43.881668" lon="7.512859">
			<ele>339.84</ele>
			<time>2017-03-19T08:05:07Z</time>
		</trkpt>
		<trkpt lat="43.881480" lon="7.512886">
			<ele>337.65</ele>
			<time>2017-03-19T08:05:26Z</time>
		</trkpt>
		<trkpt lat="43.881354" lon="7.512849">
			<ele>335.58</ele>
			<time>2017-03-19T08:05:38Z</time>
		</trkpt>
		<trkpt lat="43.881178" lon="7.512882">
			<ele>332.75</ele>
			<time>2017-03-19T08:05:58Z</time>
		</trkpt>
		<trkpt lat="43.881075" lon="7.512989">
			<ele>330.71</ele>
			<time>2017-03-19T08:06:17Z</time>
		</trkpt>
		<trkpt lat="43.881025" lon="7.512989">
			<ele>330.49</ele>
			<time>2017-03-19T08:06:22Z</time>
		</trkpt>
		<trkpt lat="43.880931" lon="7.512973">
			<ele>329.42</ele>
			<time>2017-03-19T08:06:31Z</time>
		</trkpt>
		<trkpt lat="43.880837" lon="7.513046">
			<ele>327.52</ele>
			<time>2017-03-19T08:06:48Z</time>
		</trkpt>
		<trkpt lat="43.880757" lon="7.513169">
			<ele>326.54</ele>
			<time>2017-03-19T08:07:42Z</time>
		</trkpt>
		<trkpt lat="43.880707" lon="7.513256">
			<ele>326.07</ele>
			<time>2017-03-19T08:07:56Z</time>
		</trkpt>
		<trkpt lat="43.880611" lon="7.513338">
			<ele>323.39</ele>
			<time>2017-03-19T08:08:11Z</time>
		</trkpt>
		<trkpt lat="43.880594" lon="7.513357">
			<ele>322.68</ele>
			<time>2017-03-19T08:08:14Z</time>
		</trkpt>
		<trkpt lat="43.880565" lon="7.513423">
			<ele>320.45</ele>
			<time>2017-03-19T08:08:27Z</time>
		</trkpt>
		<trkpt lat="43.880523" lon="7.513477">
			<ele>317.52</ele>
			<time>2017-03-19T08:08:42Z</time>
		</trkpt>
		<trkpt lat="43.880443" lon="7.513528">
			<ele>314.36</ele>
			<time>2017-03-19T08:08:56Z</time>
		</trkpt>
		<trkpt lat="43.880395" lon="7.513507">
			<ele>312.78</ele>
			<time>2017-03-19T08:09:04Z</time>
		</trkpt>
		<trkpt lat="43.880277" lon="7.513517">
			<ele>309.88</ele>
			<time>2017-03-19T08:09:21Z</time>
		</trkpt>
		<trkpt lat="43.880172" lon="7.513531">
			<ele>306.77</ele>
			<time>2017-03-19T08:09:37Z</time>
		</trkpt>
		<trkpt lat="43.880143" lon="7.513548">
			<ele>305.72</ele>
			<time>2017-03-19T08:09:42Z</time>
		</trkpt>
		<trkpt lat="43.880113" lon="7.513589">
			<ele>303.73</ele>
			<time>2017-03-19T08:09:58Z</time>
		</trkpt>
		<trkpt lat="43.880118" lon="7.513600">
			<ele>303.52</ele>
			<time>2017-03-19T08:10:18Z</time>
		</trkpt>
		<trkpt lat="43.880060" lon="7.513622">
			<ele>303.13</ele>
			<time>2017-03-19T08:10:29Z</time>
		</trkpt>
		<trkpt lat="43.879972" lon="7.513615">
			<ele>301.91</ele>
			<time>2017-03-19T08:10:38Z</time>
		</trkpt>
		<trkpt lat="43.879925" lon="7.513660">
			<ele>301.24</ele>
			<time>2017-03-19T08:10:42Z</time>
		</trkpt>
		<trkpt lat="43.879896" lon="7.513680">
			<ele>300.86</ele>
			<time>2017-03-19T08:10:44Z</time>
		</trkpt>
		<trkpt lat="43.879821" lon="7.513667">
			<ele>298.79</ele>
			<time>2017-03-19T08:10:58Z</time>
		</trkpt>
		<trkpt lat="43.879733" lon="7.513717">
			<ele>295.57</ele>
			<time>2017-03-19T08:11:15Z</time>
		</trkpt>
		<trkpt lat="43.879694" lon="7.513710">
			<ele>293.76</ele>
			<time>2017-03-19T08:11:27Z</time>
		</trkpt>
		<trkpt lat="43.879641" lon="7.513747">
			<ele>292.39</ele>
			<time>2017-03-19T08:11:32Z</time>
		</trkpt>
		<trkpt lat="43.879612" lon="7.513765">
			<ele>291.81</ele>
			<time>2017-03-19T08:11:34Z</time>
		</trkpt>
		<trkpt lat="43.879511" lon="7.513799">
			<ele>286.52</ele>
			<time>2017-03-19T08:11:57Z</time>
		</trkpt>
		<trkpt lat="43.879438" lon="7.513825">
			<ele>284.33</ele>
			<time>2017-03-19T08:12:17Z</time>
		</trkpt>
		<trkpt lat="43.879365" lon="7.513864">
			<ele>283.79</ele>
			<time>2017-03-19T08:12:33Z</time>
		</trkpt>
		<trkpt lat="43.879236" lon="7.513857">
			<ele>280.51</ele>
			<time>2017-03-19T08:12:50Z</time>
		</trkpt>
		<trkpt lat="43.879256" lon="7.513708">
			<ele>277.49</ele>
			<time>2017-03-19T08:13:05Z</time>
		</trkpt>
		<trkpt lat="43.879182" lon="7.513560">
			<ele>274.47</ele>
			<time>2017-03-19T08:13:23Z</time>
		</trkpt>
		<trkpt lat="43.879159" lon="7.513563">
			<ele>274.14</ele>
			<time>2017-03-19T08:13:25Z</time>
		</trkpt>
		<trkpt lat="43.878981" lon="7.513583">
			<ele>270.83</ele>
			<time>2017-03-19T08:13:41Z</time>
		</trkpt>
		<trkpt lat="43.878907" lon="7.513635">
			<ele>269.27</ele>
			<time>2017-03-19T08:13:58Z</time>
		</trkpt>
		<trkpt lat="43.878899" lon="7.513499">
			<ele>266.34</ele>
			<time>2017-03-19T08:14:13Z</time>
		</trkpt>
		<trkpt lat="43.878901" lon="7.513467">
			<ele>265.92</ele>
			<time>2017-03-19T08:14:15Z</time>
		</trkpt>
		<trkpt lat="43.878856" lon="7.513349">
			<ele>263.83</ele>
			<time>2017-03-19T08:14:27Z</time>
		</trkpt>
		<trkpt lat="43.878670" lon="7.513357">
			<ele>262.54</ele>
			<time>2017-03-19T08:14:45Z</time>
		</trkpt>
		<trkpt lat="43.878588" lon="7.513377">
			<ele>262.34</ele>
			<time>2017-03-19T08:14:53Z</time>
		</trkpt>
		<trkpt lat="43.878420" lon="7.513287">
			<ele>262.34</ele>
			<time>2017-03-19T08:15:10Z</time>
		</trkpt>
		<trkpt lat="43.878363" lon="7.513166">
			<ele>262.95</ele>
			<time>2017-03-19T08:15:19Z</time>
		</trkpt>
		<trkpt lat="43.878256" lon="7.512893">
			<ele>263.83</ele>
			<time>2017-03-19T08:15:36Z</time>
		</trkpt>
		<trkpt lat="43.878188" lon="7.512699">
			<ele>264.29</ele>
			<time>2017-03-19T08:15:51Z</time>
		</trkpt>
		<trkpt lat="43.878066" lon="7.512487">
			<ele>263.96</ele>
			<time>2017-03-19T08:16:08Z</time>
		</trkpt>
		<trkpt lat="43.877893" lon="7.512351">
			<ele>262.78</ele>
			<time>2017-03-19T08:16:25Z</time>
		</trkpt>
		<trkpt lat="43.877786" lon="7.512195">
			<ele>259.71</ele>
			<time>2017-03-19T08:16:43Z</time>
		</trkpt>
		<trkpt lat="43.877692" lon="7.511980">
			<ele>257.05</ele>
			<time>2017-03-19T08:17:02Z</time>
		</trkpt>
		<trkpt lat="43.877618" lon="7.511869">
			<ele>255.99</ele>
			<time>2017-03-19T08:17:12Z</time>
		</trkpt>
		<trkpt lat="43.877580" lon="7.511751">
			<ele>255.06</ele>
			<time>2017-03-19T08:17:31Z</time>
		</trkpt>
		<trkpt lat="43.877587" lon="7.511639">
			<ele>254.50</ele>
			<time>2017-03-19T08:17:38Z</time>
		</trkpt>
		<trkpt lat="43.877585" lon="7.511515">
			<ele>253.80</ele>
			<time>2017-03-19T08:17:57Z</time>
		</trkpt>
		<trkpt lat="43.877546" lon="7.511396">
			<ele>253.09</ele>
			<time>2017-03-19T08:18:16Z</time>
		</trkpt>
		<trkpt lat="43.877440" lon="7.511326">
			<ele>252.60</ele>
			<time>2017-03-19T08:18:24Z</time>
		</trkpt>
		<trkpt lat="43.877301" lon="7.511361">
			<ele>252.17</ele>
			<time>2017-03-19T08:18:58Z</time>
		</trkpt>
		<trkpt lat="43.877264" lon="7.511384">
			<ele>252.06</ele>
			<time>2017-03-19T08:19:18Z</time>
		</trkpt>
		<trkpt lat="43.877222" lon="7.511402">
			<ele>252.60</ele>
			<time>2017-03-19T08:19:39Z</time>
		</trkpt>
		<trkpt lat="43.877126" lon="7.511422">
			<ele>254.11</ele>
			<time>2017-03-19T08:20:54Z</time>
		</trkpt>
		<trkpt lat="43.877042" lon="7.511399">
			<ele>256.29</ele>
			<time>2017-03-19T08:21:12Z</time>
		</trkpt>
		<trkpt lat="43.876956" lon="7.511423">
			<ele>257.91</ele>
			<time>2017-03-19T08:21:36Z</time>
		</trkpt>
		<trkpt lat="43.876956" lon="7.511433">
			<ele>260.83</ele>
			<time>2017-03-19T08:21:57Z</time>
		</trkpt>
		<trkpt lat="43.876959" lon="7.511537">
			<ele>266.02</ele>
			<time>2017-03-19T08:22:37Z</time>
		</trkpt>
		<trkpt lat="43.876912" lon="7.511638">
			<ele>268.97</ele>
			<time>2017-03-19T08:22:57Z</time>
		</trkpt>
		<trkpt lat="43.876833" lon="7.511767">
			<ele>271.48</ele>
			<time>2017-03-19T08:23:17Z</time>
		</trkpt>
		<trkpt lat="43.876807" lon="7.511838">
			<ele>272.93</ele>
			<time>2017-03-19T08:23:28Z</time>
		</trkpt>
		<trkpt lat="43.876692" lon="7.511968">
			<ele>275.66</ele>
			<time>2017-03-19T08:23:51Z</time>
		</trkpt>
		<trkpt lat="43.876534" lon="7.512009">
			<ele>278.72</ele>
			<time>2017-03-19T08:24:12Z</time>
		</trkpt>
		<trkpt lat="43.876474" lon="7.512041">
			<ele>280.10</ele>
			<time>2017-03-19T08:24:22Z</time>
		</trkpt>
		<trkpt lat="43.876326" lon="7.512107">
			<ele>282.03</ele>
			<time>2017-03-19T08:24:41Z</time>
		</trkpt>
		<trkpt lat="43.876174" lon="7.512151">
			<ele>283.59</ele>
			<time>2017-03-19T08:24:58Z</time>
		</trkpt>
		<trkpt lat="43.876055" lon="7.512084">
			<ele>285.45</ele>
			<time>2017-03-19T08:25:18Z</time>
		</trkpt>
		<trkpt lat="43.875898" lon="7.512098">
			<ele>287.24</ele>
			<time>2017-03-19T08:25:39Z</time>
		</trkpt>
		<trkpt lat="43.875734" lon="7.512078">
			<ele>288.13</ele>
			<time>2017-03-19T08:26:01Z</time>
		</trkpt>
		<trkpt lat="43.875734" lon="7.512077">
			<ele>288.12</ele>
			<time>2017-03-19T08:26:02Z</time>
		</trkpt>
		<trkpt lat="43.875727" lon="7.512224">
			<ele>288.21</ele>
			<time>2017-03-19T08:26:22Z</time>
		</trkpt>
		<trkpt lat="43.875685" lon="7.512434">
			<ele>291.15</ele>
			<time>2017-03-19T08:26:41Z</time>
		</trkpt>
		<trkpt lat="43.875640" lon="7.512545">
			<ele>293.45</ele>
			<time>2017-03-19T08:27:00Z</time>
		</trkpt>
		<trkpt lat="43.875511" lon="7.512573">
			<ele>295.32</ele>
			<time>2017-03-19T08:27:16Z</time>
		</trkpt>
		<trkpt lat="43.875428" lon="7.512506">
			<ele>297.31</ele>
			<time>2017-03-19T08:27:33Z</time>
		</trkpt>
		<trkpt lat="43.875401" lon="7.512443">
			<ele>298.35</ele>
			<time>2017-03-19T08:27:40Z</time>
		</trkpt>
		<trkpt lat="43.875315" lon="7.512363">
			<ele>300.78</ele>
			<time>2017-03-19T08:28:00Z</time>
		</trkpt>
		<trkpt lat="43.875305" lon="7.512461">
			<ele>302.81</ele>
			<time>2017-03-19T08:28:17Z</time>
		</trkpt>
		<trkpt lat="43.875334" lon="7.512575">
			<ele>304.79</ele>
			<time>2017-03-19T08:28:35Z</time>
		</trkpt>
		<trkpt lat="43.875361" lon="7.512681">
			<ele>307.11</ele>
			<time>2017-03-19T08:28:55Z</time>
		</trkpt>
		<trkpt lat="43.875421" lon="7.512797">
			<ele>309.65</ele>
			<time>2017-03-19T08:29:12Z</time>
		</trkpt>
		<trkpt lat="43.875531" lon="7.512944">
			<ele>312.31</ele>
			<time>2017-03-19T08:29:33Z</time>
		</trkpt>
		<trkpt lat="43.875629" lon="7.513056">
			<ele>315.34</ele>
			<time>2017-03-19T08:29:51Z</time>
		</trkpt>
		<trkpt lat="43.875719" lon="7.513118">
			<ele>317.44</ele>
			<time>2017-03-19T08:30:14Z</time>
		</trkpt>
		<trkpt lat="43.875820" lon="7.513180">
			<ele>319.32</ele>
			<time>2017-03-19T08:30:33Z</time>
		</trkpt>
		<trkpt lat="43.875936" lon="7.513264">
			<ele>321.23</ele>
			<time>2017-03-19T08:30:55Z</time>
		</trkpt>
		<trkpt lat="43.875966" lon="7.513343">
			<ele>322.67</ele>
			<time>2017-03-19T08:31:11Z</time>
		</trkpt>
		<trkpt lat="43.875994" lon="7.513367">
			<ele>323.05</ele>
			<time>2017-03-19T08:31:15Z</time>
		</trkpt>
		<trkpt lat="43.876014" lon="7.513476">
			<ele>325.61</ele>
			<time>2017-03-19T08:31:40Z</time>
		</trkpt>
		<trkpt lat="43.875904" lon="7.513511">
			<ele>327.77</ele>
			<time>2017-03-19T08:32:01Z</time>
		</trkpt>
		<trkpt lat="43.875796" lon="7.513543">
			<ele>329.66</ele>
			<time>2017-03-19T08:32:22Z</time>
		</trkpt>
		<trkpt lat="43.875731" lon="7.513531">
			<ele>332.41</ele>
			<time>2017-03-19T08:32:45Z</time>
		</trkpt>
		<trkpt lat="43.875627" lon="7.513459">
			<ele>335.81</ele>
			<time>2017-03-19T08:33:31Z</time>
		</trkpt>
		<trkpt lat="43.875563" lon="7.513492">
			<ele>337.74</ele>
			<time>2017-03-19T08:33:51Z</time>
		</trkpt>
		<trkpt lat="43.875435" lon="7.513487">
			<ele>339.54</ele>
			<time>2017-03-19T08:34:14Z</time>
		</trkpt>
		<trkpt lat="43.875361" lon="7.513468">
			<ele>340.95</ele>
			<time>2017-03-19T08:34:34Z</time>
		</trkpt>
		<trkpt lat="43.875305" lon="7.513388">
			<ele>341.76</ele>
			<time>2017-03-19T08:34:57Z</time>
		</trkpt>
		<trkpt lat="43.875199" lon="7.513399">
			<ele>344.71</ele>
			<time>2017-03-19T08:35:18Z</time>
		</trkpt>
		<trkpt lat="43.875106" lon="7.513380">
			<ele>347.33</ele>
			<time>2017-03-19T08:35:36Z</time>
		</trkpt>
		<trkpt lat="43.875062" lon="7.513440">
			<ele>349.49</ele>
			<time>2017-03-19T08:36:00Z</time>
		</trkpt>
		<trkpt lat="43.874986" lon="7.513467">
			<ele>351.12</ele>
			<time>2017-03-19T08:36:21Z</time>
		</trkpt>
		<trkpt lat="43.874930" lon="7.513523">
			<ele>353.49</ele>
			<time>2017-03-19T08:36:45Z</time>
		</trkpt>
		<trkpt lat="43.874913" lon="7.513535">
			<ele>354.02</ele>
			<time>2017-03-19T08:36:53Z</time>
		</trkpt>
		<trkpt lat="43.874838" lon="7.513632">
			<ele>356.07</ele>
			<time>2017-03-19T08:37:13Z</time>
		</trkpt>
		<trkpt lat="43.874828" lon="7.513670">
			<ele>357.09</ele>
			<time>2017-03-19T08:37:21Z</time>
		</trkpt>
		<trkpt lat="43.874822" lon="7.513764">
			<ele>359.53</ele>
			<time>2017-03-19T08:37:42Z</time>
		</trkpt>
		<trkpt lat="43.874747" lon="7.513977">
			<ele>367.61</ele>
			<time>2017-03-19T08:39:06Z</time>
		</trkpt>
		<trkpt lat="43.874704" lon="7.514106">
			<ele>368.33</ele>
			<time>2017-03-19T08:39:12Z</time>
		</trkpt>
		<trkpt lat="43.874630" lon="7.514185">
			<ele>368.58</ele>
			<time>2017-03-19T08:39:38Z</time>
		</trkpt>
		<trkpt lat="43.874530" lon="7.514255">
			<ele>373.55</ele>
			<time>2017-03-19T08:40:38Z</time>
		</trkpt>
		<trkpt lat="43.874487" lon="7.514252">
			<ele>376.43</ele>
			<time>2017-03-19T08:40:58Z</time>
		</trkpt>
		<trkpt lat="43.874471" lon="7.514226">
			<ele>379.02</ele>
			<time>2017-03-19T08:41:17Z</time>
		</trkpt>
		<trkpt lat="43.874444" lon="7.514181">
			<ele>379.85</ele>
			<time>2017-03-19T08:41:25Z</time>
		</trkpt>
		<trkpt lat="43.874358" lon="7.514091">
			<ele>382.06</ele>
			<time>2017-03-19T08:41:41Z</time>
		</trkpt>
		<trkpt lat="43.874351" lon="7.514098">
			<ele>382.22</ele>
			<time>2017-03-19T08:41:42Z</time>
		</trkpt>
		<trkpt lat="43.874329" lon="7.514106">
			<ele>384.41</ele>
			<time>2017-03-19T08:41:58Z</time>
		</trkpt>
		<trkpt lat="43.874279" lon="7.514250">
			<ele>388.14</ele>
			<time>2017-03-19T08:42:31Z</time>
		</trkpt>
		<trkpt lat="43.874249" lon="7.514296">
			<ele>390.21</ele>
			<time>2017-03-19T08:42:52Z</time>
		</trkpt>
		<trkpt lat="43.874200" lon="7.514286">
			<ele>392.23</ele>
			<time>2017-03-19T08:43:12Z</time>
		</trkpt>
		<trkpt lat="43.874132" lon="7.514289">
			<ele>393.03</ele>
			<time>2017-03-19T08:43:21Z</time>
		</trkpt>
		<trkpt lat="43.874110" lon="7.514284">
			<ele>393.63</ele>
			<time>2017-03-19T08:43:24Z</time>
		</trkpt>
		<trkpt lat="43.874071" lon="7.514335">
			<ele>396.48</ele>
			<time>2017-03-19T08:43:45Z</time>
		</trkpt>
		<trkpt lat="43.874002" lon="7.514453">
			<ele>400.53</ele>
			<time>2017-03-19T08:44:21Z</time>
		</trkpt>
		<trkpt lat="43.873969" lon="7.514471">
			<ele>402.66</ele>
			<time>2017-03-19T08:44:42Z</time>
		</trkpt>
		<trkpt lat="43.873955" lon="7.514469">
			<ele>403.16</ele>
			<time>2017-03-19T08:44:47Z</time>
		</trkpt>
		<trkpt lat="43.873948" lon="7.514465">
			<ele>403.52</ele>
			<time>2017-03-19T08:44:50Z</time>
		</trkpt>
		<trkpt lat="43.873906" lon="7.514465">
			<ele>404.67</ele>
			<time>2017-03-19T08:45:04Z</time>
		</trkpt>
		<trkpt lat="43.873866" lon="7.514465">
			<ele>405.12</ele>
			<time>2017-03-19T08:45:09Z</time>
		</trkpt>
		<trkpt lat="43.873822" lon="7.514424">
			<ele>407.05</ele>
			<time>2017-03-19T08:45:26Z</time>
		</trkpt>
		<trkpt lat="43.873760" lon="7.514430">
			<ele>410.62</ele>
			<time>2017-03-19T08:46:05Z</time>
		</trkpt>
		<trkpt lat="43.873681" lon="7.514494">
			<ele>412.84</ele>
			<time>2017-03-19T08:46:21Z</time>
		</trkpt>
		<trkpt lat="43.873668" lon="7.514529">
			<ele>414.90</ele>
			<time>2017-03-19T08:46:37Z</time>
		</trkpt>
		<trkpt lat="43.873643" lon="7.514609">
			<ele>416.44</ele>
			<time>2017-03-19T08:46:54Z</time>
		</trkpt>
		<trkpt lat="43.873589" lon="7.514654">
			<ele>418.16</ele>
			<time>2017-03-19T08:47:11Z</time>
		</trkpt>
		<trkpt lat="43.873469" lon="7.514738">
			<ele>420.37</ele>
			<time>2017-03-19T08:47:31Z</time>
		</trkpt>
		<trkpt lat="43.873426" lon="7.514695">
			<ele>422.30</ele>
			<time>2017-03-19T08:47:52Z</time>
		</trkpt>
		<trkpt lat="43.873351" lon="7.514686">
			<ele>424.59</ele>
			<time>2017-03-19T08:48:10Z</time>
		</trkpt>
		<trkpt lat="43.873343" lon="7.514679">
			<ele>424.86</ele>
			<time>2017-03-19T08:48:13Z</time>
		</trkpt>
		<trkpt lat="43.873281" lon="7.514687">
			<ele>426.43</ele>
			<time>2017-03-19T08:48:33Z</time>
		</trkpt>
		<trkpt lat="43.873200" lon="7.514658">
			<ele>428.54</ele>
			<time>2017-03-19T08:48:51Z</time>
		</trkpt>
		<trkpt lat="43.873235" lon="7.514520">
			<ele>432.86</ele>
			<time>2017-03-19T08:49:25Z</time>
		</trkpt>
		<trkpt lat="43.873321" lon="7.514368">
			<ele>435.87</ele>
			<time>2017-03-19T08:49:47Z</time>
		</trkpt>
		<trkpt lat="43.873366" lon="7.514237">
			<ele>438.35</ele>
			<time>2017-03-19T08:50:09Z</time>
		</trkpt>
		<trkpt lat="43.873366" lon="7.514232">
			<ele>438.40</ele>
			<time>2017-03-19T08:50:10Z</time>
		</trkpt>
		<trkpt lat="43.873328" lon="7.514197">
			<ele>439.14</ele>
			<time>2017-03-19T08:50:17Z</time>
		</trkpt>
		<trkpt lat="43.873270" lon="7.514095">
			<ele>440.28</ele>
			<time>2017-03-19T08:50:43Z</time>
		</trkpt>
		<trkpt lat="43.873268" lon="7.514005">
			<ele>441.62</ele>
			<time>2017-03-19T08:50:58Z</time>
		</trkpt>
		<trkpt lat="43.873242" lon="7.513881">
			<ele>444.37</ele>
			<time>2017-03-19T08:51:16Z</time>
		</trkpt>
		<trkpt lat="43.873186" lon="7.513768">
			<ele>447.09</ele>
			<time>2017-03-19T08:51:37Z</time>
		</trkpt>
		<trkpt lat="43.873202" lon="7.513627">
			<ele>449.46</ele>
			<time>2017-03-19T08:51:55Z</time>
		</trkpt>
		<trkpt lat="43.873186" lon="7.513591">
			<ele>450.03</ele>
			<time>2017-03-19T08:52:00Z</time>
		</trkpt>
		<trkpt lat="43.873169" lon="7.513497">
			<ele>451.40</ele>
			<time>2017-03-19T08:52:15Z</time>
		</trkpt>
		<trkpt lat="43.873170" lon="7.513408">
			<ele>453.53</ele>
			<time>2017-03-19T08:52:34Z</time>
		</trkpt>
		<trkpt lat="43.873100" lon="7.513259">
			<ele>456.23</ele>
			<time>2017-03-19T08:52:57Z</time>
		</trkpt>
		<trkpt lat="43.873051" lon="7.513311">
			<ele>459.35</ele>
			<time>2017-03-19T08:53:23Z</time>
		</trkpt>
		<trkpt lat="43.873024" lon="7.513445">
			<ele>461.49</ele>
			<time>2017-03-19T08:53:43Z</time>
		</trkpt>
		<trkpt lat="43.872927" lon="7.513508">
			<ele>465.61</ele>
			<time>2017-03-19T08:54:20Z</time>
		</trkpt>
		<trkpt lat="43.872749" lon="7.513533">
			<ele>473.59</ele>
			<time>2017-03-19T08:56:05Z</time>
		</trkpt>
		<trkpt lat="43.872743" lon="7.513544">
			<ele>474.64</ele>
			<time>2017-03-19T08:56:31Z</time>
		</trkpt>
		<trkpt lat="43.872686" lon="7.513593">
			<ele>479.38</ele>
			<time>2017-03-19T08:57:14Z</time>
		</trkpt>
		<trkpt lat="43.872668" lon="7.513605">
			<ele>481.04</ele>
			<time>2017-03-19T08:57:54Z</time>
		</trkpt>
		<trkpt lat="43.872603" lon="7.513729">
			<ele>483.88</ele>
			<time>2017-03-19T08:58:13Z</time>
		</trkpt>
		<trkpt lat="43.872507" lon="7.513772">
			<ele>488.70</ele>
			<time>2017-03-19T08:58:51Z</time>
		</trkpt>
		<trkpt lat="43.872428" lon="7.513750">
			<ele>489.91</ele>
			<time>2017-03-19T08:59:20Z</time>
		</trkpt>
		<trkpt lat="43.872365" lon="7.513696">
			<ele>492.77</ele>
			<time>2017-03-19T08:59:41Z</time>
		</trkpt>
		<trkpt lat="43.872332" lon="7.513678">
			<ele>495.87</ele>
			<time>2017-03-19T09:00:00Z</time>
		</trkpt>
		<trkpt lat="43.872270" lon="7.513639">
			<ele>499.01</ele>
			<time>2017-03-19T09:00:19Z</time>
		</trkpt>
		<trkpt lat="43.872212" lon="7.513604">
			<ele>502.12</ele>
			<time>2017-03-19T09:00:37Z</time>
		</trkpt>
		<trkpt lat="43.872118" lon="7.513528">
			<ele>506.89</ele>
			<time>2017-03-19T09:01:17Z</time>
		</trkpt>
		<trkpt lat="43.872123" lon="7.513543">
			<ele>508.11</ele>
			<time>2017-03-19T09:01:48Z</time>
		</trkpt>
		<trkpt lat="43.872056" lon="7.513643">
			<ele>510.34</ele>
			<time>2017-03-19T09:02:11Z</time>
		</trkpt>
		<trkpt lat="43.872021" lon="7.513716">
			<ele>512.60</ele>
			<time>2017-03-19T09:02:27Z</time>
		</trkpt>
		<trkpt lat="43.872006" lon="7.513702">
			<ele>515.24</ele>
			<time>2017-03-19T09:02:49Z</time>
		</trkpt>
		<trkpt lat="43.871890" lon="7.513657">
			<ele>518.17</ele>
			<time>2017-03-19T09:03:11Z</time>
		</trkpt>
		<trkpt lat="43.871821" lon="7.513562">
			<ele>520.93</ele>
			<time>2017-03-19T09:03:32Z</time>
		</trkpt>
		<trkpt lat="43.871789" lon="7.513544">
			<ele>522.65</ele>
			<time>2017-03-19T09:03:45Z</time>
		</trkpt>
		<trkpt lat="43.871760" lon="7.513606">
			<ele>528.87</ele>
			<time>2017-03-19T09:04:30Z</time>
		</trkpt>
		<trkpt lat="43.871745" lon="7.513638">
			<ele>529.85</ele>
			<time>2017-03-19T09:04:39Z</time>
		</trkpt>
		<trkpt lat="43.871630" lon="7.513777">
			<ele>531.87</ele>
			<time>2017-03-19T09:05:01Z</time>
		</trkpt>
		<trkpt lat="43.871572" lon="7.513753">
			<ele>534.60</ele>
			<time>2017-03-19T09:05:23Z</time>
		</trkpt>
		<trkpt lat="43.871503" lon="7.513712">
			<ele>537.20</ele>
			<time>2017-03-19T09:05:46Z</time>
		</trkpt>
		<trkpt lat="43.871499" lon="7.513698">
			<ele>539.78</ele>
			<time>2017-03-19T09:06:10Z</time>
		</trkpt>
		<trkpt lat="43.871420" lon="7.513679">
			<ele>542.32</ele>
			<time>2017-03-19T09:06:32Z</time>
		</trkpt>
		<trkpt lat="43.871254" lon="7.513720">
			<ele>558.69</ele>
			<time>2017-03-19T09:09:00Z</time>
		</trkpt>
		<trkpt lat="43.871139" lon="7.513739">
			<ele>561.11</ele>
			<time>2017-03-19T09:09:23Z</time>
		</trkpt>
		<trkpt lat="43.871048" lon="7.513645">
			<ele>563.52</ele>
			<time>2017-03-19T09:09:44Z</time>
		</trkpt>
		<trkpt lat="43.870984" lon="7.513560">
			<ele>565.71</ele>
			<time>2017-03-19T09:10:04Z</time>
		</trkpt>
		<trkpt lat="43.870968" lon="7.513583">
			<ele>579.97</ele>
			<time>2017-03-19T09:12:19Z</time>
		</trkpt>
		<trkpt lat="43.870907" lon="7.513639">
			<ele>582.06</ele>
			<time>2017-03-19T09:12:41Z</time>
		</trkpt>
		<trkpt lat="43.870889" lon="7.513653">
			<ele>582.61</ele>
			<time>2017-03-19T09:12:47Z</time>
		</trkpt>
		<trkpt lat="43.870780" lon="7.513651">
			<ele>585.37</ele>
			<time>2017-03-19T09:13:08Z</time>
		</trkpt>
		<trkpt lat="43.870649" lon="7.513583">
			<ele>594.06</ele>
			<time>2017-03-19T09:14:30Z</time>
		</trkpt>
		<trkpt lat="43.870630" lon="7.513594">
			<ele>598.31</ele>
			<time>2017-03-19T09:15:12Z</time>
		</trkpt>
		<trkpt lat="43.870537" lon="7.513523">
			<ele>600.23</ele>
			<time>2017-03-19T09:15:32Z</time>
		</trkpt>
		<trkpt lat="43.870467" lon="7.513387">
			<ele>602.50</ele>
			<time>2017-03-19T09:15:54Z</time>
		</trkpt>
		<trkpt lat="43.870405" lon="7.513257">
			<ele>604.42</ele>
			<time>2017-03-19T09:16:16Z</time>
		</trkpt>
		<trkpt lat="43.870350" lon="7.513250">
			<ele>606.44</ele>
			<time>2017-03-19T09:16:37Z</time>
		</trkpt>
		<trkpt lat="43.870275" lon="7.513134">
			<ele>608.55</ele>
			<time>2017-03-19T09:17:00Z</time>
		</trkpt>
		<trkpt lat="43.870187" lon="7.512978">
			<ele>610.97</ele>
			<time>2017-03-19T09:17:24Z</time>
		</trkpt>
		<trkpt lat="43.870112" lon="7.512861">
			<ele>613.90</ele>
			<time>2017-03-19T09:17:49Z</time>
		</trkpt>
		<trkpt lat="43.870088" lon="7.512774">
			<ele>615.31</ele>
			<time>2017-03-19T09:18:03Z</time>
		</trkpt>
		<trkpt lat="43.869930" lon="7.512716">
			<ele>627.99</ele>
			<time>2017-03-19T09:20:13Z</time>
		</trkpt>
		<trkpt lat="43.869884" lon="7.512546">
			<ele>632.04</ele>
			<time>2017-03-19T09:20:57Z</time>
		</trkpt>
		<trkpt lat="43.869828" lon="7.512471">
			<ele>634.92</ele>
			<time>2017-03-19T09:21:20Z</time>
		</trkpt>
		<trkpt lat="43.869752" lon="7.512403">
			<ele>637.23</ele>
			<time>2017-03-19T09:21:38Z</time>
		</trkpt>
		<trkpt lat="43.869714" lon="7.512252">
			<ele>640.09</ele>
			<time>2017-03-19T09:21:56Z</time>
		</trkpt>
		<trkpt lat="43.869677" lon="7.512158">
			<ele>642.99</ele>
			<time>2017-03-19T09:22:16Z</time>
		</trkpt>
		<trkpt lat="43.869657" lon="7.512037">
			<ele>645.41</ele>
			<time>2017-03-19T09:22:35Z</time>
		</trkpt>
		<trkpt lat="43.869599" lon="7.511990">
			<ele>647.72</ele>
			<time>2017-03-19T09:22:56Z</time>
		</trkpt>
		<trkpt lat="43.869469" lon="7.511905">
			<ele>649.32</ele>
			<time>2017-03-19T09:23:14Z</time>
		</trkpt>
		<trkpt lat="43.869365" lon="7.511793">
			<ele>650.09</ele>
			<time>2017-03-19T09:23:35Z</time>
		</trkpt>
		<trkpt lat="43.869279" lon="7.511742">
			<ele>652.18</ele>
			<time>2017-03-19T09:23:54Z</time>
		</trkpt>
		<trkpt lat="43.869189" lon="7.511703">
			<ele>654.57</ele>
			<time>2017-03-19T09:24:12Z</time>
		</trkpt>
		<trkpt lat="43.869085" lon="7.511646">
			<ele>656.17</ele>
			<time>2017-03-19T09:24:29Z</time>
		</trkpt>
		<trkpt lat="43.868988" lon="7.511610">
			<ele>657.99</ele>
			<time>2017-03-19T09:24:46Z</time>
		</trkpt>
		<trkpt lat="43.868848" lon="7.511535">
			<ele>660.27</ele>
			<time>2017-03-19T09:25:09Z</time>
		</trkpt>
		<trkpt lat="43.868644" lon="7.511410">
			<ele>661.97</ele>
			<time>2017-03-19T09:25:31Z</time>
		</trkpt>
		<trkpt lat="43.868522" lon="7.511361">
			<ele>664.14</ele>
			<time>2017-03-19T09:25:51Z</time>
		</trkpt>
		<trkpt lat="43.868404" lon="7.511287">
			<ele>666.51</ele>
			<time>2017-03-19T09:26:13Z</time>
		</trkpt>
		<trkpt lat="43.868355" lon="7.511285">
			<ele>668.44</ele>
			<time>2017-03-19T09:26:29Z</time>
		</trkpt>
		<trkpt lat="43.868262" lon="7.511241">
			<ele>669.54</ele>
			<time>2017-03-19T09:27:27Z</time>
		</trkpt>
		<trkpt lat="43.868244" lon="7.511208">
			<ele>671.41</ele>
			<time>2017-03-19T09:29:38Z</time>
		</trkpt>
		<trkpt lat="43.868189" lon="7.511095">
			<ele>674.26</ele>
			<time>2017-03-19T09:31:27Z</time>
		</trkpt>
		<trkpt lat="43.868166" lon="7.511083">
			<ele>676.17</ele>
			<time>2017-03-19T09:31:41Z</time>
		</trkpt>
		<trkpt lat="43.868075" lon="7.511033">
			<ele>678.39</ele>
			<time>2017-03-19T09:32:02Z</time>
		</trkpt>
		<trkpt lat="43.868018" lon="7.510972">
			<ele>679.72</ele>
			<time>2017-03-19T09:32:14Z</time>
		</trkpt>
		<trkpt lat="43.867907" lon="7.510874">
			<ele>681.53</ele>
			<time>2017-03-19T09:32:38Z</time>
		</trkpt>
		<trkpt lat="43.867895" lon="7.510837">
			<ele>682.43</ele>
			<time>2017-03-19T09:32:45Z</time>
		</trkpt>
		<trkpt lat="43.867756" lon="7.510737">
			<ele>684.68</ele>
			<time>2017-03-19T09:33:06Z</time>
		</trkpt>
		<trkpt lat="43.867696" lon="7.510615">
			<ele>686.56</ele>
			<time>2017-03-19T09:33:25Z</time>
		</trkpt>
		<trkpt lat="43.867602" lon="7.510535">
			<ele>688.58</ele>
			<time>2017-03-19T09:33:45Z</time>
		</trkpt>
		<trkpt lat="43.867558" lon="7.510499">
			<ele>689.89</ele>
			<time>2017-03-19T09:33:57Z</time>
		</trkpt>
		<trkpt lat="43.867488" lon="7.510441">
			<ele>692.06</ele>
			<time>2017-03-19T09:34:20Z</time>
		</trkpt>
		<trkpt lat="43.867469" lon="7.510383">
			<ele>694.14</ele>
			<time>2017-03-19T09:34:38Z</time>
		</trkpt>
		<trkpt lat="43.867423" lon="7.510315">
			<ele>696.48</ele>
			<time>2017-03-19T09:34:57Z</time>
		</trkpt>
		<trkpt lat="43.867398" lon="7.510286">
			<ele>697.32</ele>
			<time>2017-03-19T09:35:06Z</time>
		</trkpt>
		<trkpt lat="43.867382" lon="7.510272">
			<ele>697.72</ele>
			<time>2017-03-19T09:35:10Z</time>
		</trkpt>
		<trkpt lat="43.867311" lon="7.510176">
			<ele>701.94</ele>
			<time>2017-03-19T09:35:47Z</time>
		</trkpt>
		<trkpt lat="43.867175" lon="7.510169">
			<ele>703.90</ele>
			<time>2017-03-19T09:36:10Z</time>
		</trkpt>
		<trkpt lat="43.867039" lon="7.510157">
			<ele>705.21</ele>
			<time>2017-03-19T09:36:29Z</time>
		</trkpt>
		<trkpt lat="43.866879" lon="7.510146">
			<ele>706.00</ele>
			<time>2017-03-19T09:36:49Z</time>
		</trkpt>
		<trkpt lat="43.866873" lon="7.510128">
			<ele>706.04</ele>
			<time>2017-03-19T09:36:51Z</time>
		</trkpt>
		<trkpt lat="43.866766" lon="7.510063">
			<ele>706.64</ele>
			<time>2017-03-19T09:37:07Z</time>
		</trkpt>
		<trkpt lat="43.866694" lon="7.509933">
			<ele>707.80</ele>
			<time>2017-03-19T09:37:29Z</time>
		</trkpt>
		<trkpt lat="43.866596" lon="7.509788">
			<ele>707.03</ele>
			<time>2017-03-19T09:37:49Z</time>
		</trkpt>
		<trkpt lat="43.866513" lon="7.509640">
			<ele>706.20</ele>
			<time>2017-03-19T09:38:07Z</time>
		</trkpt>
		<trkpt lat="43.866433" lon="7.509550">
			<ele>706.33</ele>
			<time>2017-03-19T09:38:26Z</time>
		</trkpt>
		<trkpt lat="43.866327" lon="7.509421">
			<ele>706.06</ele>
			<time>2017-03-19T09:38:45Z</time>
		</trkpt>
		<trkpt lat="43.866247" lon="7.509345">
			<ele>706.66</ele>
			<time>2017-03-19T09:39:02Z</time>
		</trkpt>
		<trkpt lat="43.866182" lon="7.509228">
			<ele>708.43</ele>
			<time>2017-03-19T09:39:23Z</time>
		</trkpt>
		<trkpt lat="43.866126" lon="7.509190">
			<ele>709.35</ele>
			<time>2017-03-19T09:39:42Z</time>
		</trkpt>
		<trkpt lat="43.866084" lon="7.509118">
			<ele>709.34</ele>
			<time>2017-03-19T09:39:54Z</time>
		</trkpt>
		<trkpt lat="43.865774" lon="7.509188">
			<ele>709.55</ele>
			<time>2017-03-19T09:40:15Z</time>
		</trkpt>
		<trkpt lat="43.865721" lon="7.509164">
			<ele>709.58</ele>
			<time>2017-03-19T09:40:18Z</time>
		</trkpt>
		<trkpt lat="43.865658" lon="7.509170">
			<ele>709.65</ele>
			<time>2017-03-19T09:40:57Z</time>
		</trkpt>
		<trkpt lat="43.865626" lon="7.509101">
			<ele>709.99</ele>
			<time>2017-03-19T09:41:24Z</time>
		</trkpt>
		<trkpt lat="43.865553" lon="7.508970">
			<ele>710.88</ele>
			<time>2017-03-19T09:41:43Z</time>
		</trkpt>
		<trkpt lat="43.865531" lon="7.508846">
			<ele>713.21</ele>
			<time>2017-03-19T09:42:01Z</time>
		</trkpt>
		<trkpt lat="43.865525" lon="7.508724">
			<ele>715.49</ele>
			<time>2017-03-19T09:42:20Z</time>
		</trkpt>
		<trkpt lat="43.865521" lon="7.508698">
			<ele>716.03</ele>
			<time>2017-03-19T09:42:25Z</time>
		</trkpt>
		<trkpt lat="43.865482" lon="7.508519">
			<ele>717.97</ele>
			<time>2017-03-19T09:42:43Z</time>
		</trkpt>
		<trkpt lat="43.865414" lon="7.508377">
			<ele>719.44</ele>
			<time>2017-03-19T09:42:59Z</time>
		</trkpt>
		<trkpt lat="43.865314" lon="7.508245">
			<ele>721.64</ele>
			<time>2017-03-19T09:43:20Z</time>
		</trkpt>
		<trkpt lat="43.865301" lon="7.508180">
			<ele>722.97</ele>
			<time>2017-03-19T09:43:37Z</time>
		</trkpt>
		<trkpt lat="43.865174" lon="7.508085">
			<ele>724.54</ele>
			<time>2017-03-19T09:43:56Z</time>
		</trkpt>
		<trkpt lat="43.865127" lon="7.508022">
			<ele>725.21</ele>
			<time>2017-03-19T09:44:07Z</time>
		</trkpt>
		<trkpt lat="43.864972" lon="7.507929">
			<ele>727.12</ele>
			<time>2017-03-19T09:44:29Z</time>
		</trkpt>
		<trkpt lat="43.864871" lon="7.507895">
			<ele>729.21</ele>
			<time>2017-03-19T09:44:46Z</time>
		</trkpt>
		<trkpt lat="43.864790" lon="7.507838">
			<ele>731.78</ele>
			<time>2017-03-19T09:45:08Z</time>
		</trkpt>
		<trkpt lat="43.864646" lon="7.507869">
			<ele>733.79</ele>
			<time>2017-03-19T09:45:30Z</time>
		</trkpt>
		<trkpt lat="43.864634" lon="7.507852">
			<ele>734.29</ele>
			<time>2017-03-19T09:45:33Z</time>
		</trkpt>
		<trkpt lat="43.864505" lon="7.507749">
			<ele>737.04</ele>
			<time>2017-03-19T09:45:57Z</time>
		</trkpt>
		<trkpt lat="43.864477" lon="7.507647">
			<ele>735.84</ele>
			<time>2017-03-19T09:46:19Z</time>
		</trkpt>
		<trkpt lat="43.864483" lon="7.507636">
			<ele>735.44</ele>
			<time>2017-03-19T09:46:21Z</time>
		</trkpt>
		<trkpt lat="43.864435" lon="7.507453">
			<ele>734.37</ele>
			<time>2017-03-19T09:46:35Z</time>
		</trkpt>
		<trkpt lat="43.864393" lon="7.507033">
			<ele>732.52</ele>
			<time>2017-03-19T09:46:58Z</time>
		</trkpt>
		<trkpt lat="43.864332" lon="7.506746">
			<ele>730.73</ele>
			<time>2017-03-19T09:47:19Z</time>
		</trkpt>
		<trkpt lat="43.864255" lon="7.506418">
			<ele>729.89</ele>
			<time>2017-03-19T09:47:42Z</time>
		</trkpt>
		<trkpt lat="43.864253" lon="7.506392">
			<ele>729.90</ele>
			<time>2017-03-19T09:47:44Z</time>
		</trkpt>
		<trkpt lat="43.864189" lon="7.506110">
			<ele>731.33</ele>
			<time>2017-03-19T09:48:05Z</time>
		</trkpt>
		<trkpt lat="43.864151" lon="7.505970">
			<ele>732.49</ele>
			<time>2017-03-19T09:48:22Z</time>
		</trkpt>
		<trkpt lat="43.864094" lon="7.505900">
			<ele>733.41</ele>
			<time>2017-03-19T09:48:32Z</time>
		</trkpt>
		<trkpt lat="43.864063" lon="7.505867">
			<ele>733.68</ele>
			<time>2017-03-19T09:49:00Z</time>
		</trkpt>
		<trkpt lat="43.864042" lon="7.505863">
			<ele>734.42</ele>
			<time>2017-03-19T09:49:26Z</time>
		</trkpt>
		<trkpt lat="43.864027" lon="7.505836">
			<ele>734.83</ele>
			<time>2017-03-19T09:49:32Z</time>
		</trkpt>
		<trkpt lat="43.864002" lon="7.505795">
			<ele>735.53</ele>
			<time>2017-03-19T09:49:37Z</time>
		</trkpt>
		<trkpt lat="43.863971" lon="7.505746">
			<ele>735.74</ele>
			<time>2017-03-19T09:49:43Z</time>
		</trkpt>
		<trkpt lat="43.863905" lon="7.505679">
			<ele>735.90</ele>
			<time>2017-03-19T09:49:52Z</time>
		</trkpt>
		<trkpt lat="43.863815" lon="7.505495">
			<ele>736.44</ele>
			<time>2017-03-19T09:50:06Z</time>
		</trkpt>
		<trkpt lat="43.863659" lon="7.505282">
			<ele>739.82</ele>
			<time>2017-03-19T09:50:27Z</time>
		</trkpt>
		<trkpt lat="43.863643" lon="7.505045">
			<ele>742.96</ele>
			<time>2017-03-19T09:50:40Z</time>
		</trkpt>
		<trkpt lat="43.863590" lon="7.504723">
			<ele>746.06</ele>
			<time>2017-03-19T09:50:58Z</time>
		</trkpt>
		<trkpt lat="43.863608" lon="7.504598">
			<ele>747.36</ele>
			<time>2017-03-19T09:51:23Z</time>
		</trkpt>
		<trkpt lat="43.863585" lon="7.504533">
			<ele>748.34</ele>
			<time>2017-03-19T09:51:44Z</time>
		</trkpt>
		<trkpt lat="43.863534" lon="7.504490">
			<ele>749.34</ele>
			<time>2017-03-19T09:51:55Z</time>
		</trkpt>
		<trkpt lat="43.863420" lon="7.504395">
			<ele>750.43</ele>
			<time>2017-03-19T09:52:08Z</time>
		</trkpt>
		<trkpt lat="43.863350" lon="7.504353">
			<ele>752.13</ele>
			<time>2017-03-19T09:52:35Z</time>
		</trkpt>
		<trkpt lat="43.863282" lon="7.504238">
			<ele>754.13</ele>
			<time>2017-03-19T09:52:54Z</time>
		</trkpt>
		<trkpt lat="43.863282" lon="7.504237">
			<ele>754.20</ele>
			<time>2017-03-19T09:52:55Z</time>
		</trkpt>
		<trkpt lat="43.863082" lon="7.504267">
			<ele>755.48</ele>
			<time>2017-03-19T09:53:17Z</time>
		</trkpt>
		<trkpt lat="43.863077" lon="7.504258">
			<ele>755.55</ele>
			<time>2017-03-19T09:53:19Z</time>
		</trkpt>
		<trkpt lat="43.863012" lon="7.504114">
			<ele>758.45</ele>
			<time>2017-03-19T09:53:40Z</time>
		</trkpt>
		<trkpt lat="43.863014" lon="7.504109">
			<ele>758.53</ele>
			<time>2017-03-19T09:53:41Z</time>
		</trkpt>
		<trkpt lat="43.862870" lon="7.503970">
			<ele>760.81</ele>
			<time>2017-03-19T09:54:05Z</time>
		</trkpt>
		<trkpt lat="43.862841" lon="7.503933">
			<ele>760.92</ele>
			<time>2017-03-19T09:54:10Z</time>
		</trkpt>
		<trkpt lat="43.862755" lon="7.503683">
			<ele>760.75</ele>
			<time>2017-03-19T09:54:28Z</time>
		</trkpt>
		<trkpt lat="43.862707" lon="7.503306">
			<ele>760.09</ele>
			<time>2017-03-19T09:54:49Z</time>
		</trkpt>
		<trkpt lat="43.862566" lon="7.503174">
			<ele>761.96</ele>
			<time>2017-03-19T09:55:08Z</time>
		</trkpt>
		<trkpt lat="43.862449" lon="7.503087">
			<ele>763.90</ele>
			<time>2017-03-19T09:55:30Z</time>
		</trkpt>
		<trkpt lat="43.862331" lon="7.502949">
			<ele>764.37</ele>
			<time>2017-03-19T09:55:50Z</time>
		</trkpt>
		<trkpt lat="43.862318" lon="7.502941">
			<ele>764.39</ele>
			<time>2017-03-19T09:55:52Z</time>
		</trkpt>
		<trkpt lat="43.862139" lon="7.502850">
			<ele>765.56</ele>
			<time>2017-03-19T09:56:10Z</time>
		</trkpt>
		<trkpt lat="43.862039" lon="7.502799">
			<ele>766.46</ele>
			<time>2017-03-19T09:56:21Z</time>
		</trkpt>
		<trkpt lat="43.861761" lon="7.502620">
			<ele>766.92</ele>
			<time>2017-03-19T09:56:46Z</time>
		</trkpt>
		<trkpt lat="43.861722" lon="7.502567">
			<ele>767.03</ele>
			<time>2017-03-19T09:56:52Z</time>
		</trkpt>
		<trkpt lat="43.861508" lon="7.502452">
			<ele>768.90</ele>
			<time>2017-03-19T09:57:16Z</time>
		</trkpt>
		<trkpt lat="43.861478" lon="7.502438">
			<ele>769.06</ele>
			<time>2017-03-19T09:57:19Z</time>
		</trkpt>
		<trkpt lat="43.861296" lon="7.502261">
			<ele>770.14</ele>
			<time>2017-03-19T09:57:41Z</time>
		</trkpt>
		<trkpt lat="43.861218" lon="7.502067">
			<ele>771.41</ele>
			<time>2017-03-19T09:58:01Z</time>
		</trkpt>
		<trkpt lat="43.861190" lon="7.501919">
			<ele>774.48</ele>
			<time>2017-03-19T09:58:17Z</time>
		</trkpt>
		<trkpt lat="43.861116" lon="7.501751">
			<ele>776.78</ele>
			<time>2017-03-19T09:58:39Z</time>
		</trkpt>
		<trkpt lat="43.861016" lon="7.501638">
			<ele>778.43</ele>
			<time>2017-03-19T09:59:00Z</time>
		</trkpt>
		<trkpt lat="43.860949" lon="7.501591">
			<ele>779.03</ele>
			<time>2017-03-19T09:59:25Z</time>
		</trkpt>
		<trkpt lat="43.860767" lon="7.501662">
			<ele>781.09</ele>
			<time>2017-03-19T09:59:44Z</time>
		</trkpt>
		<trkpt lat="43.860621" lon="7.501667">
			<ele>783.73</ele>
			<time>2017-03-19T10:00:05Z</time>
		</trkpt>
		<trkpt lat="43.860498" lon="7.501659">
			<ele>784.99</ele>
			<time>2017-03-19T10:00:18Z</time>
		</trkpt>
		<trkpt lat="43.860357" lon="7.501633">
			<ele>787.58</ele>
			<time>2017-03-19T10:00:36Z</time>
		</trkpt>
		<trkpt lat="43.860270" lon="7.501639">
			<ele>789.78</ele>
			<time>2017-03-19T10:00:52Z</time>
		</trkpt>
		<trkpt lat="43.860139" lon="7.501660">
			<ele>792.80</ele>
			<time>2017-03-19T10:01:13Z</time>
		</trkpt>
		<trkpt lat="43.860054" lon="7.501620">
			<ele>795.52</ele>
			<time>2017-03-19T10:01:33Z</time>
		</trkpt>
		<trkpt lat="43.859954" lon="7.501631">
			<ele>798.35</ele>
			<time>2017-03-19T10:01:54Z</time>
		</trkpt>
		<trkpt lat="43.859791" lon="7.501627">
			<ele>801.58</ele>
			<time>2017-03-19T10:02:21Z</time>
		</trkpt>
		<trkpt lat="43.859700" lon="7.501633">
			<ele>803.58</ele>
			<time>2017-03-19T10:02:37Z</time>
		</trkpt>
		<trkpt lat="43.859591" lon="7.501683">
			<ele>805.55</ele>
			<time>2017-03-19T10:02:56Z</time>
		</trkpt>
		<trkpt lat="43.859488" lon="7.501722">
			<ele>808.42</ele>
			<time>2017-03-19T10:03:15Z</time>
		</trkpt>
		<trkpt lat="43.859419" lon="7.501746">
			<ele>809.99</ele>
			<time>2017-03-19T10:03:39Z</time>
		</trkpt>
		<trkpt lat="43.859371" lon="7.501712">
			<ele>812.12</ele>
			<time>2017-03-19T10:03:53Z</time>
		</trkpt>
		<trkpt lat="43.859337" lon="7.501695">
			<ele>813.22</ele>
			<time>2017-03-19T10:04:01Z</time>
		</trkpt>
		<trkpt lat="43.859300" lon="7.501722">
			<ele>814.61</ele>
			<time>2017-03-19T10:04:12Z</time>
		</trkpt>
		<trkpt lat="43.859207" lon="7.501807">
			<ele>815.07</ele>
			<time>2017-03-19T10:04:40Z</time>
		</trkpt>
		<trkpt lat="43.859108" lon="7.501828">
			<ele>819.47</ele>
			<time>2017-03-19T10:05:26Z</time>
		</trkpt>
		<trkpt lat="43.859069" lon="7.501926">
			<ele>821.55</ele>
			<time>2017-03-19T10:05:41Z</time>
		</trkpt>
		<trkpt lat="43.859064" lon="7.501941">
			<ele>821.77</ele>
			<time>2017-03-19T10:05:43Z</time>
		</trkpt>
		<trkpt lat="43.858935" lon="7.502126">
			<ele>824.54</ele>
			<time>2017-03-19T10:06:07Z</time>
		</trkpt>
		<trkpt lat="43.858907" lon="7.502074">
			<ele>826.65</ele>
			<time>2017-03-19T10:06:30Z</time>
		</trkpt>
		<trkpt lat="43.858804" lon="7.502075">
			<ele>829.06</ele>
			<time>2017-03-19T10:06:53Z</time>
		</trkpt>
		<trkpt lat="43.858796" lon="7.502078">
			<ele>829.45</ele>
			<time>2017-03-19T10:06:56Z</time>
		</trkpt>
		<trkpt lat="43.858713" lon="7.501948">
			<ele>831.68</ele>
			<time>2017-03-19T10:07:17Z</time>
		</trkpt>
		<trkpt lat="43.858701" lon="7.501922">
			<ele>833.82</ele>
			<time>2017-03-19T10:07:40Z</time>
		</trkpt>
		<trkpt lat="43.858697" lon="7.501926">
			<ele>833.99</ele>
			<time>2017-03-19T10:07:41Z</time>
		</trkpt>
		<trkpt lat="43.858664" lon="7.502114">
			<ele>836.64</ele>
			<time>2017-03-19T10:08:02Z</time>
		</trkpt>
		<trkpt lat="43.858661" lon="7.502177">
			<ele>838.28</ele>
			<time>2017-03-19T10:08:16Z</time>
		</trkpt>
		<trkpt lat="43.858615" lon="7.502210">
			<ele>841.22</ele>
			<time>2017-03-19T10:08:36Z</time>
		</trkpt>
		<trkpt lat="43.858574" lon="7.502158">
			<ele>843.26</ele>
			<time>2017-03-19T10:08:50Z</time>
		</trkpt>
		<trkpt lat="43.858522" lon="7.502106">
			<ele>845.83</ele>
			<time>2017-03-19T10:09:13Z</time>
		</trkpt>
		<trkpt lat="43.858423" lon="7.502041">
			<ele>848.07</ele>
			<time>2017-03-19T10:09:35Z</time>
		</trkpt>
		<trkpt lat="43.858373" lon="7.501993">
			<ele>850.05</ele>
			<time>2017-03-19T10:10:00Z</time>
		</trkpt>
		<trkpt lat="43.858361" lon="7.501986">
			<ele>850.89</ele>
			<time>2017-03-19T10:10:07Z</time>
		</trkpt>
		<trkpt lat="43.858270" lon="7.501962">
			<ele>853.01</ele>
			<time>2017-03-19T10:10:22Z</time>
		</trkpt>
		<trkpt lat="43.858218" lon="7.501910">
			<ele>856.33</ele>
			<time>2017-03-19T10:10:45Z</time>
		</trkpt>
		<trkpt lat="43.858215" lon="7.501908">
			<ele>856.42</ele>
			<time>2017-03-19T10:10:46Z</time>
		</trkpt>
		<trkpt lat="43.858121" lon="7.501872">
			<ele>858.65</ele>
			<time>2017-03-19T10:11:10Z</time>
		</trkpt>
		<trkpt lat="43.858012" lon="7.501916">
			<ele>860.73</ele>
			<time>2017-03-19T10:11:31Z</time>
		</trkpt>
		<trkpt lat="43.857994" lon="7.501934">
			<ele>862.04</ele>
			<time>2017-03-19T10:11:39Z</time>
		</trkpt>
		<trkpt lat="43.857922" lon="7.501980">
			<ele>865.02</ele>
			<time>2017-03-19T10:12:01Z</time>
		</trkpt>
		<trkpt lat="43.857760" lon="7.501925">
			<ele>867.50</ele>
			<time>2017-03-19T10:12:23Z</time>
		</trkpt>
		<trkpt lat="43.857609" lon="7.501933">
			<ele>868.11</ele>
			<time>2017-03-19T10:12:42Z</time>
		</trkpt>
		<trkpt lat="43.857488" lon="7.501954">
			<ele>868.33</ele>
			<time>2017-03-19T10:12:55Z</time>
		</trkpt>
		<trkpt lat="43.857332" lon="7.502000">
			<ele>868.89</ele>
			<time>2017-03-19T10:13:09Z</time>
		</trkpt>
		<trkpt lat="43.857265" lon="7.502070">
			<ele>870.36</ele>
			<time>2017-03-19T10:13:28Z</time>
		</trkpt>
		<trkpt lat="43.857142" lon="7.502198">
			<ele>872.23</ele>
			<time>2017-03-19T10:13:49Z</time>
		</trkpt>
		<trkpt lat="43.857090" lon="7.502193">
			<ele>874.08</ele>
			<time>2017-03-19T10:14:08Z</time>
		</trkpt>
		<trkpt lat="43.857025" lon="7.502163">
			<ele>875.22</ele>
			<time>2017-03-19T10:14:18Z</time>
		</trkpt>
		<trkpt lat="43.856934" lon="7.502128">
			<ele>876.78</ele>
			<time>2017-03-19T10:14:36Z</time>
		</trkpt>
		<trkpt lat="43.856884" lon="7.502208">
			<ele>878.50</ele>
			<time>2017-03-19T10:14:53Z</time>
		</trkpt>
		<trkpt lat="43.856781" lon="7.502288">
			<ele>880.34</ele>
			<time>2017-03-19T10:15:12Z</time>
		</trkpt>
		<trkpt lat="43.856677" lon="7.502359">
			<ele>881.98</ele>
			<time>2017-03-19T10:15:33Z</time>
		</trkpt>
		<trkpt lat="43.856569" lon="7.502387">
			<ele>884.00</ele>
			<time>2017-03-19T10:15:52Z</time>
		</trkpt>
		<trkpt lat="43.856554" lon="7.502395">
			<ele>884.35</ele>
			<time>2017-03-19T10:15:57Z</time>
		</trkpt>
		<trkpt lat="43.856429" lon="7.502378">
			<ele>886.62</ele>
			<time>2017-03-19T10:16:16Z</time>
		</trkpt>
		<trkpt lat="43.856309" lon="7.502454">
			<ele>888.66</ele>
			<time>2017-03-19T10:16:36Z</time>
		</trkpt>
		<trkpt lat="43.856200" lon="7.502457">
			<ele>889.72</ele>
			<time>2017-03-19T10:16:53Z</time>
		</trkpt>
		<trkpt lat="43.856175" lon="7.502470">
			<ele>889.99</ele>
			<time>2017-03-19T10:16:56Z</time>
		</trkpt>
		<trkpt lat="43.856078" lon="7.502536">
			<ele>891.58</ele>
			<time>2017-03-19T10:17:12Z</time>
		</trkpt>
		<trkpt lat="43.855969" lon="7.502608">
			<ele>893.54</ele>
			<time>2017-03-19T10:17:33Z</time>
		</trkpt>
		<trkpt lat="43.855894" lon="7.502649">
			<ele>895.27</ele>
			<time>2017-03-19T10:17:47Z</time>
		</trkpt>
		<trkpt lat="43.855862" lon="7.502680">
			<ele>896.02</ele>
			<time>2017-03-19T10:17:56Z</time>
		</trkpt>
		<trkpt lat="43.855775" lon="7.502715">
			<ele>897.55</ele>
			<time>2017-03-19T10:18:15Z</time>
		</trkpt>
		<trkpt lat="43.855673" lon="7.502772">
			<ele>899.26</ele>
			<time>2017-03-19T10:18:32Z</time>
		</trkpt>
		<trkpt lat="43.855628" lon="7.502761">
			<ele>901.00</ele>
			<time>2017-03-19T10:18:49Z</time>
		</trkpt>
		<trkpt lat="43.855542" lon="7.502719">
			<ele>903.09</ele>
			<time>2017-03-19T10:19:09Z</time>
		</trkpt>
		<trkpt lat="43.855504" lon="7.502703">
			<ele>904.07</ele>
			<time>2017-03-19T10:19:15Z</time>
		</trkpt>
		<trkpt lat="43.855480" lon="7.502693">
			<ele>904.47</ele>
			<time>2017-03-19T10:19:18Z</time>
		</trkpt>
		<trkpt lat="43.855446" lon="7.502674">
			<ele>905.38</ele>
			<time>2017-03-19T10:19:24Z</time>
		</trkpt>
		<trkpt lat="43.855412" lon="7.502711">
			<ele>905.88</ele>
			<time>2017-03-19T10:19:29Z</time>
		</trkpt>
		<trkpt lat="43.855303" lon="7.502702">
			<ele>908.40</ele>
			<time>2017-03-19T10:19:45Z</time>
		</trkpt>
		<trkpt lat="43.855195" lon="7.502748">
			<ele>910.61</ele>
			<time>2017-03-19T10:20:07Z</time>
		</trkpt>
		<trkpt lat="43.855188" lon="7.502750">
			<ele>910.64</ele>
			<time>2017-03-19T10:20:08Z</time>
		</trkpt>
		<trkpt lat="43.855053" lon="7.502723">
			<ele>913.30</ele>
			<time>2017-03-19T10:20:30Z</time>
		</trkpt>
		<trkpt lat="43.854887" lon="7.502845">
			<ele>913.68</ele>
			<time>2017-03-19T10:21:13Z</time>
		</trkpt>
		<trkpt lat="43.854695" lon="7.502860">
			<ele>914.47</ele>
			<time>2017-03-19T10:21:30Z</time>
		</trkpt>
		<trkpt lat="43.854479" lon="7.502829">
			<ele>915.65</ele>
			<time>2017-03-19T10:21:51Z</time>
		</trkpt>
		<trkpt lat="43.854239" lon="7.502802">
			<ele>916.17</ele>
			<time>2017-03-19T10:22:10Z</time>
		</trkpt>
		<trkpt lat="43.854230" lon="7.502803">
			<ele>916.20</ele>
			<time>2017-03-19T10:22:11Z</time>
		</trkpt>
		<trkpt lat="43.854114" lon="7.502784">
			<ele>916.87</ele>
			<time>2017-03-19T10:22:24Z</time>
		</trkpt>
		<trkpt lat="43.853997" lon="7.502817">
			<ele>917.10</ele>
			<time>2017-03-19T10:22:36Z</time>
		</trkpt>
		<trkpt lat="43.853925" lon="7.502806">
			<ele>916.75</ele>
			<time>2017-03-19T10:22:46Z</time>
		</trkpt>
		<trkpt lat="43.853708" lon="7.502769">
			<ele>917.86</ele>
			<time>2017-03-19T10:23:07Z</time>
		</trkpt>
		<trkpt lat="43.853586" lon="7.502736">
			<ele>918.86</ele>
			<time>2017-03-19T10:23:18Z</time>
		</trkpt>
		<trkpt lat="43.853350" lon="7.502671">
			<ele>919.81</ele>
			<time>2017-03-19T10:23:39Z</time>
		</trkpt>
		<trkpt lat="43.853227" lon="7.502656">
			<ele>920.37</ele>
			<time>2017-03-19T10:23:50Z</time>
		</trkpt>
		<trkpt lat="43.853175" lon="7.502643">
			<ele>920.65</ele>
			<time>2017-03-19T10:23:55Z</time>
		</trkpt>
		<trkpt lat="43.852864" lon="7.502708">
			<ele>921.14</ele>
			<time>2017-03-19T10:24:17Z</time>
		</trkpt>
		<trkpt lat="43.852817" lon="7.502719">
			<ele>921.18</ele>
			<time>2017-03-19T10:24:22Z</time>
		</trkpt>
		<trkpt lat="43.852720" lon="7.502720">
			<ele>921.54</ele>
			<time>2017-03-19T10:24:33Z</time>
		</trkpt>
		<trkpt lat="43.852508" lon="7.502748">
			<ele>922.76</ele>
			<time>2017-03-19T10:24:54Z</time>
		</trkpt>
		<trkpt lat="43.852371" lon="7.502718">
			<ele>924.18</ele>
			<time>2017-03-19T10:25:11Z</time>
		</trkpt>
		<trkpt lat="43.852315" lon="7.502729">
			<ele>925.58</ele>
			<time>2017-03-19T10:25:25Z</time>
		</trkpt>
		<trkpt lat="43.852239" lon="7.502688">
			<ele>926.13</ele>
			<time>2017-03-19T10:25:46Z</time>
		</trkpt>
		<trkpt lat="43.852087" lon="7.502671">
			<ele>928.29</ele>
			<time>2017-03-19T10:26:01Z</time>
		</trkpt>
		<trkpt lat="43.852015" lon="7.502688">
			<ele>929.56</ele>
			<time>2017-03-19T10:26:10Z</time>
		</trkpt>
		<trkpt lat="43.851993" lon="7.502701">
			<ele>929.78</ele>
			<time>2017-03-19T10:26:12Z</time>
		</trkpt>
		<trkpt lat="43.851899" lon="7.502721">
			<ele>930.23</ele>
			<time>2017-03-19T10:26:21Z</time>
		</trkpt>
		<trkpt lat="43.851729" lon="7.502677">
			<ele>932.36</ele>
			<time>2017-03-19T10:26:38Z</time>
		</trkpt>
		<trkpt lat="43.851565" lon="7.502742">
			<ele>934.42</ele>
			<time>2017-03-19T10:26:56Z</time>
		</trkpt>
		<trkpt lat="43.851408" lon="7.502839">
			<ele>935.06</ele>
			<time>2017-03-19T10:27:12Z</time>
		</trkpt>
		<trkpt lat="43.851310" lon="7.502867">
			<ele>937.25</ele>
			<time>2017-03-19T10:27:34Z</time>
		</trkpt>
		<trkpt lat="43.851238" lon="7.502877">
			<ele>939.53</ele>
			<time>2017-03-19T10:27:50Z</time>
		</trkpt>
		<trkpt lat="43.851219" lon="7.502890">
			<ele>939.89</ele>
			<time>2017-03-19T10:27:55Z</time>
		</trkpt>
		<trkpt lat="43.851181" lon="7.502912">
			<ele>940.70</ele>
			<time>2017-03-19T10:28:06Z</time>
		</trkpt>
		<trkpt lat="43.851110" lon="7.502976">
			<ele>943.21</ele>
			<time>2017-03-19T10:28:30Z</time>
		</trkpt>
		<trkpt lat="43.851033" lon="7.502976">
			<ele>945.32</ele>
			<time>2017-03-19T10:28:46Z</time>
		</trkpt>
		<trkpt lat="43.850986" lon="7.502933">
			<ele>946.81</ele>
			<time>2017-03-19T10:28:58Z</time>
		</trkpt>
		<trkpt lat="43.850891" lon="7.502875">
			<ele>947.99</ele>
			<time>2017-03-19T10:29:13Z</time>
		</trkpt>
		<trkpt lat="43.850669" lon="7.502850">
			<ele>948.98</ele>
			<time>2017-03-19T10:29:34Z</time>
		</trkpt>
		<trkpt lat="43.850501" lon="7.502772">
			<ele>949.90</ele>
			<time>2017-03-19T10:29:54Z</time>
		</trkpt>
		<trkpt lat="43.850492" lon="7.502763">
			<ele>949.96</ele>
			<time>2017-03-19T10:29:55Z</time>
		</trkpt>
		<trkpt lat="43.850393" lon="7.502722">
			<ele>951.59</ele>
			<time>2017-03-19T10:30:10Z</time>
		</trkpt>
		<trkpt lat="43.850245" lon="7.502639">
			<ele>955.22</ele>
			<time>2017-03-19T10:30:59Z</time>
		</trkpt>
		<trkpt lat="43.850142" lon="7.502626">
			<ele>954.86</ele>
			<time>2017-03-19T10:31:20Z</time>
		</trkpt>
		<trkpt lat="43.850049" lon="7.502633">
			<ele>956.43</ele>
			<time>2017-03-19T10:31:43Z</time>
		</trkpt>
		<trkpt lat="43.849951" lon="7.502603">
			<ele>958.12</ele>
			<time>2017-03-19T10:31:53Z</time>
		</trkpt>
		<trkpt lat="43.849932" lon="7.502502">
			<ele>959.98</ele>
			<time>2017-03-19T10:32:06Z</time>
		</trkpt>
		<trkpt lat="43.849863" lon="7.502318">
			<ele>992.85</ele>
			<time>2017-03-19T10:33:23Z</time>
		</trkpt>
		<trkpt lat="43.849818" lon="7.502194">
			<ele>994.46</ele>
			<time>2017-03-19T10:33:37Z</time>
		</trkpt>
		<trkpt lat="43.849688" lon="7.502231">
			<ele>991.40</ele>
			<time>2017-03-19T10:33:48Z</time>
		</trkpt>
		<trkpt lat="43.849679" lon="7.502227">
			<ele>990.77</ele>
			<time>2017-03-19T10:33:49Z</time>
		</trkpt>
		<trkpt lat="43.849648" lon="7.502227">
			<ele>989.45</ele>
			<time>2017-03-19T10:33:51Z</time>
		</trkpt>
		<trkpt lat="43.849582" lon="7.502204">
			<ele>985.64</ele>
			<time>2017-03-19T10:33:57Z</time>
		</trkpt>
		<trkpt lat="43.849570" lon="7.502203">
			<ele>985.10</ele>
			<time>2017-03-19T10:33:58Z</time>
		</trkpt>
		<trkpt lat="43.849547" lon="7.502199">
			<ele>984.05</ele>
			<time>2017-03-19T10:34:00Z</time>
		</trkpt>
		<trkpt lat="43.849526" lon="7.502193">
			<ele>982.51</ele>
			<time>2017-03-19T10:34:02Z</time>
		</trkpt>
		<trkpt lat="43.849412" lon="7.502182">
			<ele>979.04</ele>
			<time>2017-03-19T10:34:12Z</time>
		</trkpt>
		<trkpt lat="43.849263" lon="7.502191">
			<ele>975.75</ele>
			<time>2017-03-19T10:34:24Z</time>
		</trkpt>
		<trkpt lat="43.849071" lon="7.502179">
			<ele>972.88</ele>
			<time>2017-03-19T10:34:44Z</time>
		</trkpt>
		<trkpt lat="43.849062" lon="7.502177">
			<ele>972.81</ele>
			<time>2017-03-19T10:34:45Z</time>
		</trkpt>
		<trkpt lat="43.848867" lon="7.502080">
			<ele>973.50</ele>
			<time>2017-03-19T10:35:06Z</time>
		</trkpt>
		<trkpt lat="43.848707" lon="7.502061">
			<ele>972.96</ele>
			<time>2017-03-19T10:35:18Z</time>
		</trkpt>
		<trkpt lat="43.848681" lon="7.502053">
			<ele>972.84</ele>
			<time>2017-03-19T10:35:20Z</time>
		</trkpt>
		<trkpt lat="43.848589" lon="7.502002">
			<ele>972.59</ele>
			<time>2017-03-19T10:35:29Z</time>
		</trkpt>
		<trkpt lat="43.848494" lon="7.501965">
			<ele>973.71</ele>
			<time>2017-03-19T10:35:41Z</time>
		</trkpt>
		<trkpt lat="43.848414" lon="7.501879">
			<ele>975.90</ele>
			<time>2017-03-19T10:35:56Z</time>
		</trkpt>
		<trkpt lat="43.848362" lon="7.501751">
			<ele>978.92</ele>
			<time>2017-03-19T10:36:17Z</time>
		</trkpt>
		<trkpt lat="43.848324" lon="7.501661">
			<ele>981.05</ele>
			<time>2017-03-19T10:37:33Z</time>
		</trkpt>
		<trkpt lat="43.848210" lon="7.501622">
			<ele>980.80</ele>
			<time>2017-03-19T10:37:57Z</time>
		</trkpt>
		<trkpt lat="43.848110" lon="7.501631">
			<ele>980.52</ele>
			<time>2017-03-19T10:38:13Z</time>
		</trkpt>
		<trkpt lat="43.847890" lon="7.501826">
			<ele>980.23</ele>
			<time>2017-03-19T10:38:30Z</time>
		</trkpt>
		<trkpt lat="43.847773" lon="7.502173">
			<ele>980.38</ele>
			<time>2017-03-19T10:42:20Z</time>
		</trkpt>
		<trkpt lat="43.847764" lon="7.502160">
			<ele>995.17</ele>
			<time>2017-03-19T10:57:03Z</time>
		</trkpt>
		<trkpt lat="43.847750" lon="7.502184">
			<ele>998.00</ele>
			<time>2017-03-19T10:59:57Z</time>
		</trkpt>
		<trkpt lat="43.847739" lon="7.502222">
			<ele>998.83</ele>
			<time>2017-03-19T11:00:35Z</time>
		</trkpt>
		<trkpt lat="43.847725" lon="7.502222">
			<ele>999.55</ele>
			<time>2017-03-19T11:00:57Z</time>
		</trkpt>
		<trkpt lat="43.847725" lon="7.502211">
			<ele>999.87</ele>
			<time>2017-03-19T11:01:26Z</time>
		</trkpt>
		<trkpt lat="43.847695" lon="7.502107">
			<ele>1001.95</ele>
			<time>2017-03-19T11:02:02Z</time>
		</trkpt>
		<trkpt lat="43.847719" lon="7.502042">
			<ele>1002.34</ele>
			<time>2017-03-19T11:02:22Z</time>
		</trkpt>
		<trkpt lat="43.847807" lon="7.501933">
			<ele>1002.40</ele>
			<time>2017-03-19T11:02:40Z</time>
		</trkpt>
		<trkpt lat="43.847879" lon="7.501871">
			<ele>1002.16</ele>
			<time>2017-03-19T11:02:56Z</time>
		</trkpt>
		<trkpt lat="43.847914" lon="7.501819">
			<ele>1002.23</ele>
			<time>2017-03-19T11:03:14Z</time>
		</trkpt>
		<trkpt lat="43.847990" lon="7.501767">
			<ele>1002.27</ele>
			<time>2017-03-19T11:03:28Z</time>
		</trkpt>
		<trkpt lat="43.848031" lon="7.501524">
			<ele>1007.18</ele>
			<time>2017-03-19T11:04:21Z</time>
		</trkpt>
		<trkpt lat="43.847963" lon="7.501496">
			<ele>1008.93</ele>
			<time>2017-03-19T11:04:32Z</time>
		</trkpt>
		<trkpt lat="43.847922" lon="7.501494">
			<ele>1009.68</ele>
			<time>2017-03-19T11:04:39Z</time>
		</trkpt>
		<trkpt lat="43.847887" lon="7.501496">
			<ele>1010.19</ele>
			<time>2017-03-19T11:04:43Z</time>
		</trkpt>
		<trkpt lat="43.847732" lon="7.501516">
			<ele>1011.78</ele>
			<time>2017-03-19T11:05:00Z</time>
		</trkpt>
		<trkpt lat="43.847652" lon="7.501555">
			<ele>1013.78</ele>
			<time>2017-03-19T11:05:16Z</time>
		</trkpt>
		<trkpt lat="43.847570" lon="7.501543">
			<ele>1015.29</ele>
			<time>2017-03-19T11:05:30Z</time>
		</trkpt>
		<trkpt lat="43.847499" lon="7.501524">
			<ele>1016.91</ele>
			<time>2017-03-19T11:05:43Z</time>
		</trkpt>
		<trkpt lat="43.847285" lon="7.501507">
			<ele>1019.76</ele>
			<time>2017-03-19T11:06:06Z</time>
		</trkpt>
		<trkpt lat="43.847237" lon="7.501492">
			<ele>1020.68</ele>
			<time>2017-03-19T11:06:12Z</time>
		</trkpt>
		<trkpt lat="43.847056" lon="7.501517">
			<ele>1023.52</ele>
			<time>2017-03-19T11:06:34Z</time>
		</trkpt>
		<trkpt lat="43.846956" lon="7.501468">
			<ele>1025.76</ele>
			<time>2017-03-19T11:06:56Z</time>
		</trkpt>
		<trkpt lat="43.846912" lon="7.501540">
			<ele>1026.80</ele>
			<time>2017-03-19T11:07:08Z</time>
		</trkpt>
		<trkpt lat="43.846861" lon="7.501554">
			<ele>1026.97</ele>
			<time>2017-03-19T11:07:17Z</time>
		</trkpt>
		<trkpt lat="43.846804" lon="7.501590">
			<ele>1028.11</ele>
			<time>2017-03-19T11:07:46Z</time>
		</trkpt>
		<trkpt lat="43.846811" lon="7.501602">
			<ele>1028.08</ele>
			<time>2017-03-19T11:07:50Z</time>
		</trkpt>
		<trkpt lat="43.846819" lon="7.501806">
			<ele>1029.75</ele>
			<time>2017-03-19T11:08:07Z</time>
		</trkpt>
		<trkpt lat="43.846825" lon="7.501824">
			<ele>1030.29</ele>
			<time>2017-03-19T11:08:40Z</time>
		</trkpt>
		<trkpt lat="43.846821" lon="7.501830">
			<ele>1030.11</ele>
			<time>2017-03-19T11:09:12Z</time>
		</trkpt>
		<trkpt lat="43.846770" lon="7.501946">
			<ele>1030.51</ele>
			<time>2017-03-19T11:09:44Z</time>
		</trkpt>
		<trkpt lat="43.846737" lon="7.502097">
			<ele>1032.59</ele>
			<time>2017-03-19T11:10:00Z</time>
		</trkpt>
		<trkpt lat="43.846718" lon="7.502234">
			<ele>1035.48</ele>
			<time>2017-03-19T11:10:15Z</time>
		</trkpt>
		<trkpt lat="43.846739" lon="7.502363">
			<ele>1037.78</ele>
			<time>2017-03-19T11:10:29Z</time>
		</trkpt>
		<trkpt lat="43.846731" lon="7.502487">
			<ele>1041.05</ele>
			<time>2017-03-19T11:10:44Z</time>
		</trkpt>
		<trkpt lat="43.846699" lon="7.502580">
			<ele>1042.09</ele>
			<time>2017-03-19T11:10:50Z</time>
		</trkpt>
		<trkpt lat="43.846693" lon="7.502646">
			<ele>1042.67</ele>
			<time>2017-03-19T11:10:53Z</time>
		</trkpt>
		<trkpt lat="43.846652" lon="7.502728">
			<ele>1043.32</ele>
			<time>2017-03-19T11:10:57Z</time>
		</trkpt>
		<trkpt lat="43.846651" lon="7.502780">
			<ele>1044.07</ele>
			<time>2017-03-19T11:11:02Z</time>
		</trkpt>
		<trkpt lat="43.846662" lon="7.502967">
			<ele>1046.40</ele>
			<time>2017-03-19T11:11:22Z</time>
		</trkpt>
		<trkpt lat="43.846705" lon="7.503119">
			<ele>1048.95</ele>
			<time>2017-03-19T11:11:41Z</time>
		</trkpt>
		<trkpt lat="43.846684" lon="7.503179">
			<ele>1050.09</ele>
			<time>2017-03-19T11:11:48Z</time>
		</trkpt>
		<trkpt lat="43.846682" lon="7.503207">
			<ele>1050.57</ele>
			<time>2017-03-19T11:11:51Z</time>
		</trkpt>
		<trkpt lat="43.846686" lon="7.503372">
			<ele>1053.11</ele>
			<time>2017-03-19T11:12:10Z</time>
		</trkpt>
		<trkpt lat="43.846672" lon="7.503383">
			<ele>1053.43</ele>
			<time>2017-03-19T11:12:12Z</time>
		</trkpt>
		<trkpt lat="43.846655" lon="7.503418">
			<ele>1053.66</ele>
			<time>2017-03-19T11:12:14Z</time>
		</trkpt>
		<trkpt lat="43.846620" lon="7.503451">
			<ele>1054.36</ele>
			<time>2017-03-19T11:12:19Z</time>
		</trkpt>
		<trkpt lat="43.846523" lon="7.503478">
			<ele>1056.23</ele>
			<time>2017-03-19T11:12:36Z</time>
		</trkpt>
		<trkpt lat="43.846493" lon="7.503428">
			<ele>1057.10</ele>
			<time>2017-03-19T11:12:43Z</time>
		</trkpt>
		<trkpt lat="43.846450" lon="7.503388">
			<ele>1057.75</ele>
			<time>2017-03-19T11:12:49Z</time>
		</trkpt>
		<trkpt lat="43.846322" lon="7.503222">
			<ele>1060.37</ele>
			<time>2017-03-19T11:13:12Z</time>
		</trkpt>
		<trkpt lat="43.846265" lon="7.503052">
			<ele>1062.65</ele>
			<time>2017-03-19T11:13:36Z</time>
		</trkpt>
		<trkpt lat="43.846255" lon="7.503007">
			<ele>1068.59</ele>
			<time>2017-03-19T11:14:39Z</time>
		</trkpt>
		<trkpt lat="43.846242" lon="7.503074">
			<ele>1070.67</ele>
			<time>2017-03-19T11:14:57Z</time>
		</trkpt>
		<trkpt lat="43.846225" lon="7.503204">
			<ele>1072.24</ele>
			<time>2017-03-19T11:15:12Z</time>
		</trkpt>
		<trkpt lat="43.846214" lon="7.503349">
			<ele>1074.42</ele>
			<time>2017-03-19T11:15:33Z</time>
		</trkpt>
		<trkpt lat="43.846164" lon="7.503453">
			<ele>1076.34</ele>
			<time>2017-03-19T11:15:55Z</time>
		</trkpt>
		<trkpt lat="43.846121" lon="7.503506">
			<ele>1077.35</ele>
			<time>2017-03-19T11:16:08Z</time>
		</trkpt>
		<trkpt lat="43.846051" lon="7.503549">
			<ele>1079.31</ele>
			<time>2017-03-19T11:16:24Z</time>
		</trkpt>
		<trkpt lat="43.845965" lon="7.503584">
			<ele>1080.50</ele>
			<time>2017-03-19T11:16:36Z</time>
		</trkpt>
		<trkpt lat="43.845916" lon="7.503629">
			<ele>1081.22</ele>
			<time>2017-03-19T11:16:42Z</time>
		</trkpt>
		<trkpt lat="43.845852" lon="7.503682">
			<ele>1082.97</ele>
			<time>2017-03-19T11:17:00Z</time>
		</trkpt>
		<trkpt lat="43.845862" lon="7.503753">
			<ele>1084.19</ele>
			<time>2017-03-19T11:17:15Z</time>
		</trkpt>
		<trkpt lat="43.845875" lon="7.503977">
			<ele>1085.28</ele>
			<time>2017-03-19T11:17:40Z</time>
		</trkpt>
		<trkpt lat="43.845876" lon="7.503999">
			<ele>1085.59</ele>
			<time>2017-03-19T11:17:44Z</time>
		</trkpt>
		<trkpt lat="43.845882" lon="7.504147">
			<ele>1087.50</ele>
			<time>2017-03-19T11:18:06Z</time>
		</trkpt>
		<trkpt lat="43.845833" lon="7.504235">
			<ele>1088.36</ele>
			<time>2017-03-19T11:18:13Z</time>
		</trkpt>
		<trkpt lat="43.845784" lon="7.504283">
			<ele>1093.10</ele>
			<time>2017-03-19T11:18:51Z</time>
		</trkpt>
		<trkpt lat="43.845701" lon="7.504253">
			<ele>1094.73</ele>
			<time>2017-03-19T11:19:08Z</time>
		</trkpt>
		<trkpt lat="43.845571" lon="7.504157">
			<ele>1096.68</ele>
			<time>2017-03-19T11:19:32Z</time>
		</trkpt>
		<trkpt lat="43.845468" lon="7.504116">
			<ele>1098.63</ele>
			<time>2017-03-19T11:19:54Z</time>
		</trkpt>
		<trkpt lat="43.845398" lon="7.504011">
			<ele>1101.32</ele>
			<time>2017-03-19T11:20:19Z</time>
		</trkpt>
		<trkpt lat="43.845339" lon="7.503998">
			<ele>1102.64</ele>
			<time>2017-03-19T11:20:31Z</time>
		</trkpt>
		<trkpt lat="43.845280" lon="7.503955">
			<ele>1103.21</ele>
			<time>2017-03-19T11:20:37Z</time>
		</trkpt>
		<trkpt lat="43.845247" lon="7.503947">
			<ele>1103.33</ele>
			<time>2017-03-19T11:20:39Z</time>
		</trkpt>
		<trkpt lat="43.845208" lon="7.503940">
			<ele>1103.41</ele>
			<time>2017-03-19T11:20:42Z</time>
		</trkpt>
		<trkpt lat="43.845184" lon="7.503963">
			<ele>1103.42</ele>
			<time>2017-03-19T11:20:58Z</time>
		</trkpt>
		<trkpt lat="43.845215" lon="7.503883">
			<ele>1103.84</ele>
			<time>2017-03-19T11:21:17Z</time>
		</trkpt>
		<trkpt lat="43.845327" lon="7.503774">
			<ele>1105.51</ele>
			<time>2017-03-19T11:21:36Z</time>
		</trkpt>
		<trkpt lat="43.845361" lon="7.503664">
			<ele>1107.52</ele>
			<time>2017-03-19T11:21:57Z</time>
		</trkpt>
		<trkpt lat="43.845401" lon="7.503580">
			<ele>1109.13</ele>
			<time>2017-03-19T11:22:17Z</time>
		</trkpt>
		<trkpt lat="43.845446" lon="7.503521">
			<ele>1110.65</ele>
			<time>2017-03-19T11:22:29Z</time>
		</trkpt>
		<trkpt lat="43.845461" lon="7.503521">
			<ele>1110.76</ele>
			<time>2017-03-19T11:22:31Z</time>
		</trkpt>
		<trkpt lat="43.845477" lon="7.503480">
			<ele>1116.10</ele>
			<time>2017-03-19T11:23:20Z</time>
		</trkpt>
		<trkpt lat="43.845464" lon="7.503482">
			<ele>1116.91</ele>
			<time>2017-03-19T11:23:27Z</time>
		</trkpt>
		<trkpt lat="43.845376" lon="7.503507">
			<ele>1117.83</ele>
			<time>2017-03-19T11:23:42Z</time>
		</trkpt>
		<trkpt lat="43.845356" lon="7.503523">
			<ele>1118.38</ele>
			<time>2017-03-19T11:23:51Z</time>
		</trkpt>
		<trkpt lat="43.845302" lon="7.503577">
			<ele>1119.86</ele>
			<time>2017-03-19T11:24:05Z</time>
		</trkpt>
		<trkpt lat="43.845245" lon="7.503620">
			<ele>1121.04</ele>
			<time>2017-03-19T11:24:17Z</time>
		</trkpt>
		<trkpt lat="43.845177" lon="7.503671">
			<ele>1122.45</ele>
			<time>2017-03-19T11:24:30Z</time>
		</trkpt>
		<trkpt lat="43.845093" lon="7.503745">
			<ele>1124.11</ele>
			<time>2017-03-19T11:24:41Z</time>
		</trkpt>
		<trkpt lat="43.844999" lon="7.503834">
			<ele>1125.01</ele>
			<time>2017-03-19T11:24:51Z</time>
		</trkpt>
		<trkpt lat="43.844967" lon="7.503895">
			<ele>1126.21</ele>
			<time>2017-03-19T11:25:04Z</time>
		</trkpt>
		<trkpt lat="43.844890" lon="7.503920">
			<ele>1128.10</ele>
			<time>2017-03-19T11:25:19Z</time>
		</trkpt>
		<trkpt lat="43.844744" lon="7.504074">
			<ele>1130.84</ele>
			<time>2017-03-19T11:25:41Z</time>
		</trkpt>
		<trkpt lat="43.844726" lon="7.504093">
			<ele>1131.56</ele>
			<time>2017-03-19T11:25:47Z</time>
		</trkpt>
		<trkpt lat="43.844721" lon="7.504113">
			<ele>1132.61</ele>
			<time>2017-03-19T11:25:53Z</time>
		</trkpt>
		<trkpt lat="43.844657" lon="7.504204">
			<ele>1136.07</ele>
			<time>2017-03-19T11:26:13Z</time>
		</trkpt>
		<trkpt lat="43.844625" lon="7.504216">
			<ele>1136.90</ele>
			<time>2017-03-19T11:26:18Z</time>
		</trkpt>
		<trkpt lat="43.844595" lon="7.504220">
			<ele>1137.39</ele>
			<time>2017-03-19T11:26:21Z</time>
		</trkpt>
		<trkpt lat="43.844499" lon="7.504223">
			<ele>1139.67</ele>
			<time>2017-03-19T11:26:38Z</time>
		</trkpt>
		<trkpt lat="43.844475" lon="7.504204">
			<ele>1140.35</ele>
			<time>2017-03-19T11:26:44Z</time>
		</trkpt>
		<trkpt lat="43.844486" lon="7.504113">
			<ele>1141.94</ele>
			<time>2017-03-19T11:27:07Z</time>
		</trkpt>
		<trkpt lat="43.844504" lon="7.503981">
			<ele>1143.26</ele>
			<time>2017-03-19T11:27:48Z</time>
		</trkpt>
		<trkpt lat="43.844571" lon="7.503860">
			<ele>1145.03</ele>
			<time>2017-03-19T11:28:02Z</time>
		</trkpt>
		<trkpt lat="43.844593" lon="7.503739">
			<ele>1147.13</ele>
			<time>2017-03-19T11:28:18Z</time>
		</trkpt>
		<trkpt lat="43.844590" lon="7.503694">
			<ele>1147.63</ele>
			<time>2017-03-19T11:28:22Z</time>
		</trkpt>
		<trkpt lat="43.844540" lon="7.503675">
			<ele>1149.68</ele>
			<time>2017-03-19T11:28:41Z</time>
		</trkpt>
		<trkpt lat="43.844507" lon="7.503677">
			<ele>1150.97</ele>
			<time>2017-03-19T11:28:56Z</time>
		</trkpt>
		<trkpt lat="43.844440" lon="7.503733">
			<ele>1153.17</ele>
			<time>2017-03-19T11:29:19Z</time>
		</trkpt>
		<trkpt lat="43.844430" lon="7.503747">
			<ele>1153.41</ele>
			<time>2017-03-19T11:29:22Z</time>
		</trkpt>
		<trkpt lat="43.844327" lon="7.503810">
			<ele>1154.99</ele>
			<time>2017-03-19T11:29:37Z</time>
		</trkpt>
		<trkpt lat="43.844233" lon="7.503862">
			<ele>1156.35</ele>
			<time>2017-03-19T11:29:51Z</time>
		</trkpt>
		<trkpt lat="43.844088" lon="7.504031">
			<ele>1158.53</ele>
			<time>2017-03-19T11:30:13Z</time>
		</trkpt>
		<trkpt lat="43.844072" lon="7.504048">
			<ele>1158.99</ele>
			<time>2017-03-19T11:30:18Z</time>
		</trkpt>
		<trkpt lat="43.843938" lon="7.504217">
			<ele>1161.25</ele>
			<time>2017-03-19T11:31:24Z</time>
		</trkpt>
		<trkpt lat="43.843931" lon="7.504236">
			<ele>1161.39</ele>
			<time>2017-03-19T11:31:26Z</time>
		</trkpt>
		<trkpt lat="43.843914" lon="7.504325">
			<ele>1163.08</ele>
			<time>2017-03-19T11:31:41Z</time>
		</trkpt>
		<trkpt lat="43.843880" lon="7.504470">
			<ele>1165.21</ele>
			<time>2017-03-19T11:31:58Z</time>
		</trkpt>
		<trkpt lat="43.843868" lon="7.504494">
			<ele>1165.49</ele>
			<time>2017-03-19T11:32:00Z</time>
		</trkpt>
		<trkpt lat="43.843857" lon="7.504520">
			<ele>1165.72</ele>
			<time>2017-03-19T11:32:02Z</time>
		</trkpt>
		<trkpt lat="43.843867" lon="7.504610">
			<ele>1167.26</ele>
			<time>2017-03-19T11:32:12Z</time>
		</trkpt>
		<trkpt lat="43.843871" lon="7.504760">
			<ele>1169.32</ele>
			<time>2017-03-19T11:32:29Z</time>
		</trkpt>
		<trkpt lat="43.843868" lon="7.504858">
			<ele>1170.33</ele>
			<time>2017-03-19T11:32:38Z</time>
		</trkpt>
		<trkpt lat="43.843842" lon="7.505059">
			<ele>1173.25</ele>
			<time>2017-03-19T11:33:00Z</time>
		</trkpt>
		<trkpt lat="43.843893" lon="7.505152">
			<ele>1175.34</ele>
			<time>2017-03-19T11:33:15Z</time>
		</trkpt>
		<trkpt lat="43.843884" lon="7.505208">
			<ele>1176.43</ele>
			<time>2017-03-19T11:33:24Z</time>
		</trkpt>
		<trkpt lat="43.843876" lon="7.505224">
			<ele>1176.50</ele>
			<time>2017-03-19T11:33:27Z</time>
		</trkpt>
		<trkpt lat="43.843833" lon="7.505411">
			<ele>1178.70</ele>
			<time>2017-03-19T11:33:53Z</time>
		</trkpt>
		<trkpt lat="43.843778" lon="7.505440">
			<ele>1180.31</ele>
			<time>2017-03-19T11:34:16Z</time>
		</trkpt>
		<trkpt lat="43.843721" lon="7.505538">
			<ele>1180.92</ele>
			<time>2017-03-19T11:34:36Z</time>
		</trkpt>
		<trkpt lat="43.843668" lon="7.505611">
			<ele>1182.55</ele>
			<time>2017-03-19T11:35:25Z</time>
		</trkpt>
		<trkpt lat="43.843652" lon="7.505625">
			<ele>1182.78</ele>
			<time>2017-03-19T11:36:02Z</time>
		</trkpt>
		<trkpt lat="43.843634" lon="7.505753">
			<ele>1184.92</ele>
			<time>2017-03-19T11:36:23Z</time>
		</trkpt>
		<trkpt lat="43.843618" lon="7.505887">
			<ele>1188.05</ele>
			<time>2017-03-19T11:36:41Z</time>
		</trkpt>
		<trkpt lat="43.843617" lon="7.505900">
			<ele>1188.35</ele>
			<time>2017-03-19T11:36:43Z</time>
		</trkpt>
		<trkpt lat="43.843598" lon="7.505957">
			<ele>1189.24</ele>
			<time>2017-03-19T11:36:50Z</time>
		</trkpt>
		<trkpt lat="43.843505" lon="7.506164">
			<ele>1191.95</ele>
			<time>2017-03-19T11:37:14Z</time>
		</trkpt>
		<trkpt lat="43.843523" lon="7.506356">
			<ele>1194.12</ele>
			<time>2017-03-19T11:37:33Z</time>
		</trkpt>
		<trkpt lat="43.843463" lon="7.506530">
			<ele>1196.40</ele>
			<time>2017-03-19T11:37:51Z</time>
		</trkpt>
		<trkpt lat="43.843441" lon="7.506699">
			<ele>1198.52</ele>
			<time>2017-03-19T11:38:13Z</time>
		</trkpt>
		<trkpt lat="43.843498" lon="7.506910">
			<ele>1201.61</ele>
			<time>2017-03-19T11:38:33Z</time>
		</trkpt>
		<trkpt lat="43.843543" lon="7.507090">
			<ele>1204.15</ele>
			<time>2017-03-19T11:38:47Z</time>
		</trkpt>
		<trkpt lat="43.843573" lon="7.507216">
			<ele>1205.78</ele>
			<time>2017-03-19T11:38:59Z</time>
		</trkpt>
		<trkpt lat="43.843646" lon="7.507362">
			<ele>1207.78</ele>
			<time>2017-03-19T11:39:18Z</time>
		</trkpt>
		<trkpt lat="43.843697" lon="7.507420">
			<ele>1208.32</ele>
			<time>2017-03-19T11:39:26Z</time>
		</trkpt>
		<trkpt lat="43.843747" lon="7.507574">
			<ele>1210.90</ele>
			<time>2017-03-19T11:39:52Z</time>
		</trkpt>
		<trkpt lat="43.843783" lon="7.507666">
			<ele>1212.73</ele>
			<time>2017-03-19T11:40:08Z</time>
		</trkpt>
		<trkpt lat="43.843849" lon="7.507784">
			<ele>1214.68</ele>
			<time>2017-03-19T11:40:25Z</time>
		</trkpt>
		<trkpt lat="43.843913" lon="7.507778">
			<ele>1215.52</ele>
			<time>2017-03-19T11:40:54Z</time>
		</trkpt>
		<trkpt lat="43.843947" lon="7.507901">
			<ele>1217.26</ele>
			<time>2017-03-19T11:41:16Z</time>
		</trkpt>
		<trkpt lat="43.843952" lon="7.508009">
			<ele>1218.60</ele>
			<time>2017-03-19T11:41:29Z</time>
		</trkpt>
		<trkpt lat="43.843939" lon="7.508034">
			<ele>1218.84</ele>
			<time>2017-03-19T11:41:31Z</time>
		</trkpt>
		<trkpt lat="43.843926" lon="7.508080">
			<ele>1219.32</ele>
			<time>2017-03-19T11:41:35Z</time>
		</trkpt>
		<trkpt lat="43.843929" lon="7.508306">
			<ele>1221.94</ele>
			<time>2017-03-19T11:41:56Z</time>
		</trkpt>
		<trkpt lat="43.843965" lon="7.508446">
			<ele>1223.79</ele>
			<time>2017-03-19T11:42:14Z</time>
		</trkpt>
		<trkpt lat="43.844012" lon="7.508614">
			<ele>1225.98</ele>
			<time>2017-03-19T11:42:33Z</time>
		</trkpt>
		<trkpt lat="43.844048" lon="7.508687">
			<ele>1226.92</ele>
			<time>2017-03-19T11:42:42Z</time>
		</trkpt>
		<trkpt lat="43.844120" lon="7.508848">
			<ele>1230.07</ele>
			<time>2017-03-19T11:43:09Z</time>
		</trkpt>
		<trkpt lat="43.844092" lon="7.508918">
			<ele>1231.38</ele>
			<time>2017-03-19T11:43:19Z</time>
		</trkpt>
		<trkpt lat="43.844089" lon="7.509021">
			<ele>1232.46</ele>
			<time>2017-03-19T11:43:32Z</time>
		</trkpt>
		<trkpt lat="43.844094" lon="7.509052">
			<ele>1232.78</ele>
			<time>2017-03-19T11:43:39Z</time>
		</trkpt>
		<trkpt lat="43.844103" lon="7.509162">
			<ele>1233.52</ele>
			<time>2017-03-19T11:44:06Z</time>
		</trkpt>
		<trkpt lat="43.844121" lon="7.509210">
			<ele>1234.27</ele>
			<time>2017-03-19T11:44:12Z</time>
		</trkpt>
		<trkpt lat="43.844146" lon="7.509220">
			<ele>1234.65</ele>
			<time>2017-03-19T11:44:14Z</time>
		</trkpt>
		<trkpt lat="43.844177" lon="7.509242">
			<ele>1235.28</ele>
			<time>2017-03-19T11:44:18Z</time>
		</trkpt>
		<trkpt lat="43.844275" lon="7.509295">
			<ele>1236.20</ele>
			<time>2017-03-19T11:44:43Z</time>
		</trkpt>
		<trkpt lat="43.844390" lon="7.509384">
			<ele>1239.37</ele>
			<time>2017-03-19T11:45:03Z</time>
		</trkpt>
		<trkpt lat="43.844420" lon="7.509437">
			<ele>1241.48</ele>
			<time>2017-03-19T11:45:14Z</time>
		</trkpt>
		<trkpt lat="43.844455" lon="7.509621">
			<ele>1244.73</ele>
			<time>2017-03-19T11:45:37Z</time>
		</trkpt>
		<trkpt lat="43.844585" lon="7.509766">
			<ele>1246.76</ele>
			<time>2017-03-19T11:45:58Z</time>
		</trkpt>
		<trkpt lat="43.844613" lon="7.509871">
			<ele>1247.94</ele>
			<time>2017-03-19T11:46:18Z</time>
		</trkpt>
		<trkpt lat="43.844609" lon="7.509967">
			<ele>1249.26</ele>
			<time>2017-03-19T11:46:31Z</time>
		</trkpt>
		<trkpt lat="43.844579" lon="7.510049">
			<ele>1250.18</ele>
			<time>2017-03-19T11:46:58Z</time>
		</trkpt>
		<trkpt lat="43.844507" lon="7.510145">
			<ele>1251.45</ele>
			<time>2017-03-19T11:47:21Z</time>
		</trkpt>
		<trkpt lat="43.844488" lon="7.510196">
			<ele>1252.72</ele>
			<time>2017-03-19T11:47:40Z</time>
		</trkpt>
		<trkpt lat="43.844470" lon="7.510342">
			<ele>1254.72</ele>
			<time>2017-03-19T11:47:55Z</time>
		</trkpt>
		<trkpt lat="43.844462" lon="7.510351">
			<ele>1254.89</ele>
			<time>2017-03-19T11:47:56Z</time>
		</trkpt>
		<trkpt lat="43.844362" lon="7.510452">
			<ele>1257.32</ele>
			<time>2017-03-19T11:48:10Z</time>
		</trkpt>
		<trkpt lat="43.844350" lon="7.510465">
			<ele>1257.58</ele>
			<time>2017-03-19T11:48:12Z</time>
		</trkpt>
		<trkpt lat="43.844173" lon="7.510649">
			<ele>1260.55</ele>
			<time>2017-03-19T11:48:32Z</time>
		</trkpt>
		<trkpt lat="43.844049" lon="7.510754">
			<ele>1261.86</ele>
			<time>2017-03-19T11:48:57Z</time>
		</trkpt>
		<trkpt lat="43.843988" lon="7.510817">
			<ele>1261.94</ele>
			<time>2017-03-19T11:49:12Z</time>
		</trkpt>
		<trkpt lat="43.843892" lon="7.510823">
			<ele>1262.30</ele>
			<time>2017-03-19T11:49:24Z</time>
		</trkpt>
		<trkpt lat="43.843780" lon="7.510754">
			<ele>1263.53</ele>
			<time>2017-03-19T11:49:41Z</time>
		</trkpt>
		<trkpt lat="43.843674" lon="7.510732">
			<ele>1265.26</ele>
			<time>2017-03-19T11:49:57Z</time>
		</trkpt>
		<trkpt lat="43.843509" lon="7.510782">
			<ele>1266.91</ele>
			<time>2017-03-19T11:50:13Z</time>
		</trkpt>
		<trkpt lat="43.843459" lon="7.510797">
			<ele>1267.67</ele>
			<time>2017-03-19T11:50:25Z</time>
		</trkpt>
		<trkpt lat="43.843423" lon="7.510815">
			<ele>1267.74</ele>
			<time>2017-03-19T11:50:31Z</time>
		</trkpt>
		<trkpt lat="43.843292" lon="7.510886">
			<ele>1268.78</ele>
			<time>2017-03-19T11:50:44Z</time>
		</trkpt>
		<trkpt lat="43.843119" lon="7.511012">
			<ele>1270.82</ele>
			<time>2017-03-19T11:51:06Z</time>
		</trkpt>
		<trkpt lat="43.843025" lon="7.511085">
			<ele>1272.27</ele>
			<time>2017-03-19T11:51:21Z</time>
		</trkpt>
		<trkpt lat="43.842839" lon="7.511233">
			<ele>1274.60</ele>
			<time>2017-03-19T11:51:43Z</time>
		</trkpt>
		<trkpt lat="43.842839" lon="7.511319">
			<ele>1274.84</ele>
			<time>2017-03-19T11:52:00Z</time>
		</trkpt>
		<trkpt lat="43.842833" lon="7.511436">
			<ele>1274.83</ele>
			<time>2017-03-19T11:52:16Z</time>
		</trkpt>
		<trkpt lat="43.842784" lon="7.511463">
			<ele>1275.02</ele>
			<time>2017-03-19T11:52:20Z</time>
		</trkpt>
		<trkpt lat="43.842616" lon="7.511490">
			<ele>1278.16</ele>
			<time>2017-03-19T11:52:39Z</time>
		</trkpt>
		<trkpt lat="43.842386" lon="7.511551">
			<ele>1281.05</ele>
			<time>2017-03-19T11:53:01Z</time>
		</trkpt>
		<trkpt lat="43.842135" lon="7.511635">
			<ele>1283.66</ele>
			<time>2017-03-19T11:53:24Z</time>
		</trkpt>
		<trkpt lat="43.842047" lon="7.511700">
			<ele>1284.97</ele>
			<time>2017-03-19T11:53:36Z</time>
		</trkpt>
		<trkpt lat="43.841915" lon="7.511786">
			<ele>1286.62</ele>
			<time>2017-03-19T11:53:50Z</time>
		</trkpt>
		<trkpt lat="43.841801" lon="7.511933">
			<ele>1288.24</ele>
			<time>2017-03-19T11:54:06Z</time>
		</trkpt>
		<trkpt lat="43.841766" lon="7.511960">
			<ele>1288.54</ele>
			<time>2017-03-19T11:54:10Z</time>
		</trkpt>
		<trkpt lat="43.841660" lon="7.512180">
			<ele>1290.45</ele>
			<time>2017-03-19T11:54:30Z</time>
		</trkpt>
		<trkpt lat="43.841552" lon="7.512476">
			<ele>1292.72</ele>
			<time>2017-03-19T11:54:55Z</time>
		</trkpt>
		<trkpt lat="43.841484" lon="7.512750">
			<ele>1291.61</ele>
			<time>2017-03-19T11:55:14Z</time>
		</trkpt>
		<trkpt lat="43.841481" lon="7.512999">
			<ele>1290.16</ele>
			<time>2017-03-19T11:55:33Z</time>
		</trkpt>
		<trkpt lat="43.841455" lon="7.513098">
			<ele>1289.92</ele>
			<time>2017-03-19T11:55:40Z</time>
		</trkpt>
		<trkpt lat="43.841483" lon="7.513349">
			<ele>1289.24</ele>
			<time>2017-03-19T11:55:59Z</time>
		</trkpt>
		<trkpt lat="43.841456" lon="7.513459">
			<ele>1291.66</ele>
			<time>2017-03-19T11:56:21Z</time>
		</trkpt>
		<trkpt lat="43.841423" lon="7.513482">
			<ele>1292.37</ele>
			<time>2017-03-19T11:56:50Z</time>
		</trkpt>
		<trkpt lat="43.841415" lon="7.513456">
			<ele>1292.60</ele>
			<time>2017-03-19T11:57:23Z</time>
		</trkpt>
		<trkpt lat="43.841428" lon="7.513342">
			<ele>1292.57</ele>
			<time>2017-03-19T11:57:46Z</time>
		</trkpt>
		<trkpt lat="43.841430" lon="7.513152">
			<ele>1294.68</ele>
			<time>2017-03-19T11:58:08Z</time>
		</trkpt>
		<trkpt lat="43.841440" lon="7.513079">
			<ele>1295.86</ele>
			<time>2017-03-19T11:58:29Z</time>
		</trkpt>
		<trkpt lat="43.841412" lon="7.512988">
			<ele>1297.54</ele>
			<time>2017-03-19T11:58:46Z</time>
		</trkpt>
		<trkpt lat="43.841412" lon="7.512854">
			<ele>1299.58</ele>
			<time>2017-03-19T11:59:09Z</time>
		</trkpt>
		<trkpt lat="43.841405" lon="7.512759">
			<ele>1302.60</ele>
			<time>2017-03-19T11:59:25Z</time>
		</trkpt>
		<trkpt lat="43.841381" lon="7.512681">
			<ele>1305.13</ele>
			<time>2017-03-19T11:59:43Z</time>
		</trkpt>
		<trkpt lat="43.841367" lon="7.512590">
			<ele>1307.64</ele>
			<time>2017-03-19T12:00:04Z</time>
		</trkpt>
		<trkpt lat="43.841368" lon="7.512495">
			<ele>1309.41</ele>
			<time>2017-03-19T12:00:30Z</time>
		</trkpt>
		<trkpt lat="43.841371" lon="7.512365">
			<ele>1311.57</ele>
			<time>2017-03-19T12:00:51Z</time>
		</trkpt>
		<trkpt lat="43.841391" lon="7.512224">
			<ele>1311.63</ele>
			<time>2017-03-19T12:01:12Z</time>
		</trkpt>
		<trkpt lat="43.841409" lon="7.512046">
			<ele>1311.88</ele>
			<time>2017-03-19T12:01:31Z</time>
		</trkpt>
		<trkpt lat="43.841424" lon="7.511849">
			<ele>1314.48</ele>
			<time>2017-03-19T12:01:54Z</time>
		</trkpt>
		<trkpt lat="43.841458" lon="7.511706">
			<ele>1317.44</ele>
			<time>2017-03-19T12:02:16Z</time>
		</trkpt>
		<trkpt lat="43.841438" lon="7.511534">
			<ele>1320.55</ele>
			<time>2017-03-19T12:02:38Z</time>
		</trkpt>
		<trkpt lat="43.841462" lon="7.511417">
			<ele>1322.54</ele>
			<time>2017-03-19T12:02:57Z</time>
		</trkpt>
		<trkpt lat="43.841506" lon="7.511319">
			<ele>1325.14</ele>
			<time>2017-03-19T12:03:19Z</time>
		</trkpt>
		<trkpt lat="43.841538" lon="7.511207">
			<ele>1327.80</ele>
			<time>2017-03-19T12:03:41Z</time>
		</trkpt>
		<trkpt lat="43.841562" lon="7.511152">
			<ele>1329.38</ele>
			<time>2017-03-19T12:04:03Z</time>
		</trkpt>
		<trkpt lat="43.841590" lon="7.511020">
			<ele>1332.57</ele>
			<time>2017-03-19T12:04:26Z</time>
		</trkpt>
		<trkpt lat="43.841559" lon="7.510953">
			<ele>1335.75</ele>
			<time>2017-03-19T12:04:42Z</time>
		</trkpt>
		<trkpt lat="43.841560" lon="7.510876">
			<ele>1338.77</ele>
			<time>2017-03-19T12:05:01Z</time>
		</trkpt>
		<trkpt lat="43.841577" lon="7.510804">
			<ele>1340.69</ele>
			<time>2017-03-19T12:05:23Z</time>
		</trkpt>
		<trkpt lat="43.841576" lon="7.510781">
			<ele>1341.54</ele>
			<time>2017-03-19T12:06:16Z</time>
		</trkpt>
		<trkpt lat="43.841556" lon="7.510768">
			<ele>1341.88</ele>
			<time>2017-03-19T12:07:09Z</time>
		</trkpt>
		<trkpt lat="43.841614" lon="7.510659">
			<ele>1345.71</ele>
			<time>2017-03-19T12:10:21Z</time>
		</trkpt>
		<trkpt lat="43.841611" lon="7.510619">
			<ele>1346.68</ele>
			<time>2017-03-19T12:10:50Z</time>
		</trkpt>
		<trkpt lat="43.841656" lon="7.510543">
			<ele>1348.08</ele>
			<time>2017-03-19T12:11:12Z</time>
		</trkpt>
		<trkpt lat="43.841674" lon="7.510432">
			<ele>1351.12</ele>
			<time>2017-03-19T12:11:30Z</time>
		</trkpt>
		<trkpt lat="43.841712" lon="7.510379">
			<ele>1353.44</ele>
			<time>2017-03-19T12:11:52Z</time>
		</trkpt>
		<trkpt lat="43.841753" lon="7.510322">
			<ele>1354.27</ele>
			<time>2017-03-19T12:12:14Z</time>
		</trkpt>
		<trkpt lat="43.841850" lon="7.510185">
			<ele>1357.41</ele>
			<time>2017-03-19T12:12:39Z</time>
		</trkpt>
		<trkpt lat="43.841867" lon="7.510135">
			<ele>1359.05</ele>
			<time>2017-03-19T12:13:01Z</time>
		</trkpt>
		<trkpt lat="43.841913" lon="7.510033">
			<ele>1361.04</ele>
			<time>2017-03-19T12:13:21Z</time>
		</trkpt>
		<trkpt lat="43.841990" lon="7.509924">
			<ele>1363.13</ele>
			<time>2017-03-19T12:13:41Z</time>
		</trkpt>
		<trkpt lat="43.842086" lon="7.509831">
			<ele>1365.47</ele>
			<time>2017-03-19T12:14:00Z</time>
		</trkpt>
		<trkpt lat="43.842162" lon="7.509836">
			<ele>1366.17</ele>
			<time>2017-03-19T12:14:25Z</time>
		</trkpt>
		<trkpt lat="43.842222" lon="7.509872">
			<ele>1365.92</ele>
			<time>2017-03-19T12:14:45Z</time>
		</trkpt>
		<trkpt lat="43.842254" lon="7.509865">
			<ele>1365.73</ele>
			<time>2017-03-19T12:15:46Z</time>
		</trkpt>
		<trkpt lat="43.842250" lon="7.509865">
			<ele>1366.20</ele>
			<time>2017-03-19T12:17:31Z</time>
		</trkpt>
		<trkpt lat="43.842242" lon="7.509862">
			<ele>1367.13</ele>
			<time>2017-03-19T12:20:08Z</time>
		</trkpt>
		<trkpt lat="43.842230" lon="7.509885">
			<ele>1367.59</ele>
			<time>2017-03-19T12:20:42Z</time>
		</trkpt>
		<trkpt lat="43.842196" lon="7.509832">
			<ele>1367.57</ele>
			<time>2017-03-19T12:21:09Z</time>
		</trkpt>
		<trkpt lat="43.842137" lon="7.509660">
			<ele>1366.41</ele>
			<time>2017-03-19T12:21:24Z</time>
		</trkpt>
		<trkpt lat="43.842130" lon="7.509601">
			<ele>1365.12</ele>
			<time>2017-03-19T12:21:37Z</time>
		</trkpt>
		<trkpt lat="43.842129" lon="7.509563">
			<ele>1364.72</ele>
			<time>2017-03-19T12:21:39Z</time>
		</trkpt>
		<trkpt lat="43.842119" lon="7.509405">
			<ele>1362.05</ele>
			<time>2017-03-19T12:21:48Z</time>
		</trkpt>
		<trkpt lat="43.842088" lon="7.509294">
			<ele>1359.76</ele>
			<time>2017-03-19T12:21:56Z</time>
		</trkpt>
		<trkpt lat="43.842001" lon="7.509152">
			<ele>1357.65</ele>
			<time>2017-03-19T12:22:08Z</time>
		</trkpt>
		<trkpt lat="43.841946" lon="7.509106">
			<ele>1357.17</ele>
			<time>2017-03-19T12:22:13Z</time>
		</trkpt>
		<trkpt lat="43.841778" lon="7.508967">
			<ele>1357.71</ele>
			<time>2017-03-19T12:22:31Z</time>
		</trkpt>
		<trkpt lat="43.841734" lon="7.508880">
			<ele>1359.76</ele>
			<time>2017-03-19T12:22:48Z</time>
		</trkpt>
		<trkpt lat="43.841671" lon="7.508803">
			<ele>1360.67</ele>
			<time>2017-03-19T12:23:11Z</time>
		</trkpt>
		<trkpt lat="43.841655" lon="7.508771">
			<ele>1361.56</ele>
			<time>2017-03-19T12:23:36Z</time>
		</trkpt>
		<trkpt lat="43.841602" lon="7.508695">
			<ele>1361.92</ele>
			<time>2017-03-19T12:23:57Z</time>
		</trkpt>
		<trkpt lat="43.841542" lon="7.508584">
			<ele>1363.26</ele>
			<time>2017-03-19T12:24:17Z</time>
		</trkpt>
		<trkpt lat="43.841474" lon="7.508438">
			<ele>1364.95</ele>
			<time>2017-03-19T12:24:39Z</time>
		</trkpt>
		<trkpt lat="43.841392" lon="7.508285">
			<ele>1366.43</ele>
			<time>2017-03-19T12:25:02Z</time>
		</trkpt>
		<trkpt lat="43.841354" lon="7.508096">
			<ele>1367.88</ele>
			<time>2017-03-19T12:25:23Z</time>
		</trkpt>
		<trkpt lat="43.841340" lon="7.508020">
			<ele>1367.82</ele>
			<time>2017-03-19T12:25:45Z</time>
		</trkpt>
		<trkpt lat="43.841345" lon="7.508026">
			<ele>1367.73</ele>
			<time>2017-03-19T12:26:43Z</time>
		</trkpt>
		<trkpt lat="43.841346" lon="7.508003">
			<ele>1367.78</ele>
			<time>2017-03-19T12:27:16Z</time>
		</trkpt>
		<trkpt lat="43.841344" lon="7.507991">
			<ele>1372.23</ele>
			<time>2017-03-19T13:41:34Z</time>
		</trkpt>
		<trkpt lat="43.841340" lon="7.508042">
			<ele>1372.88</ele>
			<time>2017-03-19T13:44:34Z</time>
		</trkpt>
		<trkpt lat="43.841356" lon="7.508145">
			<ele>1373.31</ele>
			<time>2017-03-19T13:47:17Z</time>
		</trkpt>
		<trkpt lat="43.841390" lon="7.508234">
			<ele>1372.76</ele>
			<time>2017-03-19T13:47:39Z</time>
		</trkpt>
		<trkpt lat="43.841396" lon="7.508243">
			<ele>1372.71</ele>
			<time>2017-03-19T13:47:42Z</time>
		</trkpt>
		<trkpt lat="43.841414" lon="7.508298">
			<ele>1372.62</ele>
			<time>2017-03-19T13:47:47Z</time>
		</trkpt>
		<trkpt lat="43.841504" lon="7.508463">
			<ele>1371.13</ele>
			<time>2017-03-19T13:48:00Z</time>
		</trkpt>
		<trkpt lat="43.841587" lon="7.508666">
			<ele>1369.06</ele>
			<time>2017-03-19T13:48:15Z</time>
		</trkpt>
		<trkpt lat="43.841721" lon="7.508898">
			<ele>1366.19</ele>
			<time>2017-03-19T13:48:38Z</time>
		</trkpt>
		<trkpt lat="43.841841" lon="7.509026">
			<ele>1364.10</ele>
			<time>2017-03-19T13:48:56Z</time>
		</trkpt>
		<trkpt lat="43.841851" lon="7.509032">
			<ele>1363.96</ele>
			<time>2017-03-19T13:48:57Z</time>
		</trkpt>
		<trkpt lat="43.841920" lon="7.509123">
			<ele>1362.62</ele>
			<time>2017-03-19T13:49:24Z</time>
		</trkpt>
		<trkpt lat="43.842001" lon="7.509250">
			<ele>1362.98</ele>
			<time>2017-03-19T13:49:36Z</time>
		</trkpt>
		<trkpt lat="43.841982" lon="7.509449">
			<ele>1363.51</ele>
			<time>2017-03-19T13:49:52Z</time>
		</trkpt>
		<trkpt lat="43.841927" lon="7.509671">
			<ele>1366.51</ele>
			<time>2017-03-19T13:50:14Z</time>
		</trkpt>
		<trkpt lat="43.841906" lon="7.509831">
			<ele>1368.29</ele>
			<time>2017-03-19T13:50:33Z</time>
		</trkpt>
		<trkpt lat="43.841867" lon="7.509938">
			<ele>1368.28</ele>
			<time>2017-03-19T13:50:51Z</time>
		</trkpt>
		<trkpt lat="43.841853" lon="7.510001">
			<ele>1367.76</ele>
			<time>2017-03-19T13:51:16Z</time>
		</trkpt>
		<trkpt lat="43.841835" lon="7.510161">
			<ele>1366.93</ele>
			<time>2017-03-19T13:51:35Z</time>
		</trkpt>
		<trkpt lat="43.841771" lon="7.510286">
			<ele>1365.26</ele>
			<time>2017-03-19T13:51:55Z</time>
		</trkpt>
		<trkpt lat="43.841735" lon="7.510398">
			<ele>1362.90</ele>
			<time>2017-03-19T13:52:11Z</time>
		</trkpt>
		<trkpt lat="43.841660" lon="7.510506">
			<ele>1359.86</ele>
			<time>2017-03-19T13:52:31Z</time>
		</trkpt>
		<trkpt lat="43.841626" lon="7.510637">
			<ele>1356.72</ele>
			<time>2017-03-19T13:52:51Z</time>
		</trkpt>
		<trkpt lat="43.841596" lon="7.510748">
			<ele>1353.79</ele>
			<time>2017-03-19T13:53:11Z</time>
		</trkpt>
		<trkpt lat="43.841575" lon="7.510863">
			<ele>1350.95</ele>
			<time>2017-03-19T13:53:29Z</time>
		</trkpt>
		<trkpt lat="43.841520" lon="7.510954">
			<ele>1348.82</ele>
			<time>2017-03-19T13:53:47Z</time>
		</trkpt>
		<trkpt lat="43.841519" lon="7.511034">
			<ele>1346.60</ele>
			<time>2017-03-19T13:54:04Z</time>
		</trkpt>
		<trkpt lat="43.841515" lon="7.511150">
			<ele>1343.57</ele>
			<time>2017-03-19T13:54:20Z</time>
		</trkpt>
		<trkpt lat="43.841492" lon="7.511226">
			<ele>1340.46</ele>
			<time>2017-03-19T13:54:37Z</time>
		</trkpt>
		<trkpt lat="43.841489" lon="7.511251">
			<ele>1340.09</ele>
			<time>2017-03-19T13:55:07Z</time>
		</trkpt>
		<trkpt lat="43.841465" lon="7.511300">
			<ele>1339.48</ele>
			<time>2017-03-19T13:55:30Z</time>
		</trkpt>
		<trkpt lat="43.841462" lon="7.511363">
			<ele>1337.39</ele>
			<time>2017-03-19T13:55:47Z</time>
		</trkpt>
		<trkpt lat="43.841416" lon="7.511443">
			<ele>1334.57</ele>
			<time>2017-03-19T13:56:04Z</time>
		</trkpt>
		<trkpt lat="43.841397" lon="7.511562">
			<ele>1331.78</ele>
			<time>2017-03-19T13:56:22Z</time>
		</trkpt>
		<trkpt lat="43.841433" lon="7.511681">
			<ele>1329.35</ele>
			<time>2017-03-19T13:56:42Z</time>
		</trkpt>
		<trkpt lat="43.841426" lon="7.511821">
			<ele>1326.26</ele>
			<time>2017-03-19T13:57:01Z</time>
		</trkpt>
		<trkpt lat="43.841388" lon="7.512056">
			<ele>1323.36</ele>
			<time>2017-03-19T13:57:19Z</time>
		</trkpt>
		<trkpt lat="43.841377" lon="7.512292">
			<ele>1322.63</ele>
			<time>2017-03-19T13:57:41Z</time>
		</trkpt>
		<trkpt lat="43.841373" lon="7.512410">
			<ele>1322.89</ele>
			<time>2017-03-19T13:58:01Z</time>
		</trkpt>
		<trkpt lat="43.841357" lon="7.512568">
			<ele>1320.74</ele>
			<time>2017-03-19T13:58:21Z</time>
		</trkpt>
		<trkpt lat="43.841370" lon="7.512653">
			<ele>1319.09</ele>
			<time>2017-03-19T13:58:44Z</time>
		</trkpt>
		<trkpt lat="43.841393" lon="7.512734">
			<ele>1316.33</ele>
			<time>2017-03-19T13:59:02Z</time>
		</trkpt>
		<trkpt lat="43.841399" lon="7.512836">
			<ele>1313.51</ele>
			<time>2017-03-19T13:59:20Z</time>
		</trkpt>
		<trkpt lat="43.841441" lon="7.513037">
			<ele>1308.88</ele>
			<time>2017-03-19T14:00:29Z</time>
		</trkpt>
		<trkpt lat="43.841452" lon="7.513248">
			<ele>1305.85</ele>
			<time>2017-03-19T14:00:49Z</time>
		</trkpt>
		<trkpt lat="43.841437" lon="7.513442">
			<ele>1303.63</ele>
			<time>2017-03-19T14:01:10Z</time>
		</trkpt>
		<trkpt lat="43.841443" lon="7.513683">
			<ele>1302.93</ele>
			<time>2017-03-19T14:01:30Z</time>
		</trkpt>
		<trkpt lat="43.841409" lon="7.513859">
			<ele>1301.47</ele>
			<time>2017-03-19T14:01:52Z</time>
		</trkpt>
		<trkpt lat="43.841391" lon="7.513983">
			<ele>1299.13</ele>
			<time>2017-03-19T14:02:13Z</time>
		</trkpt>
		<trkpt lat="43.841361" lon="7.514042">
			<ele>1298.21</ele>
			<time>2017-03-19T14:02:37Z</time>
		</trkpt>
		<trkpt lat="43.841426" lon="7.513973">
			<ele>1297.61</ele>
			<time>2017-03-19T14:03:41Z</time>
		</trkpt>
		<trkpt lat="43.841460" lon="7.513782">
			<ele>1299.24</ele>
			<time>2017-03-19T14:04:02Z</time>
		</trkpt>
		<trkpt lat="43.841494" lon="7.513572">
			<ele>1299.93</ele>
			<time>2017-03-19T14:04:25Z</time>
		</trkpt>
		<trkpt lat="43.841473" lon="7.513296">
			<ele>1300.41</ele>
			<time>2017-03-19T14:04:46Z</time>
		</trkpt>
		<trkpt lat="43.841479" lon="7.512996">
			<ele>1301.42</ele>
			<time>2017-03-19T14:05:07Z</time>
		</trkpt>
		<trkpt lat="43.841498" lon="7.512747">
			<ele>1302.33</ele>
			<time>2017-03-19T14:05:28Z</time>
		</trkpt>
		<trkpt lat="43.841551" lon="7.512485">
			<ele>1302.29</ele>
			<time>2017-03-19T14:05:51Z</time>
		</trkpt>
		<trkpt lat="43.841598" lon="7.512257">
			<ele>1300.32</ele>
			<time>2017-03-19T14:06:10Z</time>
		</trkpt>
		<trkpt lat="43.841645" lon="7.512121">
			<ele>1298.72</ele>
			<time>2017-03-19T14:06:28Z</time>
		</trkpt>
		<trkpt lat="43.841724" lon="7.512016">
			<ele>1297.58</ele>
			<time>2017-03-19T14:06:38Z</time>
		</trkpt>
		<trkpt lat="43.841733" lon="7.511996">
			<ele>1297.42</ele>
			<time>2017-03-19T14:06:40Z</time>
		</trkpt>
		<trkpt lat="43.841811" lon="7.511915">
			<ele>1296.01</ele>
			<time>2017-03-19T14:06:49Z</time>
		</trkpt>
		<trkpt lat="43.841941" lon="7.511753">
			<ele>1293.63</ele>
			<time>2017-03-19T14:07:07Z</time>
		</trkpt>
		<trkpt lat="43.841974" lon="7.511714">
			<ele>1292.79</ele>
			<time>2017-03-19T14:07:15Z</time>
		</trkpt>
		<trkpt lat="43.841988" lon="7.511704">
			<ele>1292.55</ele>
			<time>2017-03-19T14:07:18Z</time>
		</trkpt>
		<trkpt lat="43.842003" lon="7.511690">
			<ele>1292.40</ele>
			<time>2017-03-19T14:07:20Z</time>
		</trkpt>
		<trkpt lat="43.842260" lon="7.511553">
			<ele>1290.44</ele>
			<time>2017-03-19T14:07:38Z</time>
		</trkpt>
		<trkpt lat="43.842494" lon="7.511471">
			<ele>1288.67</ele>
			<time>2017-03-19T14:07:59Z</time>
		</trkpt>
		<trkpt lat="43.842587" lon="7.511476">
			<ele>1286.98</ele>
			<time>2017-03-19T14:08:11Z</time>
		</trkpt>
		<trkpt lat="43.842697" lon="7.511444">
			<ele>1285.54</ele>
			<time>2017-03-19T14:08:31Z</time>
		</trkpt>
		<trkpt lat="43.842721" lon="7.511424">
			<ele>1284.64</ele>
			<time>2017-03-19T14:08:38Z</time>
		</trkpt>
		<trkpt lat="43.842803" lon="7.511355">
			<ele>1283.49</ele>
			<time>2017-03-19T14:09:00Z</time>
		</trkpt>
		<trkpt lat="43.842912" lon="7.511263">
			<ele>1282.11</ele>
			<time>2017-03-19T14:09:15Z</time>
		</trkpt>
		<trkpt lat="43.843012" lon="7.511201">
			<ele>1280.88</ele>
			<time>2017-03-19T14:09:28Z</time>
		</trkpt>
		<trkpt lat="43.843239" lon="7.511026">
			<ele>1278.15</ele>
			<time>2017-03-19T14:09:54Z</time>
		</trkpt>
		<trkpt lat="43.843451" lon="7.510920">
			<ele>1275.08</ele>
			<time>2017-03-19T14:10:17Z</time>
		</trkpt>
		<trkpt lat="43.843626" lon="7.510868">
			<ele>1273.23</ele>
			<time>2017-03-19T14:10:35Z</time>
		</trkpt>
		<trkpt lat="43.843806" lon="7.510928">
			<ele>1271.26</ele>
			<time>2017-03-19T14:10:56Z</time>
		</trkpt>
		<trkpt lat="43.843965" lon="7.510874">
			<ele>1270.08</ele>
			<time>2017-03-19T14:11:12Z</time>
		</trkpt>
		<trkpt lat="43.844107" lon="7.510788">
			<ele>1269.35</ele>
			<time>2017-03-19T14:11:35Z</time>
		</trkpt>
		<trkpt lat="43.844232" lon="7.510621">
			<ele>1266.22</ele>
			<time>2017-03-19T14:11:56Z</time>
		</trkpt>
		<trkpt lat="43.844332" lon="7.510386">
			<ele>1263.16</ele>
			<time>2017-03-19T14:12:14Z</time>
		</trkpt>
		<trkpt lat="43.844463" lon="7.510210">
			<ele>1260.06</ele>
			<time>2017-03-19T14:12:34Z</time>
		</trkpt>
		<trkpt lat="43.844557" lon="7.510037">
			<ele>1257.50</ele>
			<time>2017-03-19T14:12:52Z</time>
		</trkpt>
		<trkpt lat="43.844566" lon="7.509851">
			<ele>1254.87</ele>
			<time>2017-03-19T14:13:12Z</time>
		</trkpt>
		<trkpt lat="43.844522" lon="7.509753">
			<ele>1251.97</ele>
			<time>2017-03-19T14:13:31Z</time>
		</trkpt>
		<trkpt lat="43.844455" lon="7.509533">
			<ele>1249.32</ele>
			<time>2017-03-19T14:13:52Z</time>
		</trkpt>
		<trkpt lat="43.844362" lon="7.509448">
			<ele>1246.25</ele>
			<time>2017-03-19T14:14:11Z</time>
		</trkpt>
		<trkpt lat="43.844232" lon="7.509354">
			<ele>1243.20</ele>
			<time>2017-03-19T14:14:31Z</time>
		</trkpt>
		<trkpt lat="43.844222" lon="7.509337">
			<ele>1242.68</ele>
			<time>2017-03-19T14:14:34Z</time>
		</trkpt>
		<trkpt lat="43.844119" lon="7.509089">
			<ele>1239.96</ele>
			<time>2017-03-19T14:14:55Z</time>
		</trkpt>
		<trkpt lat="43.844085" lon="7.508866">
			<ele>1237.50</ele>
			<time>2017-03-19T14:15:15Z</time>
		</trkpt>
		<trkpt lat="43.844035" lon="7.508681">
			<ele>1234.44</ele>
			<time>2017-03-19T14:15:31Z</time>
		</trkpt>
		<trkpt lat="43.843975" lon="7.508495">
			<ele>1231.31</ele>
			<time>2017-03-19T14:15:51Z</time>
		</trkpt>
		<trkpt lat="43.843888" lon="7.508265">
			<ele>1228.22</ele>
			<time>2017-03-19T14:16:12Z</time>
		</trkpt>
		<trkpt lat="43.843874" lon="7.508011">
			<ele>1225.16</ele>
			<time>2017-03-19T14:16:33Z</time>
		</trkpt>
		<trkpt lat="43.843840" lon="7.507801">
			<ele>1222.16</ele>
			<time>2017-03-19T14:16:53Z</time>
		</trkpt>
		<trkpt lat="43.843809" lon="7.507670">
			<ele>1219.11</ele>
			<time>2017-03-19T14:17:11Z</time>
		</trkpt>
		<trkpt lat="43.843723" lon="7.507530">
			<ele>1216.09</ele>
			<time>2017-03-19T14:17:28Z</time>
		</trkpt>
		<trkpt lat="43.843635" lon="7.507310">
			<ele>1213.05</ele>
			<time>2017-03-19T14:17:46Z</time>
		</trkpt>
		<trkpt lat="43.843576" lon="7.507105">
			<ele>1210.45</ele>
			<time>2017-03-19T14:18:10Z</time>
		</trkpt>
		<trkpt lat="43.843498" lon="7.506865">
			<ele>1207.33</ele>
			<time>2017-03-19T14:18:31Z</time>
		</trkpt>
		<trkpt lat="43.843505" lon="7.506683">
			<ele>1204.19</ele>
			<time>2017-03-19T14:18:47Z</time>
		</trkpt>
		<trkpt lat="43.843500" lon="7.506453">
			<ele>1201.03</ele>
			<time>2017-03-19T14:19:06Z</time>
		</trkpt>
		<trkpt lat="43.843510" lon="7.506272">
			<ele>1198.02</ele>
			<time>2017-03-19T14:19:26Z</time>
		</trkpt>
		<trkpt lat="43.843547" lon="7.505919">
			<ele>1194.97</ele>
			<time>2017-03-19T14:19:47Z</time>
		</trkpt>
		<trkpt lat="43.843644" lon="7.505753">
			<ele>1191.94</ele>
			<time>2017-03-19T14:20:04Z</time>
		</trkpt>
		<trkpt lat="43.843719" lon="7.505583">
			<ele>1188.85</ele>
			<time>2017-03-19T14:20:24Z</time>
		</trkpt>
		<trkpt lat="43.843863" lon="7.505380">
			<ele>1185.87</ele>
			<time>2017-03-19T14:20:46Z</time>
		</trkpt>
		<trkpt lat="43.843895" lon="7.505225">
			<ele>1182.75</ele>
			<time>2017-03-19T14:21:08Z</time>
		</trkpt>
		<trkpt lat="43.843896" lon="7.505098">
			<ele>1179.56</ele>
			<time>2017-03-19T14:21:26Z</time>
		</trkpt>
		<trkpt lat="43.843893" lon="7.504846">
			<ele>1176.53</ele>
			<time>2017-03-19T14:21:46Z</time>
		</trkpt>
		<trkpt lat="43.843857" lon="7.504639">
			<ele>1174.97</ele>
			<time>2017-03-19T14:22:08Z</time>
		</trkpt>
		<trkpt lat="43.843862" lon="7.504528">
			<ele>1172.72</ele>
			<time>2017-03-19T14:22:25Z</time>
		</trkpt>
		<trkpt lat="43.843926" lon="7.504318">
			<ele>1170.01</ele>
			<time>2017-03-19T14:22:41Z</time>
		</trkpt>
		<trkpt lat="43.844042" lon="7.504122">
			<ele>1167.39</ele>
			<time>2017-03-19T14:23:01Z</time>
		</trkpt>
		<trkpt lat="43.844183" lon="7.503967">
			<ele>1164.29</ele>
			<time>2017-03-19T14:23:19Z</time>
		</trkpt>
		<trkpt lat="43.844356" lon="7.503864">
			<ele>1161.19</ele>
			<time>2017-03-19T14:23:37Z</time>
		</trkpt>
		<trkpt lat="43.844478" lon="7.503727">
			<ele>1158.85</ele>
			<time>2017-03-19T14:23:54Z</time>
		</trkpt>
		<trkpt lat="43.844570" lon="7.503735">
			<ele>1155.89</ele>
			<time>2017-03-19T14:24:12Z</time>
		</trkpt>
		<trkpt lat="43.844568" lon="7.503748">
			<ele>1155.76</ele>
			<time>2017-03-19T14:24:13Z</time>
		</trkpt>
		<trkpt lat="43.844541" lon="7.503833">
			<ele>1154.90</ele>
			<time>2017-03-19T14:24:24Z</time>
		</trkpt>
		<trkpt lat="43.844487" lon="7.504030">
			<ele>1151.78</ele>
			<time>2017-03-19T14:24:41Z</time>
		</trkpt>
		<trkpt lat="43.844474" lon="7.504284">
			<ele>1148.82</ele>
			<time>2017-03-19T14:24:59Z</time>
		</trkpt>
		<trkpt lat="43.844642" lon="7.504409">
			<ele>1142.03</ele>
			<time>2017-03-19T14:25:51Z</time>
		</trkpt>
		<trkpt lat="43.844718" lon="7.504274">
			<ele>1139.28</ele>
			<time>2017-03-19T14:26:13Z</time>
		</trkpt>
		<trkpt lat="43.844865" lon="7.504123">
			<ele>1136.40</ele>
			<time>2017-03-19T14:26:33Z</time>
		</trkpt>
		<trkpt lat="43.844984" lon="7.503911">
			<ele>1133.48</ele>
			<time>2017-03-19T14:26:55Z</time>
		</trkpt>
		<trkpt lat="43.845075" lon="7.503829">
			<ele>1131.50</ele>
			<time>2017-03-19T14:27:07Z</time>
		</trkpt>
		<trkpt lat="43.845210" lon="7.503669">
			<ele>1128.46</ele>
			<time>2017-03-19T14:27:27Z</time>
		</trkpt>
		<trkpt lat="43.845315" lon="7.503608">
			<ele>1126.71</ele>
			<time>2017-03-19T14:27:43Z</time>
		</trkpt>
		<trkpt lat="43.845443" lon="7.503489">
			<ele>1124.48</ele>
			<time>2017-03-19T14:27:58Z</time>
		</trkpt>
		<trkpt lat="43.845499" lon="7.503529">
			<ele>1121.42</ele>
			<time>2017-03-19T14:28:18Z</time>
		</trkpt>
		<trkpt lat="43.845484" lon="7.503631">
			<ele>1119.38</ele>
			<time>2017-03-19T14:28:31Z</time>
		</trkpt>
		<trkpt lat="43.845446" lon="7.503743">
			<ele>1117.63</ele>
			<time>2017-03-19T14:28:44Z</time>
		</trkpt>
		<trkpt lat="43.845365" lon="7.503965">
			<ele>1115.78</ele>
			<time>2017-03-19T14:29:00Z</time>
		</trkpt>
		<trkpt lat="43.845403" lon="7.504034">
			<ele>1113.64</ele>
			<time>2017-03-19T14:29:15Z</time>
		</trkpt>
		<trkpt lat="43.845532" lon="7.504108">
			<ele>1111.17</ele>
			<time>2017-03-19T14:29:35Z</time>
		</trkpt>
		<trkpt lat="43.845635" lon="7.504179">
			<ele>1109.09</ele>
			<time>2017-03-19T14:29:52Z</time>
		</trkpt>
		<trkpt lat="43.845821" lon="7.504287">
			<ele>1106.05</ele>
			<time>2017-03-19T14:30:15Z</time>
		</trkpt>
		<trkpt lat="43.845920" lon="7.504388">
			<ele>1102.88</ele>
			<time>2017-03-19T14:30:37Z</time>
		</trkpt>
		<trkpt lat="43.845909" lon="7.504312">
			<ele>1100.34</ele>
			<time>2017-03-19T14:30:55Z</time>
		</trkpt>
		<trkpt lat="43.845872" lon="7.504241">
			<ele>1098.31</ele>
			<time>2017-03-19T14:31:09Z</time>
		</trkpt>
		<trkpt lat="43.845786" lon="7.503982">
			<ele>1096.21</ele>
			<time>2017-03-19T14:31:25Z</time>
		</trkpt>
		<trkpt lat="43.845830" lon="7.503858">
			<ele>1095.16</ele>
			<time>2017-03-19T14:31:36Z</time>
		</trkpt>
		<trkpt lat="43.845923" lon="7.503812">
			<ele>1093.12</ele>
			<time>2017-03-19T14:31:54Z</time>
		</trkpt>
		<trkpt lat="43.846046" lon="7.503726">
			<ele>1091.01</ele>
			<time>2017-03-19T14:32:12Z</time>
		</trkpt>
		<trkpt lat="43.846086" lon="7.503592">
			<ele>1088.78</ele>
			<time>2017-03-19T14:32:28Z</time>
		</trkpt>
		<trkpt lat="43.846120" lon="7.503462">
			<ele>1086.96</ele>
			<time>2017-03-19T14:32:42Z</time>
		</trkpt>
		<trkpt lat="43.846158" lon="7.503280">
			<ele>1084.64</ele>
			<time>2017-03-19T14:32:58Z</time>
		</trkpt>
		<trkpt lat="43.846229" lon="7.503091">
			<ele>1081.76</ele>
			<time>2017-03-19T14:33:15Z</time>
		</trkpt>
		<trkpt lat="43.846286" lon="7.502912">
			<ele>1079.56</ele>
			<time>2017-03-19T14:33:30Z</time>
		</trkpt>
		<trkpt lat="43.846368" lon="7.502966">
			<ele>1076.85</ele>
			<time>2017-03-19T14:33:49Z</time>
		</trkpt>
		<trkpt lat="43.846428" lon="7.503112">
			<ele>1074.24</ele>
			<time>2017-03-19T14:34:06Z</time>
		</trkpt>
		<trkpt lat="43.846473" lon="7.503316">
			<ele>1071.63</ele>
			<time>2017-03-19T14:34:24Z</time>
		</trkpt>
		<trkpt lat="43.846551" lon="7.503463">
			<ele>1069.52</ele>
			<time>2017-03-19T14:34:40Z</time>
		</trkpt>
		<trkpt lat="43.846558" lon="7.503476">
			<ele>1069.05</ele>
			<time>2017-03-19T14:34:43Z</time>
		</trkpt>
		<trkpt lat="43.846604" lon="7.503326">
			<ele>1061.70</ele>
			<time>2017-03-19T14:35:32Z</time>
		</trkpt>
		<trkpt lat="43.846656" lon="7.503061">
			<ele>1058.65</ele>
			<time>2017-03-19T14:35:53Z</time>
		</trkpt>
		<trkpt lat="43.846674" lon="7.502971">
			<ele>1057.90</ele>
			<time>2017-03-19T14:35:59Z</time>
		</trkpt>
		<trkpt lat="43.846721" lon="7.502705">
			<ele>1054.81</ele>
			<time>2017-03-19T14:36:21Z</time>
		</trkpt>
		<trkpt lat="43.846726" lon="7.502630">
			<ele>1053.29</ele>
			<time>2017-03-19T14:36:29Z</time>
		</trkpt>
		<trkpt lat="43.846738" lon="7.502446">
			<ele>1050.16</ele>
			<time>2017-03-19T14:36:47Z</time>
		</trkpt>
		<trkpt lat="43.846736" lon="7.502382">
			<ele>1049.49</ele>
			<time>2017-03-19T14:36:52Z</time>
		</trkpt>
		<trkpt lat="43.846735" lon="7.502258">
			<ele>1047.95</ele>
			<time>2017-03-19T14:37:02Z</time>
		</trkpt>
		<trkpt lat="43.846723" lon="7.502132">
			<ele>1046.11</ele>
			<time>2017-03-19T14:37:14Z</time>
		</trkpt>
		<trkpt lat="43.846724" lon="7.502114">
			<ele>1046.00</ele>
			<time>2017-03-19T14:37:16Z</time>
		</trkpt>
		<trkpt lat="43.846775" lon="7.501980">
			<ele>1044.73</ele>
			<time>2017-03-19T14:37:27Z</time>
		</trkpt>
		<trkpt lat="43.846752" lon="7.501889">
			<ele>1043.28</ele>
			<time>2017-03-19T14:37:57Z</time>
		</trkpt>
		<trkpt lat="43.846762" lon="7.501875">
			<ele>1043.22</ele>
			<time>2017-03-19T14:37:58Z</time>
		</trkpt>
		<trkpt lat="43.846807" lon="7.501796">
			<ele>1042.94</ele>
			<time>2017-03-19T14:38:07Z</time>
		</trkpt>
		<trkpt lat="43.846843" lon="7.501733">
			<ele>1042.19</ele>
			<time>2017-03-19T14:38:17Z</time>
		</trkpt>
		<trkpt lat="43.846913" lon="7.501658">
			<ele>1040.91</ele>
			<time>2017-03-19T14:38:31Z</time>
		</trkpt>
		<trkpt lat="43.846930" lon="7.501664">
			<ele>1040.64</ele>
			<time>2017-03-19T14:38:33Z</time>
		</trkpt>
		<trkpt lat="43.846957" lon="7.501677">
			<ele>1039.78</ele>
			<time>2017-03-19T14:38:37Z</time>
		</trkpt>
		<trkpt lat="43.846982" lon="7.501708">
			<ele>1038.93</ele>
			<time>2017-03-19T14:38:41Z</time>
		</trkpt>
		<trkpt lat="43.847007" lon="7.501805">
			<ele>1036.46</ele>
			<time>2017-03-19T14:38:54Z</time>
		</trkpt>
		<trkpt lat="43.847024" lon="7.501809">
			<ele>1036.35</ele>
			<time>2017-03-19T14:38:56Z</time>
		</trkpt>
		<trkpt lat="43.847084" lon="7.501880">
			<ele>1035.49</ele>
			<time>2017-03-19T14:39:04Z</time>
		</trkpt>
		<trkpt lat="43.847115" lon="7.501951">
			<ele>1033.62</ele>
			<time>2017-03-19T14:39:12Z</time>
		</trkpt>
		<trkpt lat="43.847181" lon="7.502057">
			<ele>1030.22</ele>
			<time>2017-03-19T14:39:25Z</time>
		</trkpt>
		<trkpt lat="43.847183" lon="7.502082">
			<ele>1029.73</ele>
			<time>2017-03-19T14:39:27Z</time>
		</trkpt>
		<trkpt lat="43.847221" lon="7.502154">
			<ele>1027.64</ele>
			<time>2017-03-19T14:39:37Z</time>
		</trkpt>
		<trkpt lat="43.847296" lon="7.502226">
			<ele>1026.43</ele>
			<time>2017-03-19T14:40:25Z</time>
		</trkpt>
		<trkpt lat="43.847361" lon="7.502225">
			<ele>1025.74</ele>
			<time>2017-03-19T14:42:09Z</time>
		</trkpt>
		<trkpt lat="43.847393" lon="7.502418">
			<ele>1025.01</ele>
			<time>2017-03-19T14:44:26Z</time>
		</trkpt>
		<trkpt lat="43.847497" lon="7.502408">
			<ele>1022.00</ele>
			<time>2017-03-19T14:44:45Z</time>
		</trkpt>
		<trkpt lat="43.847614" lon="7.502329">
			<ele>1019.81</ele>
			<time>2017-03-19T14:45:10Z</time>
		</trkpt>
		<trkpt lat="43.847691" lon="7.502262">
			<ele>1018.79</ele>
			<time>2017-03-19T14:45:26Z</time>
		</trkpt>
		<trkpt lat="43.847683" lon="7.502107">
			<ele>1017.92</ele>
			<time>2017-03-19T14:45:51Z</time>
		</trkpt>
		<trkpt lat="43.847665" lon="7.502046">
			<ele>1018.98</ele>
			<time>2017-03-19T14:49:40Z</time>
		</trkpt>
		<trkpt lat="43.847816" lon="7.501967">
			<ele>1020.47</ele>
			<time>2017-03-19T14:53:22Z</time>
		</trkpt>
		<trkpt lat="43.847957" lon="7.501864">
			<ele>1020.11</ele>
			<time>2017-03-19T14:53:41Z</time>
		</trkpt>
		<trkpt lat="43.847972" lon="7.501861">
			<ele>1020.05</ele>
			<time>2017-03-19T14:53:45Z</time>
		</trkpt>
		<trkpt lat="43.848105" lon="7.501830">
			<ele>1020.03</ele>
			<time>2017-03-19T14:54:06Z</time>
		</trkpt>
		<trkpt lat="43.848256" lon="7.501782">
			<ele>1019.95</ele>
			<time>2017-03-19T14:54:20Z</time>
		</trkpt>
		<trkpt lat="43.848425" lon="7.501816">
			<ele>1018.57</ele>
			<time>2017-03-19T14:54:42Z</time>
		</trkpt>
		<trkpt lat="43.848528" lon="7.501976">
			<ele>1015.85</ele>
			<time>2017-03-19T14:55:01Z</time>
		</trkpt>
		<trkpt lat="43.848615" lon="7.502143">
			<ele>1012.95</ele>
			<time>2017-03-19T14:55:20Z</time>
		</trkpt>
		<trkpt lat="43.848741" lon="7.502206">
			<ele>1011.96</ele>
			<time>2017-03-19T14:55:37Z</time>
		</trkpt>
		<trkpt lat="43.848929" lon="7.502257">
			<ele>1010.54</ele>
			<time>2017-03-19T14:55:53Z</time>
		</trkpt>
		<trkpt lat="43.849070" lon="7.502344">
			<ele>1008.47</ele>
			<time>2017-03-19T14:56:09Z</time>
		</trkpt>
		<trkpt lat="43.849259" lon="7.502299">
			<ele>1007.32</ele>
			<time>2017-03-19T14:56:31Z</time>
		</trkpt>
		<trkpt lat="43.849459" lon="7.502323">
			<ele>1005.66</ele>
			<time>2017-03-19T14:56:48Z</time>
		</trkpt>
		<trkpt lat="43.849647" lon="7.502320">
			<ele>1003.78</ele>
			<time>2017-03-19T14:57:07Z</time>
		</trkpt>
		<trkpt lat="43.849830" lon="7.502309">
			<ele>1001.36</ele>
			<time>2017-03-19T14:57:30Z</time>
		</trkpt>
		<trkpt lat="43.849961" lon="7.502327">
			<ele>998.32</ele>
			<time>2017-03-19T14:57:48Z</time>
		</trkpt>
		<trkpt lat="43.850010" lon="7.502525">
			<ele>992.59</ele>
			<time>2017-03-19T14:58:33Z</time>
		</trkpt>
		<trkpt lat="43.850084" lon="7.502654">
			<ele>989.47</ele>
			<time>2017-03-19T14:58:52Z</time>
		</trkpt>
		<trkpt lat="43.850162" lon="7.502690">
			<ele>987.73</ele>
			<time>2017-03-19T14:59:09Z</time>
		</trkpt>
		<trkpt lat="43.850276" lon="7.502734">
			<ele>985.01</ele>
			<time>2017-03-19T14:59:24Z</time>
		</trkpt>
		<trkpt lat="43.850404" lon="7.502791">
			<ele>982.96</ele>
			<time>2017-03-19T14:59:39Z</time>
		</trkpt>
		<trkpt lat="43.850550" lon="7.502848">
			<ele>980.98</ele>
			<time>2017-03-19T14:59:56Z</time>
		</trkpt>
		<trkpt lat="43.850680" lon="7.502903">
			<ele>979.96</ele>
			<time>2017-03-19T15:00:13Z</time>
		</trkpt>
		<trkpt lat="43.850793" lon="7.502937">
			<ele>979.03</ele>
			<time>2017-03-19T15:00:26Z</time>
		</trkpt>
		<trkpt lat="43.850988" lon="7.503009">
			<ele>975.98</ele>
			<time>2017-03-19T15:00:49Z</time>
		</trkpt>
		<trkpt lat="43.851151" lon="7.503012">
			<ele>972.83</ele>
			<time>2017-03-19T15:01:10Z</time>
		</trkpt>
		<trkpt lat="43.851165" lon="7.503009">
			<ele>972.43</ele>
			<time>2017-03-19T15:01:13Z</time>
		</trkpt>
		<trkpt lat="43.851325" lon="7.502993">
			<ele>969.23</ele>
			<time>2017-03-19T15:01:31Z</time>
		</trkpt>
		<trkpt lat="43.851418" lon="7.502947">
			<ele>966.50</ele>
			<time>2017-03-19T15:01:52Z</time>
		</trkpt>
		<trkpt lat="43.851541" lon="7.502885">
			<ele>965.54</ele>
			<time>2017-03-19T15:02:16Z</time>
		</trkpt>
		<trkpt lat="43.851613" lon="7.502876">
			<ele>965.25</ele>
			<time>2017-03-19T15:02:33Z</time>
		</trkpt>
		<trkpt lat="43.851820" lon="7.502892">
			<ele>962.64</ele>
			<time>2017-03-19T15:02:56Z</time>
		</trkpt>
		<trkpt lat="43.852034" lon="7.502826">
			<ele>961.10</ele>
			<time>2017-03-19T15:03:17Z</time>
		</trkpt>
		<trkpt lat="43.852238" lon="7.502833">
			<ele>958.50</ele>
			<time>2017-03-19T15:03:36Z</time>
		</trkpt>
		<trkpt lat="43.852397" lon="7.502817">
			<ele>955.48</ele>
			<time>2017-03-19T15:03:55Z</time>
		</trkpt>
		<trkpt lat="43.852606" lon="7.502830">
			<ele>954.01</ele>
			<time>2017-03-19T15:04:19Z</time>
		</trkpt>
		<trkpt lat="43.852822" lon="7.502778">
			<ele>952.71</ele>
			<time>2017-03-19T15:04:43Z</time>
		</trkpt>
		<trkpt lat="43.853034" lon="7.502764">
			<ele>952.51</ele>
			<time>2017-03-19T15:05:04Z</time>
		</trkpt>
		<trkpt lat="43.853355" lon="7.502790">
			<ele>951.29</ele>
			<time>2017-03-19T15:05:29Z</time>
		</trkpt>
		<trkpt lat="43.853669" lon="7.502773">
			<ele>950.22</ele>
			<time>2017-03-19T15:05:51Z</time>
		</trkpt>
		<trkpt lat="43.853826" lon="7.502891">
			<ele>947.93</ele>
			<time>2017-03-19T15:06:12Z</time>
		</trkpt>
		<trkpt lat="43.853938" lon="7.502898">
			<ele>948.08</ele>
			<time>2017-03-19T15:06:31Z</time>
		</trkpt>
		<trkpt lat="43.854212" lon="7.502842">
			<ele>947.62</ele>
			<time>2017-03-19T15:06:54Z</time>
		</trkpt>
		<trkpt lat="43.854492" lon="7.502835">
			<ele>946.59</ele>
			<time>2017-03-19T15:07:17Z</time>
		</trkpt>
		<trkpt lat="43.854711" lon="7.502824">
			<ele>945.06</ele>
			<time>2017-03-19T15:07:40Z</time>
		</trkpt>
		<trkpt lat="43.854905" lon="7.502808">
			<ele>944.08</ele>
			<time>2017-03-19T15:08:00Z</time>
		</trkpt>
		<trkpt lat="43.855053" lon="7.502776">
			<ele>942.95</ele>
			<time>2017-03-19T15:08:21Z</time>
		</trkpt>
		<trkpt lat="43.855146" lon="7.502755">
			<ele>941.74</ele>
			<time>2017-03-19T15:08:36Z</time>
		</trkpt>
		<trkpt lat="43.855266" lon="7.502734">
			<ele>939.07</ele>
			<time>2017-03-19T15:08:58Z</time>
		</trkpt>
		<trkpt lat="43.855372" lon="7.502720">
			<ele>936.41</ele>
			<time>2017-03-19T15:09:19Z</time>
		</trkpt>
		<trkpt lat="43.855497" lon="7.502709">
			<ele>933.68</ele>
			<time>2017-03-19T15:09:42Z</time>
		</trkpt>
		<trkpt lat="43.855616" lon="7.502767">
			<ele>930.87</ele>
			<time>2017-03-19T15:10:02Z</time>
		</trkpt>
		<trkpt lat="43.855744" lon="7.502737">
			<ele>928.31</ele>
			<time>2017-03-19T15:10:22Z</time>
		</trkpt>
		<trkpt lat="43.855880" lon="7.502713">
			<ele>926.22</ele>
			<time>2017-03-19T15:10:44Z</time>
		</trkpt>
		<trkpt lat="43.856012" lon="7.502622">
			<ele>924.25</ele>
			<time>2017-03-19T15:11:06Z</time>
		</trkpt>
		<trkpt lat="43.856148" lon="7.502588">
			<ele>922.78</ele>
			<time>2017-03-19T15:11:25Z</time>
		</trkpt>
		<trkpt lat="43.856267" lon="7.502539">
			<ele>921.18</ele>
			<time>2017-03-19T15:11:45Z</time>
		</trkpt>
		<trkpt lat="43.856369" lon="7.502504">
			<ele>919.67</ele>
			<time>2017-03-19T15:12:05Z</time>
		</trkpt>
		<trkpt lat="43.856525" lon="7.502535">
			<ele>918.61</ele>
			<time>2017-03-19T15:12:25Z</time>
		</trkpt>
		<trkpt lat="43.856596" lon="7.502458">
			<ele>917.27</ele>
			<time>2017-03-19T15:12:44Z</time>
		</trkpt>
		<trkpt lat="43.856661" lon="7.502431">
			<ele>916.19</ele>
			<time>2017-03-19T15:13:01Z</time>
		</trkpt>
		<trkpt lat="43.856757" lon="7.502418">
			<ele>914.23</ele>
			<time>2017-03-19T15:13:25Z</time>
		</trkpt>
		<trkpt lat="43.856779" lon="7.502409">
			<ele>913.26</ele>
			<time>2017-03-19T15:13:44Z</time>
		</trkpt>
		<trkpt lat="43.856779" lon="7.502409">
			<ele>913.28</ele>
			<time>2017-03-19T15:13:45Z</time>
		</trkpt>
		<trkpt lat="43.856861" lon="7.502377">
			<ele>912.09</ele>
			<time>2017-03-19T15:13:57Z</time>
		</trkpt>
		<trkpt lat="43.856921" lon="7.502361">
			<ele>911.82</ele>
			<time>2017-03-19T15:14:01Z</time>
		</trkpt>
		<trkpt lat="43.857049" lon="7.502292">
			<ele>910.22</ele>
			<time>2017-03-19T15:14:21Z</time>
		</trkpt>
		<trkpt lat="43.857048" lon="7.502281">
			<ele>910.10</ele>
			<time>2017-03-19T15:14:25Z</time>
		</trkpt>
		<trkpt lat="43.857105" lon="7.502251">
			<ele>908.54</ele>
			<time>2017-03-19T15:14:49Z</time>
		</trkpt>
		<trkpt lat="43.857196" lon="7.502255">
			<ele>906.51</ele>
			<time>2017-03-19T15:15:12Z</time>
		</trkpt>
		<trkpt lat="43.857288" lon="7.502253">
			<ele>904.34</ele>
			<time>2017-03-19T15:15:31Z</time>
		</trkpt>
		<trkpt lat="43.857362" lon="7.502193">
			<ele>902.80</ele>
			<time>2017-03-19T15:15:53Z</time>
		</trkpt>
		<trkpt lat="43.857461" lon="7.502142">
			<ele>900.79</ele>
			<time>2017-03-19T15:16:14Z</time>
		</trkpt>
		<trkpt lat="43.857658" lon="7.502064">
			<ele>899.14</ele>
			<time>2017-03-19T15:16:33Z</time>
		</trkpt>
		<trkpt lat="43.857683" lon="7.502054">
			<ele>899.09</ele>
			<time>2017-03-19T15:16:35Z</time>
		</trkpt>
		<trkpt lat="43.857790" lon="7.501974">
			<ele>898.68</ele>
			<time>2017-03-19T15:16:48Z</time>
		</trkpt>
		<trkpt lat="43.857935" lon="7.501968">
			<ele>898.67</ele>
			<time>2017-03-19T15:17:08Z</time>
		</trkpt>
		<trkpt lat="43.858056" lon="7.501929">
			<ele>896.22</ele>
			<time>2017-03-19T15:17:29Z</time>
		</trkpt>
		<trkpt lat="43.858209" lon="7.501884">
			<ele>893.17</ele>
			<time>2017-03-19T15:17:51Z</time>
		</trkpt>
		<trkpt lat="43.858248" lon="7.501874">
			<ele>890.89</ele>
			<time>2017-03-19T15:18:03Z</time>
		</trkpt>
		<trkpt lat="43.858408" lon="7.501909">
			<ele>887.76</ele>
			<time>2017-03-19T15:18:22Z</time>
		</trkpt>
		<trkpt lat="43.858471" lon="7.501952">
			<ele>884.75</ele>
			<time>2017-03-19T15:18:42Z</time>
		</trkpt>
		<trkpt lat="43.858561" lon="7.502007">
			<ele>882.24</ele>
			<time>2017-03-19T15:19:00Z</time>
		</trkpt>
		<trkpt lat="43.858664" lon="7.502046">
			<ele>879.22</ele>
			<time>2017-03-19T15:19:14Z</time>
		</trkpt>
		<trkpt lat="43.858764" lon="7.502131">
			<ele>876.15</ele>
			<time>2017-03-19T15:19:32Z</time>
		</trkpt>
		<trkpt lat="43.858821" lon="7.502143">
			<ele>873.63</ele>
			<time>2017-03-19T15:19:48Z</time>
		</trkpt>
		<trkpt lat="43.858923" lon="7.502224">
			<ele>870.53</ele>
			<time>2017-03-19T15:20:10Z</time>
		</trkpt>
		<trkpt lat="43.858981" lon="7.502168">
			<ele>867.52</ele>
			<time>2017-03-19T15:20:30Z</time>
		</trkpt>
		<trkpt lat="43.859086" lon="7.502101">
			<ele>858.33</ele>
			<time>2017-03-19T15:21:32Z</time>
		</trkpt>
		<trkpt lat="43.859185" lon="7.502191">
			<ele>855.26</ele>
			<time>2017-03-19T15:21:51Z</time>
		</trkpt>
		<trkpt lat="43.859241" lon="7.502131">
			<ele>853.53</ele>
			<time>2017-03-19T15:22:06Z</time>
		</trkpt>
		<trkpt lat="43.859307" lon="7.501948">
			<ele>850.46</ele>
			<time>2017-03-19T15:22:22Z</time>
		</trkpt>
		<trkpt lat="43.859407" lon="7.501844">
			<ele>847.45</ele>
			<time>2017-03-19T15:22:44Z</time>
		</trkpt>
		<trkpt lat="43.859502" lon="7.501774">
			<ele>844.39</ele>
			<time>2017-03-19T15:23:02Z</time>
		</trkpt>
		<trkpt lat="43.859657" lon="7.501787">
			<ele>841.49</ele>
			<time>2017-03-19T15:23:23Z</time>
		</trkpt>
		<trkpt lat="43.859740" lon="7.501812">
			<ele>838.39</ele>
			<time>2017-03-19T15:23:38Z</time>
		</trkpt>
		<trkpt lat="43.859852" lon="7.501767">
			<ele>835.26</ele>
			<time>2017-03-19T15:23:57Z</time>
		</trkpt>
		<trkpt lat="43.859955" lon="7.501707">
			<ele>832.26</ele>
			<time>2017-03-19T15:24:15Z</time>
		</trkpt>
		<trkpt lat="43.860079" lon="7.501734">
			<ele>829.50</ele>
			<time>2017-03-19T15:24:36Z</time>
		</trkpt>
		<trkpt lat="43.860186" lon="7.501690">
			<ele>826.48</ele>
			<time>2017-03-19T15:24:56Z</time>
		</trkpt>
		<trkpt lat="43.860295" lon="7.501693">
			<ele>823.32</ele>
			<time>2017-03-19T15:25:18Z</time>
		</trkpt>
		<trkpt lat="43.860439" lon="7.501736">
			<ele>820.07</ele>
			<time>2017-03-19T15:25:39Z</time>
		</trkpt>
		<trkpt lat="43.860561" lon="7.501761">
			<ele>816.87</ele>
			<time>2017-03-19T15:25:54Z</time>
		</trkpt>
		<trkpt lat="43.860683" lon="7.501762">
			<ele>814.36</ele>
			<time>2017-03-19T15:26:15Z</time>
		</trkpt>
		<trkpt lat="43.860852" lon="7.501740">
			<ele>812.14</ele>
			<time>2017-03-19T15:26:36Z</time>
		</trkpt>
		<trkpt lat="43.860953" lon="7.501701">
			<ele>810.43</ele>
			<time>2017-03-19T15:26:51Z</time>
		</trkpt>
		<trkpt lat="43.861089" lon="7.501776">
			<ele>808.43</ele>
			<time>2017-03-19T15:27:14Z</time>
		</trkpt>
		<trkpt lat="43.861131" lon="7.501895">
			<ele>807.40</ele>
			<time>2017-03-19T15:27:36Z</time>
		</trkpt>
		<trkpt lat="43.861155" lon="7.502021">
			<ele>806.91</ele>
			<time>2017-03-19T15:27:58Z</time>
		</trkpt>
		<trkpt lat="43.861236" lon="7.502189">
			<ele>805.20</ele>
			<time>2017-03-19T15:28:09Z</time>
		</trkpt>
		<trkpt lat="43.861377" lon="7.502330">
			<ele>802.19</ele>
			<time>2017-03-19T15:28:23Z</time>
		</trkpt>
		<trkpt lat="43.861402" lon="7.502388">
			<ele>802.13</ele>
			<time>2017-03-19T15:28:27Z</time>
		</trkpt>
		<trkpt lat="43.861445" lon="7.502443">
			<ele>802.04</ele>
			<time>2017-03-19T15:28:31Z</time>
		</trkpt>
		<trkpt lat="43.861635" lon="7.502567">
			<ele>800.99</ele>
			<time>2017-03-19T15:28:52Z</time>
		</trkpt>
		<trkpt lat="43.861644" lon="7.502576">
			<ele>800.98</ele>
			<time>2017-03-19T15:28:53Z</time>
		</trkpt>
		<trkpt lat="43.861947" lon="7.502783">
			<ele>799.13</ele>
			<time>2017-03-19T15:29:19Z</time>
		</trkpt>
		<trkpt lat="43.862201" lon="7.502971">
			<ele>798.24</ele>
			<time>2017-03-19T15:29:42Z</time>
		</trkpt>
		<trkpt lat="43.862291" lon="7.503097">
			<ele>796.85</ele>
			<time>2017-03-19T15:29:54Z</time>
		</trkpt>
		<trkpt lat="43.862407" lon="7.503286">
			<ele>795.78</ele>
			<time>2017-03-19T15:30:12Z</time>
		</trkpt>
		<trkpt lat="43.862587" lon="7.503425">
			<ele>793.74</ele>
			<time>2017-03-19T15:30:33Z</time>
		</trkpt>
		<trkpt lat="43.862675" lon="7.503573">
			<ele>791.54</ele>
			<time>2017-03-19T15:30:54Z</time>
		</trkpt>
		<trkpt lat="43.862679" lon="7.503666">
			<ele>791.39</ele>
			<time>2017-03-19T15:31:07Z</time>
		</trkpt>
		<trkpt lat="43.862718" lon="7.503731">
			<ele>791.80</ele>
			<time>2017-03-19T15:31:13Z</time>
		</trkpt>
		<trkpt lat="43.862729" lon="7.503778">
			<ele>792.15</ele>
			<time>2017-03-19T15:31:18Z</time>
		</trkpt>
		<trkpt lat="43.862782" lon="7.503876">
			<ele>792.47</ele>
			<time>2017-03-19T15:31:31Z</time>
		</trkpt>
		<trkpt lat="43.862852" lon="7.504052">
			<ele>791.97</ele>
			<time>2017-03-19T15:31:49Z</time>
		</trkpt>
		<trkpt lat="43.862886" lon="7.504172">
			<ele>790.19</ele>
			<time>2017-03-19T15:32:07Z</time>
		</trkpt>
		<trkpt lat="43.862886" lon="7.504182">
			<ele>790.02</ele>
			<time>2017-03-19T15:32:10Z</time>
		</trkpt>
		<trkpt lat="43.862924" lon="7.504255">
			<ele>789.99</ele>
			<time>2017-03-19T15:33:02Z</time>
		</trkpt>
		<trkpt lat="43.863010" lon="7.504416">
			<ele>787.67</ele>
			<time>2017-03-19T15:33:18Z</time>
		</trkpt>
		<trkpt lat="43.863110" lon="7.504514">
			<ele>785.31</ele>
			<time>2017-03-19T15:33:31Z</time>
		</trkpt>
		<trkpt lat="43.863182" lon="7.504621">
			<ele>783.64</ele>
			<time>2017-03-19T15:33:40Z</time>
		</trkpt>
		<trkpt lat="43.863301" lon="7.504715">
			<ele>782.02</ele>
			<time>2017-03-19T15:33:52Z</time>
		</trkpt>
		<trkpt lat="43.863405" lon="7.504806">
			<ele>780.25</ele>
			<time>2017-03-19T15:34:02Z</time>
		</trkpt>
		<trkpt lat="43.863417" lon="7.504813">
			<ele>779.86</ele>
			<time>2017-03-19T15:34:03Z</time>
		</trkpt>
		<trkpt lat="43.863584" lon="7.504957">
			<ele>777.12</ele>
			<time>2017-03-19T15:34:21Z</time>
		</trkpt>
		<trkpt lat="43.863673" lon="7.505105">
			<ele>775.02</ele>
			<time>2017-03-19T15:34:34Z</time>
		</trkpt>
		<trkpt lat="43.863680" lon="7.505228">
			<ele>772.94</ele>
			<time>2017-03-19T15:34:51Z</time>
		</trkpt>
		<trkpt lat="43.863745" lon="7.505371">
			<ele>769.85</ele>
			<time>2017-03-19T15:35:06Z</time>
		</trkpt>
		<trkpt lat="43.863785" lon="7.505476">
			<ele>767.97</ele>
			<time>2017-03-19T15:35:18Z</time>
		</trkpt>
		<trkpt lat="43.863826" lon="7.505578">
			<ele>767.10</ele>
			<time>2017-03-19T15:35:32Z</time>
		</trkpt>
		<trkpt lat="43.863851" lon="7.505694">
			<ele>766.92</ele>
			<time>2017-03-19T15:35:43Z</time>
		</trkpt>
		<trkpt lat="43.863854" lon="7.505697">
			<ele>766.80</ele>
			<time>2017-03-19T15:35:44Z</time>
		</trkpt>
		<trkpt lat="43.863876" lon="7.505718">
			<ele>766.56</ele>
			<time>2017-03-19T15:35:49Z</time>
		</trkpt>
		<trkpt lat="43.863890" lon="7.505726">
			<ele>766.61</ele>
			<time>2017-03-19T15:35:51Z</time>
		</trkpt>
		<trkpt lat="43.863911" lon="7.505789">
			<ele>766.39</ele>
			<time>2017-03-19T15:35:57Z</time>
		</trkpt>
		<trkpt lat="43.863937" lon="7.505822">
			<ele>766.06</ele>
			<time>2017-03-19T15:36:00Z</time>
		</trkpt>
		<trkpt lat="43.863993" lon="7.505911">
			<ele>765.53</ele>
			<time>2017-03-19T15:36:09Z</time>
		</trkpt>
		<trkpt lat="43.864082" lon="7.506011">
			<ele>764.52</ele>
			<time>2017-03-19T15:36:21Z</time>
		</trkpt>
		<trkpt lat="43.864192" lon="7.506167">
			<ele>763.16</ele>
			<time>2017-03-19T15:36:34Z</time>
		</trkpt>
		<trkpt lat="43.864277" lon="7.506343">
			<ele>761.58</ele>
			<time>2017-03-19T15:36:52Z</time>
		</trkpt>
		<trkpt lat="43.864330" lon="7.506504">
			<ele>760.94</ele>
			<time>2017-03-19T15:37:04Z</time>
		</trkpt>
		<trkpt lat="43.864358" lon="7.506659">
			<ele>760.99</ele>
			<time>2017-03-19T15:37:15Z</time>
		</trkpt>
		<trkpt lat="43.864369" lon="7.506797">
			<ele>761.40</ele>
			<time>2017-03-19T15:37:28Z</time>
		</trkpt>
		<trkpt lat="43.864400" lon="7.506978">
			<ele>762.36</ele>
			<time>2017-03-19T15:37:44Z</time>
		</trkpt>
		<trkpt lat="43.864412" lon="7.507004">
			<ele>762.67</ele>
			<time>2017-03-19T15:37:48Z</time>
		</trkpt>
		<trkpt lat="43.864440" lon="7.507108">
			<ele>763.28</ele>
			<time>2017-03-19T15:37:58Z</time>
		</trkpt>
		<trkpt lat="43.864435" lon="7.507149">
			<ele>763.59</ele>
			<time>2017-03-19T15:38:02Z</time>
		</trkpt>
		<trkpt lat="43.864453" lon="7.507381">
			<ele>764.65</ele>
			<time>2017-03-19T15:38:20Z</time>
		</trkpt>
		<trkpt lat="43.864477" lon="7.507473">
			<ele>765.22</ele>
			<time>2017-03-19T15:38:32Z</time>
		</trkpt>
		<trkpt lat="43.864538" lon="7.507564">
			<ele>764.21</ele>
			<time>2017-03-19T15:39:03Z</time>
		</trkpt>
		<trkpt lat="43.864482" lon="7.507670">
			<ele>766.05</ele>
			<time>2017-03-19T15:39:20Z</time>
		</trkpt>
		<trkpt lat="43.864477" lon="7.507861">
			<ele>767.42</ele>
			<time>2017-03-19T15:39:39Z</time>
		</trkpt>
		<trkpt lat="43.864554" lon="7.508050">
			<ele>764.96</ele>
			<time>2017-03-19T15:39:56Z</time>
		</trkpt>
		<trkpt lat="43.864632" lon="7.508170">
			<ele>759.29</ele>
			<time>2017-03-19T15:40:33Z</time>
		</trkpt>
		<trkpt lat="43.864634" lon="7.508183">
			<ele>759.07</ele>
			<time>2017-03-19T15:40:34Z</time>
		</trkpt>
		<trkpt lat="43.864719" lon="7.508243">
			<ele>756.44</ele>
			<time>2017-03-19T15:40:46Z</time>
		</trkpt>
		<trkpt lat="43.864737" lon="7.508265">
			<ele>756.00</ele>
			<time>2017-03-19T15:40:48Z</time>
		</trkpt>
		<trkpt lat="43.864898" lon="7.508402">
			<ele>752.77</ele>
			<time>2017-03-19T15:41:08Z</time>
		</trkpt>
		<trkpt lat="43.865044" lon="7.508523">
			<ele>750.60</ele>
			<time>2017-03-19T15:41:27Z</time>
		</trkpt>
		<trkpt lat="43.865197" lon="7.508627">
			<ele>747.93</ele>
			<time>2017-03-19T15:41:47Z</time>
		</trkpt>
		<trkpt lat="43.865293" lon="7.508729">
			<ele>746.18</ele>
			<time>2017-03-19T15:42:05Z</time>
		</trkpt>
		<trkpt lat="43.865359" lon="7.508840">
			<ele>744.23</ele>
			<time>2017-03-19T15:42:28Z</time>
		</trkpt>
		<trkpt lat="43.865440" lon="7.508998">
			<ele>741.85</ele>
			<time>2017-03-19T15:42:49Z</time>
		</trkpt>
		<trkpt lat="43.865501" lon="7.509149">
			<ele>739.55</ele>
			<time>2017-03-19T15:43:09Z</time>
		</trkpt>
		<trkpt lat="43.865515" lon="7.509270">
			<ele>737.55</ele>
			<time>2017-03-19T15:43:28Z</time>
		</trkpt>
		<trkpt lat="43.865572" lon="7.509437">
			<ele>737.20</ele>
			<time>2017-03-19T15:43:49Z</time>
		</trkpt>
		<trkpt lat="43.865768" lon="7.509634">
			<ele>735.21</ele>
			<time>2017-03-19T15:44:10Z</time>
		</trkpt>
		<trkpt lat="43.865912" lon="7.509731">
			<ele>733.60</ele>
			<time>2017-03-19T15:44:34Z</time>
		</trkpt>
		<trkpt lat="43.866072" lon="7.509816">
			<ele>733.45</ele>
			<time>2017-03-19T15:44:57Z</time>
		</trkpt>
		<trkpt lat="43.866200" lon="7.509896">
			<ele>733.41</ele>
			<time>2017-03-19T15:45:16Z</time>
		</trkpt>
		<trkpt lat="43.866342" lon="7.510004">
			<ele>733.40</ele>
			<time>2017-03-19T15:45:39Z</time>
		</trkpt>
		<trkpt lat="43.866452" lon="7.510119">
			<ele>734.19</ele>
			<time>2017-03-19T15:46:01Z</time>
		</trkpt>
		<trkpt lat="43.866587" lon="7.510280">
			<ele>733.02</ele>
			<time>2017-03-19T15:46:21Z</time>
		</trkpt>
		<trkpt lat="43.866685" lon="7.510391">
			<ele>731.97</ele>
			<time>2017-03-19T15:46:42Z</time>
		</trkpt>
		<trkpt lat="43.866832" lon="7.510437">
			<ele>731.57</ele>
			<time>2017-03-19T15:47:04Z</time>
		</trkpt>
		<trkpt lat="43.866970" lon="7.510445">
			<ele>730.22</ele>
			<time>2017-03-19T15:47:24Z</time>
		</trkpt>
		<trkpt lat="43.867016" lon="7.510446">
			<ele>729.31</ele>
			<time>2017-03-19T15:47:34Z</time>
		</trkpt>
		<trkpt lat="43.867184" lon="7.510439">
			<ele>727.25</ele>
			<time>2017-03-19T15:47:56Z</time>
		</trkpt>
		<trkpt lat="43.867208" lon="7.510434">
			<ele>726.51</ele>
			<time>2017-03-19T15:48:00Z</time>
		</trkpt>
		<trkpt lat="43.867242" lon="7.510506">
			<ele>723.27</ele>
			<time>2017-03-19T15:48:18Z</time>
		</trkpt>
		<trkpt lat="43.867343" lon="7.510599">
			<ele>720.56</ele>
			<time>2017-03-19T15:48:38Z</time>
		</trkpt>
		<trkpt lat="43.867387" lon="7.510692">
			<ele>717.87</ele>
			<time>2017-03-19T15:48:57Z</time>
		</trkpt>
		<trkpt lat="43.867500" lon="7.510748">
			<ele>715.38</ele>
			<time>2017-03-19T15:49:19Z</time>
		</trkpt>
		<trkpt lat="43.867621" lon="7.510837">
			<ele>712.23</ele>
			<time>2017-03-19T15:49:40Z</time>
		</trkpt>
		<trkpt lat="43.867770" lon="7.510914">
			<ele>709.39</ele>
			<time>2017-03-19T15:50:01Z</time>
		</trkpt>
		<trkpt lat="43.867859" lon="7.510942">
			<ele>708.44</ele>
			<time>2017-03-19T15:50:12Z</time>
		</trkpt>
		<trkpt lat="43.867941" lon="7.511062">
			<ele>705.30</ele>
			<time>2017-03-19T15:50:31Z</time>
		</trkpt>
		<trkpt lat="43.868101" lon="7.511182">
			<ele>702.58</ele>
			<time>2017-03-19T15:50:53Z</time>
		</trkpt>
		<trkpt lat="43.868174" lon="7.511254">
			<ele>700.17</ele>
			<time>2017-03-19T15:51:11Z</time>
		</trkpt>
		<trkpt lat="43.868259" lon="7.511319">
			<ele>698.66</ele>
			<time>2017-03-19T15:51:24Z</time>
		</trkpt>
		<trkpt lat="43.868324" lon="7.511442">
			<ele>695.26</ele>
			<time>2017-03-19T15:51:37Z</time>
		</trkpt>
		<trkpt lat="43.868466" lon="7.511480">
			<ele>692.26</ele>
			<time>2017-03-19T15:51:51Z</time>
		</trkpt>
		<trkpt lat="43.868507" lon="7.511483">
			<ele>691.85</ele>
			<time>2017-03-19T15:51:54Z</time>
		</trkpt>
		<trkpt lat="43.868549" lon="7.511488">
			<ele>691.39</ele>
			<time>2017-03-19T15:51:57Z</time>
		</trkpt>
		<trkpt lat="43.868742" lon="7.511585">
			<ele>688.26</ele>
			<time>2017-03-19T15:52:14Z</time>
		</trkpt>
		<trkpt lat="43.868768" lon="7.511632">
			<ele>687.88</ele>
			<time>2017-03-19T15:52:18Z</time>
		</trkpt>
		<trkpt lat="43.868786" lon="7.511653">
			<ele>687.72</ele>
			<time>2017-03-19T15:52:20Z</time>
		</trkpt>
		<trkpt lat="43.868878" lon="7.511708">
			<ele>686.07</ele>
			<time>2017-03-19T15:52:38Z</time>
		</trkpt>
		<trkpt lat="43.869031" lon="7.511809">
			<ele>683.85</ele>
			<time>2017-03-19T15:52:58Z</time>
		</trkpt>
		<trkpt lat="43.869176" lon="7.511857">
			<ele>680.75</ele>
			<time>2017-03-19T15:53:17Z</time>
		</trkpt>
		<trkpt lat="43.869322" lon="7.511956">
			<ele>677.81</ele>
			<time>2017-03-19T15:53:37Z</time>
		</trkpt>
		<trkpt lat="43.869490" lon="7.512076">
			<ele>676.73</ele>
			<time>2017-03-19T15:53:57Z</time>
		</trkpt>
		<trkpt lat="43.869635" lon="7.512107">
			<ele>674.64</ele>
			<time>2017-03-19T15:54:17Z</time>
		</trkpt>
		<trkpt lat="43.869650" lon="7.512260">
			<ele>671.54</ele>
			<time>2017-03-19T15:54:34Z</time>
		</trkpt>
		<trkpt lat="43.869716" lon="7.512335">
			<ele>668.88</ele>
			<time>2017-03-19T15:54:51Z</time>
		</trkpt>
		<trkpt lat="43.869785" lon="7.512500">
			<ele>665.89</ele>
			<time>2017-03-19T15:55:09Z</time>
		</trkpt>
		<trkpt lat="43.869849" lon="7.512586">
			<ele>662.84</ele>
			<time>2017-03-19T15:55:28Z</time>
		</trkpt>
		<trkpt lat="43.869846" lon="7.512723">
			<ele>659.74</ele>
			<time>2017-03-19T15:55:46Z</time>
		</trkpt>
		<trkpt lat="43.869885" lon="7.512844">
			<ele>656.73</ele>
			<time>2017-03-19T15:56:05Z</time>
		</trkpt>
		<trkpt lat="43.869927" lon="7.512935">
			<ele>653.74</ele>
			<time>2017-03-19T15:56:23Z</time>
		</trkpt>
		<trkpt lat="43.870065" lon="7.512854">
			<ele>650.69</ele>
			<time>2017-03-19T15:56:40Z</time>
		</trkpt>
		<trkpt lat="43.870119" lon="7.512743">
			<ele>647.57</ele>
			<time>2017-03-19T15:56:57Z</time>
		</trkpt>
		<trkpt lat="43.870179" lon="7.512837">
			<ele>644.34</ele>
			<time>2017-03-19T15:57:15Z</time>
		</trkpt>
		<trkpt lat="43.870258" lon="7.512927">
			<ele>641.33</ele>
			<time>2017-03-19T15:57:30Z</time>
		</trkpt>
		<trkpt lat="43.870329" lon="7.513035">
			<ele>639.25</ele>
			<time>2017-03-19T15:57:42Z</time>
		</trkpt>
		<trkpt lat="43.870418" lon="7.513236">
			<ele>636.04</ele>
			<time>2017-03-19T15:58:01Z</time>
		</trkpt>
		<trkpt lat="43.870483" lon="7.513288">
			<ele>632.91</ele>
			<time>2017-03-19T15:58:20Z</time>
		</trkpt>
		<trkpt lat="43.870539" lon="7.513447">
			<ele>630.14</ele>
			<time>2017-03-19T15:58:38Z</time>
		</trkpt>
		<trkpt lat="43.870652" lon="7.513582">
			<ele>625.06</ele>
			<time>2017-03-19T15:59:20Z</time>
		</trkpt>
		<trkpt lat="43.870684" lon="7.513606">
			<ele>622.31</ele>
			<time>2017-03-19T15:59:37Z</time>
		</trkpt>
		<trkpt lat="43.870742" lon="7.513641">
			<ele>619.36</ele>
			<time>2017-03-19T15:59:55Z</time>
		</trkpt>
		<trkpt lat="43.870792" lon="7.513715">
			<ele>613.31</ele>
			<time>2017-03-19T16:00:30Z</time>
		</trkpt>
		<trkpt lat="43.870891" lon="7.513713">
			<ele>607.17</ele>
			<time>2017-03-19T16:01:04Z</time>
		</trkpt>
		<trkpt lat="43.870938" lon="7.513618">
			<ele>604.17</ele>
			<time>2017-03-19T16:01:19Z</time>
		</trkpt>
		<trkpt lat="43.870975" lon="7.513492">
			<ele>601.12</ele>
			<time>2017-03-19T16:01:34Z</time>
		</trkpt>
		<trkpt lat="43.870995" lon="7.513452">
			<ele>599.59</ele>
			<time>2017-03-19T16:01:40Z</time>
		</trkpt>
		<trkpt lat="43.871004" lon="7.513415">
			<ele>598.73</ele>
			<time>2017-03-19T16:01:44Z</time>
		</trkpt>
		<trkpt lat="43.871017" lon="7.513414">
			<ele>595.44</ele>
			<time>2017-03-19T16:02:03Z</time>
		</trkpt>
		<trkpt lat="43.871132" lon="7.513549">
			<ele>592.35</ele>
			<time>2017-03-19T16:02:20Z</time>
		</trkpt>
		<trkpt lat="43.871194" lon="7.513710">
			<ele>589.29</ele>
			<time>2017-03-19T16:02:37Z</time>
		</trkpt>
		<trkpt lat="43.871251" lon="7.513763">
			<ele>586.22</ele>
			<time>2017-03-19T16:02:58Z</time>
		</trkpt>
		<trkpt lat="43.871319" lon="7.513725">
			<ele>583.39</ele>
			<time>2017-03-19T16:03:16Z</time>
		</trkpt>
		<trkpt lat="43.871379" lon="7.513738">
			<ele>580.29</ele>
			<time>2017-03-19T16:03:33Z</time>
		</trkpt>
		<trkpt lat="43.871428" lon="7.513650">
			<ele>577.28</ele>
			<time>2017-03-19T16:03:48Z</time>
		</trkpt>
		<trkpt lat="43.871489" lon="7.513642">
			<ele>572.52</ele>
			<time>2017-03-19T16:04:12Z</time>
		</trkpt>
		<trkpt lat="43.871506" lon="7.513677">
			<ele>569.43</ele>
			<time>2017-03-19T16:04:27Z</time>
		</trkpt>
		<trkpt lat="43.871541" lon="7.513713">
			<ele>566.91</ele>
			<time>2017-03-19T16:04:42Z</time>
		</trkpt>
		<trkpt lat="43.871591" lon="7.513745">
			<ele>563.81</ele>
			<time>2017-03-19T16:04:59Z</time>
		</trkpt>
		<trkpt lat="43.871657" lon="7.513773">
			<ele>560.74</ele>
			<time>2017-03-19T16:05:15Z</time>
		</trkpt>
		<trkpt lat="43.871716" lon="7.513817">
			<ele>558.66</ele>
			<time>2017-03-19T16:05:26Z</time>
		</trkpt>
		<trkpt lat="43.871788" lon="7.513701">
			<ele>555.69</ele>
			<time>2017-03-19T16:05:43Z</time>
		</trkpt>
		<trkpt lat="43.871868" lon="7.513614">
			<ele>546.48</ele>
			<time>2017-03-19T16:06:30Z</time>
		</trkpt>
		<trkpt lat="43.871926" lon="7.513714">
			<ele>543.34</ele>
			<time>2017-03-19T16:06:45Z</time>
		</trkpt>
		<trkpt lat="43.871961" lon="7.513782">
			<ele>540.24</ele>
			<time>2017-03-19T16:07:01Z</time>
		</trkpt>
		<trkpt lat="43.872020" lon="7.513789">
			<ele>538.01</ele>
			<time>2017-03-19T16:07:15Z</time>
		</trkpt>
		<trkpt lat="43.872092" lon="7.513682">
			<ele>534.95</ele>
			<time>2017-03-19T16:07:30Z</time>
		</trkpt>
		<trkpt lat="43.872211" lon="7.513658">
			<ele>529.05</ele>
			<time>2017-03-19T16:08:05Z</time>
		</trkpt>
		<trkpt lat="43.872361" lon="7.513775">
			<ele>517.81</ele>
			<time>2017-03-19T16:09:05Z</time>
		</trkpt>
		<trkpt lat="43.872430" lon="7.513889">
			<ele>514.30</ele>
			<time>2017-03-19T16:09:21Z</time>
		</trkpt>
		<trkpt lat="43.872515" lon="7.513850">
			<ele>511.09</ele>
			<time>2017-03-19T16:09:36Z</time>
		</trkpt>
		<trkpt lat="43.872599" lon="7.513722">
			<ele>507.68</ele>
			<time>2017-03-19T16:09:49Z</time>
		</trkpt>
		<trkpt lat="43.872733" lon="7.513570">
			<ele>499.16</ele>
			<time>2017-03-19T16:10:24Z</time>
		</trkpt>
		<trkpt lat="43.872778" lon="7.513577">
			<ele>495.80</ele>
			<time>2017-03-19T16:10:37Z</time>
		</trkpt>
		<trkpt lat="43.872857" lon="7.513614">
			<ele>492.56</ele>
			<time>2017-03-19T16:10:55Z</time>
		</trkpt>
		<trkpt lat="43.872921" lon="7.513490">
			<ele>489.42</ele>
			<time>2017-03-19T16:11:14Z</time>
		</trkpt>
		<trkpt lat="43.873002" lon="7.513437">
			<ele>486.37</ele>
			<time>2017-03-19T16:11:29Z</time>
		</trkpt>
		<trkpt lat="43.873041" lon="7.513317">
			<ele>483.79</ele>
			<time>2017-03-19T16:11:49Z</time>
		</trkpt>
		<trkpt lat="43.873091" lon="7.513291">
			<ele>481.06</ele>
			<time>2017-03-19T16:12:04Z</time>
		</trkpt>
		<trkpt lat="43.873093" lon="7.513381">
			<ele>480.08</ele>
			<time>2017-03-19T16:12:33Z</time>
		</trkpt>
		<trkpt lat="43.873092" lon="7.513415">
			<ele>479.61</ele>
			<time>2017-03-19T16:12:35Z</time>
		</trkpt>
		<trkpt lat="43.873098" lon="7.513568">
			<ele>476.29</ele>
			<time>2017-03-19T16:12:50Z</time>
		</trkpt>
		<trkpt lat="43.873136" lon="7.513753">
			<ele>473.07</ele>
			<time>2017-03-19T16:13:07Z</time>
		</trkpt>
		<trkpt lat="43.873199" lon="7.513886">
			<ele>469.94</ele>
			<time>2017-03-19T16:13:21Z</time>
		</trkpt>
		<trkpt lat="43.873243" lon="7.514057">
			<ele>466.84</ele>
			<time>2017-03-19T16:13:37Z</time>
		</trkpt>
		<trkpt lat="43.873269" lon="7.514247">
			<ele>463.71</ele>
			<time>2017-03-19T16:13:55Z</time>
		</trkpt>
		<trkpt lat="43.873286" lon="7.514323">
			<ele>462.81</ele>
			<time>2017-03-19T16:14:00Z</time>
		</trkpt>
		<trkpt lat="43.873258" lon="7.514540">
			<ele>460.15</ele>
			<time>2017-03-19T16:14:19Z</time>
		</trkpt>
		<trkpt lat="43.873203" lon="7.514685">
			<ele>457.08</ele>
			<time>2017-03-19T16:14:37Z</time>
		</trkpt>
		<trkpt lat="43.873243" lon="7.514794">
			<ele>450.94</ele>
			<time>2017-03-19T16:15:10Z</time>
		</trkpt>
		<trkpt lat="43.873322" lon="7.514806">
			<ele>447.99</ele>
			<time>2017-03-19T16:15:30Z</time>
		</trkpt>
		<trkpt lat="43.873380" lon="7.514809">
			<ele>444.87</ele>
			<time>2017-03-19T16:15:45Z</time>
		</trkpt>
		<trkpt lat="43.873434" lon="7.514806">
			<ele>442.13</ele>
			<time>2017-03-19T16:16:01Z</time>
		</trkpt>
		<trkpt lat="43.873566" lon="7.514638">
			<ele>438.99</ele>
			<time>2017-03-19T16:16:20Z</time>
		</trkpt>
		<trkpt lat="43.873644" lon="7.514571">
			<ele>436.12</ele>
			<time>2017-03-19T16:16:37Z</time>
		</trkpt>
		<trkpt lat="43.873737" lon="7.514711">
			<ele>426.95</ele>
			<time>2017-03-19T16:17:31Z</time>
		</trkpt>
		<trkpt lat="43.873755" lon="7.514751">
			<ele>424.88</ele>
			<time>2017-03-19T16:17:49Z</time>
		</trkpt>
		<trkpt lat="43.873846" lon="7.514678">
			<ele>421.86</ele>
			<time>2017-03-19T16:18:09Z</time>
		</trkpt>
		<trkpt lat="43.873917" lon="7.514532">
			<ele>418.85</ele>
			<time>2017-03-19T16:18:28Z</time>
		</trkpt>
		<trkpt lat="43.873959" lon="7.514505">
			<ele>415.15</ele>
			<time>2017-03-19T16:18:52Z</time>
		</trkpt>
		<trkpt lat="43.874019" lon="7.514555">
			<ele>412.12</ele>
			<time>2017-03-19T16:19:12Z</time>
		</trkpt>
		<trkpt lat="43.874081" lon="7.514517">
			<ele>409.50</ele>
			<time>2017-03-19T16:19:26Z</time>
		</trkpt>
		<trkpt lat="43.874133" lon="7.514323">
			<ele>406.23</ele>
			<time>2017-03-19T16:19:47Z</time>
		</trkpt>
		<trkpt lat="43.874230" lon="7.514318">
			<ele>403.06</ele>
			<time>2017-03-19T16:20:04Z</time>
		</trkpt>
		<trkpt lat="43.874287" lon="7.514453">
			<ele>397.09</ele>
			<time>2017-03-19T16:20:38Z</time>
		</trkpt>
		<trkpt lat="43.874384" lon="7.514362">
			<ele>393.88</ele>
			<time>2017-03-19T16:20:55Z</time>
		</trkpt>
		<trkpt lat="43.874448" lon="7.514316">
			<ele>390.85</ele>
			<time>2017-03-19T16:21:10Z</time>
		</trkpt>
		<trkpt lat="43.874598" lon="7.514310">
			<ele>387.55</ele>
			<time>2017-03-19T16:21:26Z</time>
		</trkpt>
		<trkpt lat="43.874686" lon="7.514243">
			<ele>384.26</ele>
			<time>2017-03-19T16:21:38Z</time>
		</trkpt>
		<trkpt lat="43.874725" lon="7.514082">
			<ele>380.87</ele>
			<time>2017-03-19T16:21:52Z</time>
		</trkpt>
		<trkpt lat="43.874723" lon="7.514045">
			<ele>380.26</ele>
			<time>2017-03-19T16:21:55Z</time>
		</trkpt>
		<trkpt lat="43.874663" lon="7.513910">
			<ele>377.31</ele>
			<time>2017-03-19T16:22:12Z</time>
		</trkpt>
		<trkpt lat="43.874755" lon="7.513793">
			<ele>374.11</ele>
			<time>2017-03-19T16:22:26Z</time>
		</trkpt>
		<trkpt lat="43.874822" lon="7.513676">
			<ele>371.88</ele>
			<time>2017-03-19T16:22:47Z</time>
		</trkpt>
		<trkpt lat="43.874924" lon="7.513612">
			<ele>368.06</ele>
			<time>2017-03-19T16:23:43Z</time>
		</trkpt>
		<trkpt lat="43.875087" lon="7.513484">
			<ele>366.48</ele>
			<time>2017-03-19T16:24:43Z</time>
		</trkpt>
		<trkpt lat="43.875194" lon="7.513393">
			<ele>363.50</ele>
			<time>2017-03-19T16:25:03Z</time>
		</trkpt>
		<trkpt lat="43.875280" lon="7.513436">
			<ele>360.33</ele>
			<time>2017-03-19T16:25:15Z</time>
		</trkpt>
		<trkpt lat="43.875313" lon="7.513490">
			<ele>357.40</ele>
			<time>2017-03-19T16:25:29Z</time>
		</trkpt>
		<trkpt lat="43.875418" lon="7.513523">
			<ele>355.04</ele>
			<time>2017-03-19T16:25:44Z</time>
		</trkpt>
		<trkpt lat="43.875586" lon="7.513479">
			<ele>352.82</ele>
			<time>2017-03-19T16:26:00Z</time>
		</trkpt>
		<trkpt lat="43.875827" lon="7.513554">
			<ele>340.65</ele>
			<time>2017-03-19T16:27:05Z</time>
		</trkpt>
		<trkpt lat="43.875920" lon="7.513490">
			<ele>337.94</ele>
			<time>2017-03-19T16:27:23Z</time>
		</trkpt>
		<trkpt lat="43.875938" lon="7.513470">
			<ele>337.50</ele>
			<time>2017-03-19T16:27:43Z</time>
		</trkpt>
		<trkpt lat="43.875989" lon="7.513355">
			<ele>335.91</ele>
			<time>2017-03-19T16:28:03Z</time>
		</trkpt>
		<trkpt lat="43.875935" lon="7.513256">
			<ele>334.00</ele>
			<time>2017-03-19T16:28:27Z</time>
		</trkpt>
		<trkpt lat="43.875780" lon="7.513161">
			<ele>331.35</ele>
			<time>2017-03-19T16:28:45Z</time>
		</trkpt>
		<trkpt lat="43.875637" lon="7.513050">
			<ele>328.26</ele>
			<time>2017-03-19T16:29:07Z</time>
		</trkpt>
		<trkpt lat="43.875576" lon="7.512921">
			<ele>325.40</ele>
			<time>2017-03-19T16:29:23Z</time>
		</trkpt>
		<trkpt lat="43.875487" lon="7.512844">
			<ele>323.00</ele>
			<time>2017-03-19T16:29:32Z</time>
		</trkpt>
		<trkpt lat="43.875369" lon="7.512661">
			<ele>319.65</ele>
			<time>2017-03-19T16:29:49Z</time>
		</trkpt>
		<trkpt lat="43.875356" lon="7.512499">
			<ele>316.57</ele>
			<time>2017-03-19T16:30:06Z</time>
		</trkpt>
		<trkpt lat="43.875380" lon="7.512380">
			<ele>310.78</ele>
			<time>2017-03-19T16:30:40Z</time>
		</trkpt>
		<trkpt lat="43.875475" lon="7.512408">
			<ele>307.61</ele>
			<time>2017-03-19T16:30:59Z</time>
		</trkpt>
		<trkpt lat="43.875556" lon="7.512480">
			<ele>305.49</ele>
			<time>2017-03-19T16:31:10Z</time>
		</trkpt>
		<trkpt lat="43.875652" lon="7.512577">
			<ele>302.24</ele>
			<time>2017-03-19T16:31:30Z</time>
		</trkpt>
		<trkpt lat="43.875690" lon="7.512493">
			<ele>299.87</ele>
			<time>2017-03-19T16:31:48Z</time>
		</trkpt>
		<trkpt lat="43.875716" lon="7.512368">
			<ele>296.79</ele>
			<time>2017-03-19T16:32:05Z</time>
		</trkpt>
		<trkpt lat="43.875743" lon="7.512318">
			<ele>295.70</ele>
			<time>2017-03-19T16:32:12Z</time>
		</trkpt>
		<trkpt lat="43.875806" lon="7.512336">
			<ele>293.65</ele>
			<time>2017-03-19T16:32:44Z</time>
		</trkpt>
		<trkpt lat="43.875869" lon="7.512363">
			<ele>291.34</ele>
			<time>2017-03-19T16:33:00Z</time>
		</trkpt>
		<trkpt lat="43.876006" lon="7.512368">
			<ele>289.40</ele>
			<time>2017-03-19T16:33:17Z</time>
		</trkpt>
		<trkpt lat="43.876273" lon="7.512257">
			<ele>286.59</ele>
			<time>2017-03-19T16:33:39Z</time>
		</trkpt>
		<trkpt lat="43.876403" lon="7.512174">
			<ele>283.53</ele>
			<time>2017-03-19T16:33:56Z</time>
		</trkpt>
		<trkpt lat="43.876548" lon="7.512126">
			<ele>280.48</ele>
			<time>2017-03-19T16:34:13Z</time>
		</trkpt>
		<trkpt lat="43.876674" lon="7.512024">
			<ele>278.05</ele>
			<time>2017-03-19T16:34:33Z</time>
		</trkpt>
		<trkpt lat="43.876730" lon="7.511929">
			<ele>276.33</ele>
			<time>2017-03-19T16:34:52Z</time>
		</trkpt>
		<trkpt lat="43.876806" lon="7.511821">
			<ele>274.31</ele>
			<time>2017-03-19T16:35:12Z</time>
		</trkpt>
		<trkpt lat="43.876889" lon="7.511705">
			<ele>271.15</ele>
			<time>2017-03-19T16:35:32Z</time>
		</trkpt>
		<trkpt lat="43.876920" lon="7.511563">
			<ele>268.01</ele>
			<time>2017-03-19T16:35:50Z</time>
		</trkpt>
		<trkpt lat="43.876939" lon="7.511483">
			<ele>265.69</ele>
			<time>2017-03-19T16:36:11Z</time>
		</trkpt>
		<trkpt lat="43.876968" lon="7.511450">
			<ele>262.36</ele>
			<time>2017-03-19T16:36:53Z</time>
		</trkpt>
		<trkpt lat="43.876974" lon="7.511453">
			<ele>262.23</ele>
			<time>2017-03-19T16:36:54Z</time>
		</trkpt>
		<trkpt lat="43.877027" lon="7.511394">
			<ele>257.53</ele>
			<time>2017-03-19T16:37:35Z</time>
		</trkpt>
		<trkpt lat="43.877107" lon="7.511408">
			<ele>255.81</ele>
			<time>2017-03-19T16:37:51Z</time>
		</trkpt>
		<trkpt lat="43.877204" lon="7.511372">
			<ele>253.02</ele>
			<time>2017-03-19T16:38:13Z</time>
		</trkpt>
		<trkpt lat="43.877292" lon="7.511340">
			<ele>250.94</ele>
			<time>2017-03-19T16:38:34Z</time>
		</trkpt>
		<trkpt lat="43.877364" lon="7.511301">
			<ele>250.37</ele>
			<time>2017-03-19T16:38:51Z</time>
		</trkpt>
		<trkpt lat="43.877403" lon="7.511306">
			<ele>250.34</ele>
			<time>2017-03-19T16:39:11Z</time>
		</trkpt>
		<trkpt lat="43.877436" lon="7.511301">
			<ele>250.09</ele>
			<time>2017-03-19T16:39:37Z</time>
		</trkpt>
		<trkpt lat="43.877470" lon="7.511335">
			<ele>249.79</ele>
			<time>2017-03-19T16:39:55Z</time>
		</trkpt>
		<trkpt lat="43.877519" lon="7.511453">
			<ele>249.92</ele>
			<time>2017-03-19T16:40:15Z</time>
		</trkpt>
		<trkpt lat="43.877532" lon="7.511555">
			<ele>249.94</ele>
			<time>2017-03-19T16:40:37Z</time>
		</trkpt>
		<trkpt lat="43.877557" lon="7.511764">
			<ele>250.37</ele>
			<time>2017-03-19T16:41:00Z</time>
		</trkpt>
		<trkpt lat="43.877538" lon="7.511801">
			<ele>250.67</ele>
			<time>2017-03-19T16:41:24Z</time>
		</trkpt>
		<trkpt lat="43.877537" lon="7.511886">
			<ele>250.93</ele>
			<time>2017-03-19T16:41:48Z</time>
		</trkpt>
		<trkpt lat="43.877662" lon="7.512104">
			<ele>251.87</ele>
			<time>2017-03-19T16:42:10Z</time>
		</trkpt>
		<trkpt lat="43.877746" lon="7.512313">
			<ele>254.40</ele>
			<time>2017-03-19T16:42:33Z</time>
		</trkpt>
		<trkpt lat="43.877867" lon="7.512439">
			<ele>257.18</ele>
			<time>2017-03-19T16:42:55Z</time>
		</trkpt>
		<trkpt lat="43.878022" lon="7.512605">
			<ele>258.35</ele>
			<time>2017-03-19T16:43:17Z</time>
		</trkpt>
		<trkpt lat="43.878049" lon="7.512673">
			<ele>258.46</ele>
			<time>2017-03-19T16:43:22Z</time>
		</trkpt>
		<trkpt lat="43.878170" lon="7.512884">
			<ele>258.22</ele>
			<time>2017-03-19T16:43:41Z</time>
		</trkpt>
		<trkpt lat="43.878207" lon="7.513014">
			<ele>257.80</ele>
			<time>2017-03-19T16:43:50Z</time>
		</trkpt>
		<trkpt lat="43.878233" lon="7.513139">
			<ele>257.43</ele>
			<time>2017-03-19T16:43:58Z</time>
		</trkpt>
		<trkpt lat="43.878246" lon="7.513167">
			<ele>257.32</ele>
			<time>2017-03-19T16:44:00Z</time>
		</trkpt>
		<trkpt lat="43.878282" lon="7.513338">
			<ele>256.56</ele>
			<time>2017-03-19T16:44:13Z</time>
		</trkpt>
		<trkpt lat="43.878312" lon="7.513436">
			<ele>255.74</ele>
			<time>2017-03-19T16:44:22Z</time>
		</trkpt>
		<trkpt lat="43.878342" lon="7.513448">
			<ele>255.52</ele>
			<time>2017-03-19T16:44:25Z</time>
		</trkpt>
		<trkpt lat="43.878459" lon="7.513495">
			<ele>255.71</ele>
			<time>2017-03-19T16:44:36Z</time>
		</trkpt>
		<trkpt lat="43.878591" lon="7.513460">
			<ele>255.73</ele>
			<time>2017-03-19T16:44:45Z</time>
		</trkpt>
		<trkpt lat="43.878667" lon="7.513463">
			<ele>255.79</ele>
			<time>2017-03-19T16:44:50Z</time>
		</trkpt>
		<trkpt lat="43.878758" lon="7.513482">
			<ele>255.87</ele>
			<time>2017-03-19T16:44:57Z</time>
		</trkpt>
		<trkpt lat="43.878941" lon="7.513661">
			<ele>262.52</ele>
			<time>2017-03-19T16:46:37Z</time>
		</trkpt>
		<trkpt lat="43.879069" lon="7.513618">
			<ele>263.44</ele>
			<time>2017-03-19T16:46:51Z</time>
		</trkpt>
		<trkpt lat="43.879219" lon="7.513767">
			<ele>271.87</ele>
			<time>2017-03-19T16:47:43Z</time>
		</trkpt>
		<trkpt lat="43.879254" lon="7.513831">
			<ele>274.02</ele>
			<time>2017-03-19T16:47:59Z</time>
		</trkpt>
		<trkpt lat="43.879300" lon="7.513877">
			<ele>275.16</ele>
			<time>2017-03-19T16:48:16Z</time>
		</trkpt>
		<trkpt lat="43.879413" lon="7.513864">
			<ele>276.70</ele>
			<time>2017-03-19T16:48:31Z</time>
		</trkpt>
		<trkpt lat="43.879467" lon="7.513811">
			<ele>279.01</ele>
			<time>2017-03-19T16:48:49Z</time>
		</trkpt>
		<trkpt lat="43.879566" lon="7.513788">
			<ele>280.87</ele>
			<time>2017-03-19T16:49:01Z</time>
		</trkpt>
		<trkpt lat="43.879717" lon="7.513721">
			<ele>283.84</ele>
			<time>2017-03-19T16:49:19Z</time>
		</trkpt>
		<trkpt lat="43.879760" lon="7.513765">
			<ele>285.86</ele>
			<time>2017-03-19T16:49:38Z</time>
		</trkpt>
		<trkpt lat="43.879872" lon="7.513702">
			<ele>288.19</ele>
			<time>2017-03-19T16:49:53Z</time>
		</trkpt>
		<trkpt lat="43.879956" lon="7.513730">
			<ele>290.06</ele>
			<time>2017-03-19T16:50:09Z</time>
		</trkpt>
		<trkpt lat="43.880033" lon="7.513643">
			<ele>292.23</ele>
			<time>2017-03-19T16:50:27Z</time>
		</trkpt>
		<trkpt lat="43.880132" lon="7.513619">
			<ele>294.21</ele>
			<time>2017-03-19T16:50:44Z</time>
		</trkpt>
		<trkpt lat="43.880232" lon="7.513569">
			<ele>297.08</ele>
			<time>2017-03-19T16:51:04Z</time>
		</trkpt>
		<trkpt lat="43.880314" lon="7.513547">
			<ele>300.78</ele>
			<time>2017-03-19T16:51:51Z</time>
		</trkpt>
		<trkpt lat="43.880313" lon="7.513530">
			<ele>300.95</ele>
			<time>2017-03-19T16:52:43Z</time>
		</trkpt>
		<trkpt lat="43.880359" lon="7.513570">
			<ele>302.71</ele>
			<time>2017-03-19T16:55:00Z</time>
		</trkpt>
		<trkpt lat="43.880420" lon="7.513597">
			<ele>302.51</ele>
			<time>2017-03-19T16:55:30Z</time>
		</trkpt>
		<trkpt lat="43.880520" lon="7.513541">
			<ele>305.20</ele>
			<time>2017-03-19T16:55:48Z</time>
		</trkpt>
		<trkpt lat="43.880553" lon="7.513455">
			<ele>308.27</ele>
			<time>2017-03-19T16:56:02Z</time>
		</trkpt>
		<trkpt lat="43.880566" lon="7.513414">
			<ele>311.28</ele>
			<time>2017-03-19T16:56:20Z</time>
		</trkpt>
		<trkpt lat="43.880577" lon="7.513408">
			<ele>311.20</ele>
			<time>2017-03-19T16:56:53Z</time>
		</trkpt>
		<trkpt lat="43.880601" lon="7.513284">
			<ele>312.70</ele>
			<time>2017-03-19T16:57:33Z</time>
		</trkpt>
		<trkpt lat="43.880663" lon="7.513174">
			<ele>315.73</ele>
			<time>2017-03-19T16:57:51Z</time>
		</trkpt>
		<trkpt lat="43.880799" lon="7.513103">
			<ele>317.19</ele>
			<time>2017-03-19T16:58:09Z</time>
		</trkpt>
		<trkpt lat="43.880863" lon="7.513094">
			<ele>318.35</ele>
			<time>2017-03-19T16:58:18Z</time>
		</trkpt>
		<trkpt lat="43.880992" lon="7.513087">
			<ele>319.93</ele>
			<time>2017-03-19T16:58:35Z</time>
		</trkpt>
		<trkpt lat="43.881062" lon="7.513061">
			<ele>321.03</ele>
			<time>2017-03-19T16:58:54Z</time>
		</trkpt>
		<trkpt lat="43.881081" lon="7.513031">
			<ele>321.12</ele>
			<time>2017-03-19T16:59:21Z</time>
		</trkpt>
		<trkpt lat="43.881128" lon="7.512962">
			<ele>321.76</ele>
			<time>2017-03-19T16:59:39Z</time>
		</trkpt>
		<trkpt lat="43.881219" lon="7.512892">
			<ele>322.89</ele>
			<time>2017-03-19T17:00:00Z</time>
		</trkpt>
		<trkpt lat="43.881305" lon="7.512879">
			<ele>325.19</ele>
			<time>2017-03-19T17:00:22Z</time>
		</trkpt>
		<trkpt lat="43.881385" lon="7.512870">
			<ele>325.79</ele>
			<time>2017-03-19T17:00:49Z</time>
		</trkpt>
		<trkpt lat="43.881459" lon="7.512897">
			<ele>326.65</ele>
			<time>2017-03-19T17:01:16Z</time>
		</trkpt>
		<trkpt lat="43.881560" lon="7.512908">
			<ele>329.27</ele>
			<time>2017-03-19T17:01:41Z</time>
		</trkpt>
		<trkpt lat="43.881652" lon="7.512955">
			<ele>331.12</ele>
			<time>2017-03-19T17:02:05Z</time>
		</trkpt>
		<trkpt lat="43.881769" lon="7.512848">
			<ele>332.48</ele>
			<time>2017-03-19T17:02:25Z</time>
		</trkpt>
		<trkpt lat="43.881839" lon="7.512737">
			<ele>334.25</ele>
			<time>2017-03-19T17:02:42Z</time>
		</trkpt>
		<trkpt lat="43.881994" lon="7.512626">
			<ele>335.92</ele>
			<time>2017-03-19T17:03:02Z</time>
		</trkpt>
		<trkpt lat="43.882109" lon="7.512510">
			<ele>337.26</ele>
			<time>2017-03-19T17:03:27Z</time>
		</trkpt>
		<trkpt lat="43.882253" lon="7.512374">
			<ele>338.27</ele>
			<time>2017-03-19T17:03:48Z</time>
		</trkpt>
		<trkpt lat="43.882281" lon="7.512361">
			<ele>338.58</ele>
			<time>2017-03-19T17:03:51Z</time>
		</trkpt>
		<trkpt lat="43.882414" lon="7.512310">
			<ele>339.50</ele>
			<time>2017-03-19T17:04:05Z</time>
		</trkpt>
		<trkpt lat="43.882501" lon="7.512353">
			<ele>341.68</ele>
			<time>2017-03-19T17:04:19Z</time>
		</trkpt>
		<trkpt lat="43.882634" lon="7.512373">
			<ele>343.85</ele>
			<time>2017-03-19T17:04:37Z</time>
		</trkpt>
		<trkpt lat="43.882717" lon="7.512428">
			<ele>346.64</ele>
			<time>2017-03-19T17:04:54Z</time>
		</trkpt>
		<trkpt lat="43.882726" lon="7.512488">
			<ele>349.01</ele>
			<time>2017-03-19T17:05:25Z</time>
		</trkpt>
		<trkpt lat="43.882753" lon="7.512530">
			<ele>349.81</ele>
			<time>2017-03-19T17:05:41Z</time>
		</trkpt>
		<trkpt lat="43.882847" lon="7.512471">
			<ele>350.72</ele>
			<time>2017-03-19T17:05:56Z</time>
		</trkpt>
		<trkpt lat="43.882855" lon="7.512404">
			<ele>351.07</ele>
			<time>2017-03-19T17:06:02Z</time>
		</trkpt>
		<trkpt lat="43.882930" lon="7.512322">
			<ele>352.47</ele>
			<time>2017-03-19T17:06:18Z</time>
		</trkpt>
		<trkpt lat="43.882909" lon="7.512164">
			<ele>354.09</ele>
			<time>2017-03-19T17:06:31Z</time>
		</trkpt>
		<trkpt lat="43.882944" lon="7.512108">
			<ele>355.53</ele>
			<time>2017-03-19T17:06:46Z</time>
		</trkpt>
		<trkpt lat="43.883001" lon="7.512053">
			<ele>358.60</ele>
			<time>2017-03-19T17:06:59Z</time>
		</trkpt>
		<trkpt lat="43.883047" lon="7.511952">
			<ele>360.55</ele>
			<time>2017-03-19T17:07:18Z</time>
		</trkpt>
		<trkpt lat="43.883156" lon="7.511850">
			<ele>362.18</ele>
			<time>2017-03-19T17:07:35Z</time>
		</trkpt>
		<trkpt lat="43.883163" lon="7.511837">
			<ele>362.31</ele>
			<time>2017-03-19T17:07:36Z</time>
		</trkpt>
		<trkpt lat="43.883262" lon="7.511787">
			<ele>363.58</ele>
			<time>2017-03-19T17:07:50Z</time>
		</trkpt>
		<trkpt lat="43.883264" lon="7.511793">
			<ele>386.04</ele>
			<time>2017-03-19T17:07:55Z</time>
		</trkpt>
		<extensions>
			<gte:name>#1</gte:name>
			<gte:color>#fbaf00</gte:color>
		</extensions>
	</trkseg>
</trk>
</gpx>